XML Sitemap

This is a XML Sitemap which is supposed to be processed by search engines which follow the XML Sitemap standard like Ask.com, Bing, Google and Yahoo.
It was generated using the WordPress content management system and the Google Sitemap Generator Plugin by Arne Brachhold.
You can find more information about XML sitemaps on sitemaps.org and Google's list of sitemap programs.

URLPriorityChange frequencyLast modified (GMT)
http://xxxset.org/milf/anilos-2021-05-31-roxee-couture-taking-it-all-off-93-pics-149-81-mb/20%Monthly2021-05-31 10:47
http://xxxset.org/milf/allover30-2021-05-31-nancy-acty-mature-pleasure-146-pics-426-75-mb/20%Monthly2021-05-31 10:46
http://xxxset.org/milf/allover30-2021-05-31-elisa-tiger-mature-housewives-147-pics-253-79-mb/20%Monthly2021-05-31 10:45
http://xxxset.org/teen/sexart-2021-05-31-erotic-poem-sherice-120-pics-285-29-mb/20%Monthly2021-05-31 10:44
http://xxxset.org/milf/auntjudys-2021-05-30-stevie-takes-a-lover-hardcore-blowjob-fucking-176-pics-660-30-mb/20%Monthly2021-05-30 20:14
http://xxxset.org/teen/thelifeerotic-2021-05-30-window-voyeur-isabela-delaa-80-pics-238-88-mb/20%Monthly2021-05-30 20:13
http://xxxset.org/teen/sexart-2021-05-30-not-so-bad-day-nessie-blue-dorian-del-isla-129-pics-288-36-mb/20%Monthly2021-05-30 20:13
http://xxxset.org/milf/zoe-marks-sexy-mature-1600-133-pics-144-23-mb/20%Monthly2021-05-30 20:11
http://xxxset.org/milf/viktoria-vixen-sweet-viktoria-1600-105-pics-87-43-mb/20%Monthly2021-05-30 20:10
http://xxxset.org/milf/vicky-love-touch-and-tease-1600-70-pics-73-91-mb/20%Monthly2021-05-30 20:10
http://xxxset.org/milf/tasha-grant-solo-play-1600-95-pics-93-91-mb/20%Monthly2021-05-30 20:08
http://xxxset.org/milf/tanya-foxxx-tease-me-sweet-1600-98-pics-86-95-mb/20%Monthly2021-05-30 20:08
http://xxxset.org/milf/tanita-taking-it-all-off-1600-107-pics-110-07-mb/20%Monthly2021-05-30 20:08
http://xxxset.org/milf/tammy-jean-teasing-with-tammy-1600-77-pics-81-62-mb/20%Monthly2021-05-30 20:08
http://xxxset.org/milf/sylvie-sexual-mature-1600-67-pics-54-94-mb/20%Monthly2021-05-30 20:07
http://xxxset.org/milf/sylvia-s-undress-me-1600-80-pics-68-35-mb/20%Monthly2021-05-30 20:07
http://xxxset.org/milf/sunshine-show-me-more-1600-112-pics-125-68-mb/20%Monthly2021-05-30 20:07
http://xxxset.org/milf/sonic-slutty-sexy-things-1600-93-pics-84-mb/20%Monthly2021-05-30 20:07
http://xxxset.org/milf/rebecca-nolan-tickled-pink-1600-111-pics-100-93-mb/20%Monthly2021-05-30 20:07
http://xxxset.org/milf/rebecca-love-talk-dirty-to-me-1600-97-pics-82-06-mb/20%Monthly2021-05-30 20:07
http://xxxset.org/milf/queenie-solo-mature-1600-79-pics-74-98-mb/20%Monthly2021-05-30 20:07
http://xxxset.org/milf/oliya-sweet-sensations-1600-74-pics-78-12-mb/20%Monthly2021-05-30 20:07
http://xxxset.org/milf/nimfa-toy-show-1600-43-pics-31-32-mb/20%Monthly2021-05-30 19:57
http://xxxset.org/milf/nata-nice-touch-myself-1600-107-pics-121-08-mb/20%Monthly2021-05-30 19:57
http://xxxset.org/milf/mira-biliss-simply-divine-1600-75-pics-74-43-mb/20%Monthly2021-05-30 19:57
http://xxxset.org/milf/milena-since-you-werent-home-1600-93-pics-74-33-mb/20%Monthly2021-05-30 19:57
http://xxxset.org/milf/melanie-hicks-sun-kissed-beauty-1600-84-pics-71-84-mb/20%Monthly2021-05-30 19:57
http://xxxset.org/milf/mamie-self-arousal-1600-92-pics-76-38-mb/20%Monthly2021-05-30 19:56
http://xxxset.org/milf/london-river-stripping-down-1600-79-pics-82-13-mb/20%Monthly2021-05-30 19:56
http://xxxset.org/milf/lira-kissy-toying-around-1600-121-pics-119-93-mb/20%Monthly2021-05-30 19:56
http://xxxset.org/milf/lina-lose-underneath-it-all-1600-98-pics-95-89-mb/20%Monthly2021-05-30 19:56
http://xxxset.org/milf/lia-sensitive-clit-1600-61-pics-53-12-mb/20%Monthly2021-05-30 19:56
http://xxxset.org/milf/leyla-lynn-this-feeling-1600-53-pics-46-66-mb/20%Monthly2021-05-30 19:56
http://xxxset.org/milf/leyla-lee-right-touch-1600-129-pics-141-95-mb/20%Monthly2021-05-30 19:56
http://xxxset.org/milf/lara-de-santis-sex-kitten-1600-62-pics-46-49-mb/20%Monthly2021-05-30 19:55
http://xxxset.org/milf/kristi-sweetheart-1600-117-pics-111-94-mb/20%Monthly2021-05-30 19:55
http://xxxset.org/milf/katrina-sobar-undress-and-unwind-1600-87-pics-95-59-mb/20%Monthly2021-05-30 19:55
http://xxxset.org/milf/jamie-ray-sexy-jamie-1600-67-pics-65-32-mb/20%Monthly2021-05-30 19:55
http://xxxset.org/milf/jadeelee-sugar-and-spice-1600-63-pics-56-02-mb/20%Monthly2021-05-30 19:55
http://xxxset.org/milf/iki-sheer-desire-1600-98-pics-118-64-mb/20%Monthly2021-05-30 19:37
http://xxxset.org/milf/genivieve-solo-play-1600-102-pics-93-50-mb/20%Monthly2021-05-30 19:37
http://xxxset.org/milf/ella-brown-the-evening-orgasm-1600-40-pics-39-72-mb/20%Monthly2021-05-30 19:37
http://xxxset.org/milf/elen-million-sexy-elen-1600-96-pics-74-72-mb/20%Monthly2021-05-30 19:34
http://xxxset.org/milf/eleanor-toy-stimulation-1600-127-pics-115-76-mb/20%Monthly2021-05-30 19:33
http://xxxset.org/milf/devyn-lux-ready-to-cum-1600-68-pics-56-68-mb/20%Monthly2021-05-30 19:33
http://xxxset.org/milf/devina-sexy-mood-1600-83-pics-83-83-mb/20%Monthly2021-05-30 19:32
http://xxxset.org/milf/darla-russian-amateur-1600-48-pics-48-01-mb/20%Monthly2021-05-30 19:32
http://xxxset.org/milf/dafna-may-strip-tease-1600-117-pics-110-57-mb/20%Monthly2021-05-30 19:32
http://xxxset.org/milf/cyndi-sinclair-red-lingerie-1600-104-pics-110-17-mb/20%Monthly2021-05-30 19:32
http://xxxset.org/milf/cleo-summers-temptation-1600-94-pics-91-14-mb/20%Monthly2021-05-30 19:32
http://xxxset.org/milf/cj-bridge-toy-orgasm-1600-109-pics-100-15-mb/20%Monthly2021-05-30 19:32
http://xxxset.org/milf/chelsea-carter-take-me-there-1600-113-pics-113-83-mb/20%Monthly2021-05-30 19:31
http://xxxset.org/milf/charli-hope-waiting-for-you-1600-69-pics-66-14-mb/20%Monthly2021-05-30 19:31
http://xxxset.org/milf/caty-kiss-tease-and-please-1600-82-pics-82-61-mb/20%Monthly2021-05-30 19:31
http://xxxset.org/milf/bonita-sexual-lady-1600-121-pics-115-35-mb/20%Monthly2021-05-30 19:31
http://xxxset.org/milf/blanche-bradburry-platinum-blonde-1600-73-pics-50-80-mb/20%Monthly2021-05-30 19:31
http://xxxset.org/milf/belisa-stay-home-instead-1600-78-pics-100-12-mb/20%Monthly2021-05-30 19:31
http://xxxset.org/milf/belinda-brush-sexy-mature-1600-151-pics-141-95-mb/20%Monthly2021-05-30 19:31
http://xxxset.org/milf/bekki-strip-for-you-1600-101-pics-92-41-mb/20%Monthly2021-05-30 19:30
http://xxxset.org/milf/ani-teasing-the-clit-1600-129-pics-136-17-mb/20%Monthly2021-05-30 19:30
http://xxxset.org/milf/alexandra-touch-and-tease-1600-122-pics-104-95-mb/20%Monthly2021-05-30 19:30
http://xxxset.org/milf/alexa-mood-see-through-sexy-1600-150-pics-192-29-mb/20%Monthly2021-05-30 19:30
http://xxxset.org/milf/aella-rae-torn-tights-1600-75-pics-67-69-mb/20%Monthly2021-05-30 19:30
http://xxxset.org/milf/aella-rae-tight-fit-1600-106-pics-92-25-mb/20%Monthly2021-05-30 19:30
http://xxxset.org/fetish/chloe-morgane-2016-12-27-merry-christmas-32-pics-41-53-mb/20%Monthly2021-05-30 10:18
http://xxxset.org/fetish/chloe-morgane-2016-12-20-night-out-blowjob-37-pics-45-50-mb/20%Monthly2021-05-30 10:17
http://xxxset.org/fetish/chloe-morgane-2016-12-13-go-habs-go-46-pics-105-73-mb/20%Monthly2021-05-30 10:16
http://xxxset.org/fetish/chloe-morgane-2016-11-29-redhead-cleavage-21-pics-27-72-mb/20%Monthly2021-05-30 10:15
http://xxxset.org/fetish/chloe-morgane-2016-11-22-blowjob-in-canadian-forest-34-pics-56-91-mb/20%Monthly2021-05-30 10:14
http://xxxset.org/fetish/chloe-morgane-2016-11-08-playful-redhead-in-the-forest-32-pics-64-95-mb/20%Monthly2021-05-30 10:13
http://xxxset.org/fetish/chloe-morgane-2016-11-01-walk-in-the-woods-24-pics-46-57-mb/20%Monthly2021-05-30 10:12
http://xxxset.org/fetish/chloe-morgane-2016-10-25-blowjob-with-invisalign-braces-34-pics-52-97-mb/20%Monthly2021-05-30 10:11
http://xxxset.org/fetish/chloe-morgane-2016-10-18-autumn-24-pics-40-46-mb/20%Monthly2021-05-30 10:09
http://xxxset.org/fetish/chloe-morgane-2016-10-11-butt-plug-surprise-32-pics-45-11-mb/20%Monthly2021-05-30 10:08
http://xxxset.org/fetish/chloe-morgane-2016-10-04-happy-redhead-33-pics-53-73-mb/20%Monthly2021-05-30 10:07
http://xxxset.org/fetish/chloe-morgane-2016-09-20-loving-sensual-blowjob-39-pics-59-38-mb/20%Monthly2021-05-30 10:06
http://xxxset.org/fetish/chloe-morgane-2016-09-13-lovely-redhead-smile-35-pics-54-32-mb/20%Monthly2021-05-30 10:05
http://xxxset.org/fetish/chloe-morgane-2016-08-30-sweet-blowjob-31-pics-48-40-mb/20%Monthly2021-05-30 10:04
http://xxxset.org/fetish/chloe-morgane-2016-08-23-gentle-anal-play-40-pics-73-89-mb/20%Monthly2021-05-30 10:03
http://xxxset.org/fetish/chloe-morgane-2016-08-16-cum-in-my-juicy-pussy-33-pics-9-38-mb/20%Monthly2021-05-30 10:02
http://xxxset.org/fetish/chloe-morgane-2016-08-09-lying-down-naked-33-pics-33-46-mb/20%Monthly2021-05-30 10:01
http://xxxset.org/fetish/chloe-morgane-2016-08-02-happy-amazing-blowjob-26-pics-36-97-mb/20%Monthly2021-05-30 10:00
http://xxxset.org/fetish/chloe-morgane-2016-07-26-both-side-32-pics-44-20-mb/20%Monthly2021-05-30 09:59
http://xxxset.org/fetish/chloe-morgane-2016-07-12-nude-redhead-and-red-lipstick-33-pics-35-99-mb/20%Monthly2021-05-30 09:58
http://xxxset.org/fetish/chloe-morgane-2016-07-05-erotic-blowjob-29-pics-36-70-mb/20%Monthly2021-05-30 09:57
http://xxxset.org/fetish/chloe-morgane-2016-06-28-anal-and-pussy-play-32-pics-41-31-mb/20%Monthly2021-05-30 09:56
http://xxxset.org/fetish/chloe-morgane-2016-06-21-both-inside-me-38-pics-12-76-mb/20%Monthly2021-05-30 09:55
http://xxxset.org/fetish/chloe-morgane-2016-06-14-lovely-round-butt-19-pics-18-41-mb/20%Monthly2021-05-30 09:54
http://xxxset.org/fetish/chloe-morgane-2016-06-07-wet-pussy-51-pics-16-82-mb/20%Monthly2021-05-30 09:52
http://xxxset.org/fetish/chloe-morgane-2016-05-31-naked-redhead-34-pics-56-70-mb/20%Monthly2021-05-30 09:51
http://xxxset.org/fetish/chloe-morgane-2016-05-24-sensual-blowjob-and-white-pearls-30-pics-113-69-mb/20%Monthly2021-05-30 09:50
http://xxxset.org/fetish/chloe-morgane-2016-05-10-nude-redhead-33-pics-70-29-mb/20%Monthly2021-05-30 09:49
http://xxxset.org/fetish/chloe-morgane-2016-04-29-beautiful-blowjob-30-pics-41-70-mb/20%Monthly2021-05-30 09:48
http://xxxset.org/fetish/chloe-morgane-2016-04-15-naked-redhead-25-pics-32-55-mb/20%Monthly2021-05-30 09:47
http://xxxset.org/fetish/chloe-morgane-2016-04-01-art-of-the-69-blowjob-31-pics-108-mb/20%Monthly2021-05-30 09:46
http://xxxset.org/fetish/chloe-morgane-2016-03-18-black-lace-30-pics-34-93-mb/20%Monthly2021-05-30 09:45
http://xxxset.org/fetish/chloe-morgane-2016-03-04-sensual-oral-sex-31-pics-65-70-mb/20%Monthly2021-05-30 09:44
http://xxxset.org/fetish/chloe-morgane-2016-02-19-black-lace-29-pics-30-44-mb/20%Monthly2021-05-30 09:43
http://xxxset.org/fetish/chloe-morgane-2016-02-05-hot-redhead-blowjob-35-pics-83-10-mb/20%Monthly2021-05-30 09:42
http://xxxset.org/fetish/chloe-morgane-2016-01-22-curvy-redhead-28-pics-85-82-mb/20%Monthly2021-05-30 09:41
http://xxxset.org/fetish/chloe-morgane-2016-01-08-art-of-blowjob-29-pics-68-34-mb/20%Monthly2021-05-30 09:40
http://xxxset.org/fetish/chloe-morgane-2015-12-11-amazing-blowjob-in-fishnet-body-stocking-26-pics-58-54-mb/20%Monthly2021-05-30 09:39
http://xxxset.org/fetish/chloe-morgane-2015-11-27-can-you-keep-a-secret-31-pics-128-44-mb/20%Monthly2021-05-30 09:38
http://xxxset.org/fetish/chloe-morgane-2015-11-13-redhead-and-pearls-24-pics-69-84-mb/20%Monthly2021-05-30 09:37
http://xxxset.org/fetish/chloe-morgane-2015-10-23-burgundy-lingerie-34-pics-89-32-mb/20%Monthly2021-05-30 09:35
http://xxxset.org/fetish/chloe-morgane-2015-09-25-naked-32-pics-81-49-mb/20%Monthly2021-05-30 09:34
http://xxxset.org/fetish/chloe-morgane-2015-08-28-redhead-in-the-sunlight-24-pics-54-34-mb/20%Monthly2021-05-30 09:33
http://xxxset.org/fetish/chloe-morgane-2015-07-31-generous-cleavage-43-pics-87-22-mb/20%Monthly2021-05-30 09:32
http://xxxset.org/fetish/chloe-morgane-2015-07-17-teasing-with-cleavage-38-pics-58-61-mb/20%Monthly2021-05-30 09:31
http://xxxset.org/fetish/chloe-morgane-2015-07-03-sexy-cleavage-and-booty-35-pics-60-20-mb/20%Monthly2021-05-30 09:30
http://xxxset.org/fetish/chloe-morgane-2015-06-26-sultry-tigress-39-pics-89-47-mb/20%Monthly2021-05-30 09:29
http://xxxset.org/fetish/chloe-morgane-2015-06-19-cleavage-teasing-in-blue-lingerie-24-pics-36-77-mb/20%Monthly2021-05-30 09:28
http://xxxset.org/fetish/chloe-morgane-2015-06-12-sexy-teasing-in-purple-babydoll-29-pics-59-74-mb/20%Monthly2021-05-30 09:27
http://xxxset.org/fetish/chloe-morgane-2015-06-05-cleavage-in-pink-lace-nuisette-53-pics-194-85-mb/20%Monthly2021-05-30 09:26
http://xxxset.org/milf/anilos-2021-05-29-roxee-couture-naturally-yours-86-pics-155-23-mb/20%Monthly2021-05-29 10:17
http://xxxset.org/milf/allover30-2021-05-29-tiny-tina-9-to-5-ladies-145-pics-208-63-mb/20%Monthly2021-05-29 10:16
http://xxxset.org/milf/allover30-2021-05-29-liza-shay-ladies-in-action-137-pics-469-63-mb/20%Monthly2021-05-29 10:15
http://xxxset.org/teen/sexart-2021-05-29-bed-head-anita-bellini-232-pics-490-36-mb/20%Monthly2021-05-29 10:14
http://xxxset.org/fetish/brianna-green-white-teddy-white-panty-98-pics-86-11-mb/20%Monthly2021-05-29 10:13
http://xxxset.org/fetish/brianna-green-white-dress-leather-chair-96-pics-84-99-mb/20%Monthly2021-05-29 10:12
http://xxxset.org/fetish/brianna-green-white-bed-blue-robe-121-pics-92-04-mb/20%Monthly2021-05-29 10:11
http://xxxset.org/fetish/brianna-green-purple-sweater-purple-skirt-107-pics-77-25-mb/20%Monthly2021-05-29 10:10
http://xxxset.org/fetish/brianna-green-pink-blouse-black-skirt-108-pics-123-54-mb/20%Monthly2021-05-29 10:09
http://xxxset.org/fetish/brianna-green-leopard-dress-red-panty-101-pics-98-87-mb/20%Monthly2021-05-29 10:07
http://xxxset.org/fetish/brianna-green-grey-skirt-black-blouse-100-pics-87-45-mb/20%Monthly2021-05-29 10:06
http://xxxset.org/fetish/brianna-green-grey-dress-brown-chair-122-pics-114-55-mb/20%Monthly2021-05-29 10:05
http://xxxset.org/fetish/brianna-green-grey-chair-black-teddy-112-pics-121-45-mb/20%Monthly2021-05-29 10:04
http://xxxset.org/fetish/brianna-green-green-lingerie-black-stockin-94-pics-86-59-mb/20%Monthly2021-05-29 10:03
http://xxxset.org/fetish/brianna-green-gold-chair-green-dress-94-pics-99-07-mb/20%Monthly2021-05-29 10:02
http://xxxset.org/fetish/brianna-green-floral-robe-white-panty-115-pics-96-88-mb/20%Monthly2021-05-29 10:01
http://xxxset.org/fetish/brianna-green-black-dress-pink-stockings-105-pics-105-92-mb/20%Monthly2021-05-29 10:00
http://xxxset.org/fetish/brianna-green-beige-dress-beidge-skirt-97-pics-93-48-mb/20%Monthly2021-05-29 09:59
http://xxxset.org/fetish/ashleigh-mckenzie-red-blouse-black-skirt-110-pics-130-55-mb/20%Monthly2021-05-29 09:58
http://xxxset.org/fetish/ashleigh-mckenzie-pink-carpet-grey-lingerie-121-pics-135-09-mb/20%Monthly2021-05-29 09:57
http://xxxset.org/fetish/ashleigh-mckenzie-green-skirt-green-bed-107-pics-124-03-mb/20%Monthly2021-05-29 09:56
http://xxxset.org/fetish/ashleigh-mckenzie-green-plaid-denim-shorts-118-pics-120-66-mb/20%Monthly2021-05-29 09:55
http://xxxset.org/fetish/ashleigh-mckenzie-brown-couch-white-lingerie-104-pics-103-09-mb/20%Monthly2021-05-29 09:54
http://xxxset.org/fetish/ashleigh-mckenzie-blue-dress-red-sofa-104-pics-133-63-mb/20%Monthly2021-05-29 09:53
http://xxxset.org/fetish/ana-molly-red-heels-plaid-skirt-115-pics-110-18-mb/20%Monthly2021-05-29 09:52
http://xxxset.org/fetish/ana-molly-rainbow-ball-green-suit-121-pics-90-36-mb/20%Monthly2021-05-29 09:51
http://xxxset.org/fetish/ana-molly-purple-gown-purple-panty-118-pics-92-32-mb/20%Monthly2021-05-29 09:49
http://xxxset.org/fetish/ana-molly-pink-dress-purple-bed-114-pics-121-96-mb/20%Monthly2021-05-29 09:48
http://xxxset.org/fetish/ana-molly-green-top-black-skrt-159-pics-161-42-mb/20%Monthly2021-05-29 09:47
http://xxxset.org/fetish/ana-molly-denim-jacket-red-shirt-104-pics-107-64-mb/20%Monthly2021-05-29 09:46
http://xxxset.org/fetish/ana-molly-blue-bra-purple-tights-116-pics-145-50-mb/20%Monthly2021-05-29 09:45
http://xxxset.org/fetish/ana-molly-blue-blouse-pink-panties-110-pics-118-58-mb/20%Monthly2021-05-29 09:44
http://xxxset.org/fetish/ana-molly-black-shorts-brown-chair-107-pics-122-32-mb/20%Monthly2021-05-29 09:43
http://xxxset.org/fetish/ana-molly-black-heels-blue-dress-122-pics-151-74-mb/20%Monthly2021-05-29 09:42
http://xxxset.org/fetish/ana-molly-black-bra-purple-tights-115-pics-123-97-mb/20%Monthly2021-05-29 09:41
http://xxxset.org/fetish/ana-molly-black-bra-purple-dress-110-pics-102-48-mb/20%Monthly2021-05-29 09:40
http://xxxset.org/fetish/amanda-blanshe-white-dress-red-lingerie-116-pics-108-15-mb/20%Monthly2021-05-29 09:39
http://xxxset.org/fetish/amanda-blanshe-white-dress-blue-chair-108-pics-109-07-mb/20%Monthly2021-05-29 09:38
http://xxxset.org/fetish/amanda-blanshe-red-bra-grey-suit-103-pics-105-68-mb/20%Monthly2021-05-29 09:37
http://xxxset.org/fetish/amanda-blanshe-red-blouse-black-pants-104-pics-86-59-mb/20%Monthly2021-05-29 09:36
http://xxxset.org/fetish/amanda-blanshe-purple-dress-brown-couch-107-pics-122-16-mb/20%Monthly2021-05-29 09:35
http://xxxset.org/fetish/amanda-blanshe-blue-lingerie-black-hose-113-pics-114-78-mb/20%Monthly2021-05-29 09:33
http://xxxset.org/milf/auntjudys-2021-05-28-linda-red-black-lingerie-robe-strip-show-151-pics-583-66-mb/20%Monthly2021-05-28 10:13
http://xxxset.org/milf/allover30-2021-05-28-nika-dupre-elegant-ladies-177-pics-373-22-mb/20%Monthly2021-05-28 10:12
http://xxxset.org/milf/allover30-2021-05-28-lucky-starr-exotic-ladies-143-pics-343-79-mb/20%Monthly2021-05-28 10:11
http://xxxset.org/teen/sexart-2021-05-28-vamos-a-la-playa-baby-nicols-julia-de-lucia-55-pics-126-83-mb/20%Monthly2021-05-28 10:10
http://xxxset.org/milf/anilos-2021-05-27-roxee-couture-all-dressed-up-79-pics-135-35-mb/20%Monthly2021-05-27 10:35
http://xxxset.org/milf/allover30-2021-05-27-serene-siren-milana-ricci-ladies-on-ladies-208-pics-339-82-mb/20%Monthly2021-05-27 10:34
http://xxxset.org/milf/allover30-2021-05-27-julia-north-9-to-5-ladies-162-pics-265-90-mb/20%Monthly2021-05-27 10:33
http://xxxset.org/milf/allover30-2021-05-27-allegra-furry-housewives-172-pics-317-22-mb/20%Monthly2021-05-27 10:32
http://xxxset.org/teen/sexart-2021-05-27-before-my-bath-vavilia-cristoff-94-pics-179-23-mb/20%Monthly2021-05-27 10:31
http://xxxset.org/fetish/strictlychristine-christine-000169-56-pics-130-16-mb/20%Monthly2021-05-27 09:41
http://xxxset.org/fetish/strictlychristine-christine-000168-50-pics-115-14-mb/20%Monthly2021-05-27 09:40
http://xxxset.org/fetish/strictlychristine-christine-000167-54-pics-119-83-mb/20%Monthly2021-05-27 09:39
http://xxxset.org/fetish/strictlychristine-christine-000166-51-pics-120-96-mb/20%Monthly2021-05-27 09:37
http://xxxset.org/fetish/strictlychristine-christine-000165-50-pics-124-29-mb/20%Monthly2021-05-27 09:36
http://xxxset.org/fetish/strictlychristine-christine-000164-56-pics-126-61-mb/20%Monthly2021-05-27 09:35
http://xxxset.org/fetish/strictlychristine-christine-000163-55-pics-117-46-mb/20%Monthly2021-05-27 09:34
http://xxxset.org/fetish/strictlychristine-christine-000162-54-pics-117-73-mb/20%Monthly2021-05-27 09:33
http://xxxset.org/fetish/strictlychristine-christine-000161-62-pics-149-55-mb/20%Monthly2021-05-27 09:32
http://xxxset.org/fetish/strictlychristine-christine-000160-46-pics-101-22-mb/20%Monthly2021-05-27 09:31
http://xxxset.org/fetish/strictlychristine-christine-000159-45-pics-101-mb/20%Monthly2021-05-27 09:30
http://xxxset.org/fetish/strictlychristine-christine-000158-50-pics-132-88-mb/20%Monthly2021-05-27 09:29
http://xxxset.org/fetish/strictlychristine-christine-000157-57-pics-159-29-mb/20%Monthly2021-05-27 09:28
http://xxxset.org/fetish/strictlychristine-christine-000156-50-pics-87-27-mb/20%Monthly2021-05-27 09:27
http://xxxset.org/fetish/strictlychristine-christine-000155-50-pics-111-37-mb/20%Monthly2021-05-27 09:26
http://xxxset.org/fetish/strictlychristine-christine-000154-46-pics-105-17-mb/20%Monthly2021-05-27 09:25
http://xxxset.org/fetish/strictlychristine-christine-000153-44-pics-113-35-mb/20%Monthly2021-05-27 09:24
http://xxxset.org/fetish/strictlychristine-christine-000152-54-pics-121-34-mb/20%Monthly2021-05-27 09:23
http://xxxset.org/fetish/strictlychristine-christine-000151-48-pics-119-02-mb/20%Monthly2021-05-27 09:22
http://xxxset.org/fetish/strictlychristine-christine-000150-53-pics-133-92-mb/20%Monthly2021-05-27 09:21
http://xxxset.org/amateur/doris-dawn-yoga-pants-7-pics-4-32-mb/20%Monthly2021-05-26 21:31
http://xxxset.org/amateur/doris-dawn-under-the-table-28-pics-25-67-mb/20%Monthly2021-05-26 21:30
http://xxxset.org/amateur/doris-dawn-tulips-4-pics-8-13-mb/20%Monthly2021-05-26 21:29
http://xxxset.org/amateur/doris-dawn-toes-27-pics-44-58-mb/20%Monthly2021-05-26 21:28
http://xxxset.org/amateur/doris-dawn-thong-play-74-pics-63-41-mb/20%Monthly2021-05-26 21:27
http://xxxset.org/amateur/doris-dawn-sittin-28-pics-49-51-mb/20%Monthly2021-05-26 21:25
http://xxxset.org/amateur/doris-dawn-sheets-n-pillows-73-pics-69-28-mb/20%Monthly2021-05-26 21:24
http://xxxset.org/amateur/doris-dawn-sandals-18-pics-28-08-mb/20%Monthly2021-05-26 21:23
http://xxxset.org/amateur/doris-dawn-revealing-21-pics-32-21-mb/20%Monthly2021-05-26 21:22
http://xxxset.org/amateur/doris-dawn-red-n-blue-18-pics-30-81-mb/20%Monthly2021-05-26 21:21
http://xxxset.org/amateur/doris-dawn-pussyplay-17-pics-9-77-mb/20%Monthly2021-05-26 21:20
http://xxxset.org/amateur/doris-dawn-peonies-24-pics-35-79-mb/20%Monthly2021-05-26 21:19
http://xxxset.org/amateur/doris-dawn-out-12-pics-20-89-mb/20%Monthly2021-05-26 21:18
http://xxxset.org/amateur/doris-dawn-mirror-selfies-31-pics-19-20-mb/20%Monthly2021-05-26 21:17
http://xxxset.org/amateur/doris-dawn-mirror-22-pics-36-37-mb/20%Monthly2021-05-26 21:16
http://xxxset.org/amateur/doris-dawn-mini-stockings-43-pics-55-89-mb/20%Monthly2021-05-26 21:15
http://xxxset.org/amateur/doris-dawn-just-now-25-pics-30-29-mb/20%Monthly2021-05-26 21:14
http://xxxset.org/amateur/doris-dawn-fishnets-47-pics-65-41-mb/20%Monthly2021-05-26 21:13
http://xxxset.org/amateur/doris-dawn-dusting-9-pics-15-20-mb/20%Monthly2021-05-26 21:12
http://xxxset.org/amateur/doris-dawn-double-crossing-64-pics-97-85-mb/20%Monthly2021-05-26 21:11
http://xxxset.org/amateur/doris-dawn-dildo-play-44-pics-77-19-mb/20%Monthly2021-05-26 21:09
http://xxxset.org/amateur/doris-dawn-crystals-21-pics-29-22-mb/20%Monthly2021-05-26 21:08
http://xxxset.org/amateur/doris-dawn-coffee-53-pics-59-23-mb/20%Monthly2021-05-26 21:07
http://xxxset.org/amateur/doris-dawn-bottines-20-pics-34-79-mb/20%Monthly2021-05-26 21:06
http://xxxset.org/amateur/doris-dawn-blue-dress-36-pics-61-68-mb/20%Monthly2021-05-26 21:05
http://xxxset.org/amateur/doris-dawn-blue-26-pics-44-69-mb/20%Monthly2021-05-26 21:04
http://xxxset.org/amateur/doris-dawn-bit-of-lipstick-64-pics-110-53-mb/20%Monthly2021-05-26 21:03
http://xxxset.org/amateur/doris-dawn-bee-leotard-34-pics-56-84-mb/20%Monthly2021-05-26 21:02
http://xxxset.org/amateur/doris-dawn-banana-55-pics-67-47-mb/20%Monthly2021-05-26 21:01
http://xxxset.org/amateur/doris-dawn-now-casual-pee-720p-24-8-mb-hd/20%Monthly2021-05-26 21:00
http://xxxset.org/amateur/doris-dawn-frottin-pov-720p-39-1-mb-hd/20%Monthly2021-05-26 20:59
http://xxxset.org/amateur/doris-dawn-outta-focus-720p-92-5-mb-hd/20%Monthly2021-05-26 20:58
http://xxxset.org/amateur/doris-dawn-showing-you-my-clit-720p-100-mb-hd/20%Monthly2021-05-26 20:57
http://xxxset.org/amateur/doris-dawn-corset-tongue-spit-720p-119-mb-hd/20%Monthly2021-05-26 20:56
http://xxxset.org/amateur/doris-dawn-yellow-rubber-gloves-720p-121-mb-hd/20%Monthly2021-05-26 20:54
http://xxxset.org/amateur/doris-dawn-weights-720p-122-mb-hd/20%Monthly2021-05-26 20:53
http://xxxset.org/amateur/doris-dawn-delicate-720p-122-mb-hd/20%Monthly2021-05-26 20:52
http://xxxset.org/amateur/doris-dawn-faceride-onpink-720p-127-mb-hd/20%Monthly2021-05-26 20:51
http://xxxset.org/amateur/doris-dawn-pantomime-720p-129-mb-hd/20%Monthly2021-05-26 20:50
http://xxxset.org/amateur/doris-dawn-selfies-720p-135-mb-hd/20%Monthly2021-05-26 20:49
http://xxxset.org/amateur/doris-dawn-punchline-720p-145-mb-hd/20%Monthly2021-05-26 20:48
http://xxxset.org/amateur/doris-dawn-white-720p-147-mb-hd/20%Monthly2021-05-26 20:47
http://xxxset.org/amateur/doris-dawn-heels-dance-720p-148-mb-hd/20%Monthly2021-05-26 20:46
http://xxxset.org/amateur/doris-dawn-blue-leotard-720p-173-mb-hd/20%Monthly2021-05-26 20:45
http://xxxset.org/amateur/doris-dawn-afterorgasm-top-view-720p-174-mb-hd/20%Monthly2021-05-26 20:44
http://xxxset.org/amateur/doris-dawn-dancin-groovin-short-jeans-720p-179-mb-hd/20%Monthly2021-05-26 20:43
http://xxxset.org/amateur/doris-dawn-feet-shakin-720p-179-mb-hd/20%Monthly2021-05-26 20:42
http://xxxset.org/amateur/doris-dawn-clit-play-720p-188-mb-hd/20%Monthly2021-05-26 20:41
http://xxxset.org/amateur/doris-dawn-pink-pussy-play-720p-189-mb-hd/20%Monthly2021-05-26 20:40
http://xxxset.org/amateur/doris-dawn-happily-spermd-720p-190-mb-hd/20%Monthly2021-05-26 20:39
http://xxxset.org/amateur/doris-dawn-pantyhose-stilettos-720p-196-mb-hd/20%Monthly2021-05-26 20:37
http://xxxset.org/amateur/doris-dawn-pantyhose-dance-bj-720p-217-mb-hd/20%Monthly2021-05-26 20:36
http://xxxset.org/amateur/doris-dawn-rose-n-toes-720p-225-mb-hd/20%Monthly2021-05-26 20:35
http://xxxset.org/amateur/doris-dawn-january-minuet-720p-231-mb-hd/20%Monthly2021-05-26 20:34
http://xxxset.org/amateur/doris-dawn-orange-blazer-bj-720p-234-mb-hd/20%Monthly2021-05-26 20:33
http://xxxset.org/amateur/doris-dawn-fishnets-xorange-720p-294-mb-hd/20%Monthly2021-05-26 20:32
http://xxxset.org/amateur/doris-dawn-mornin-quickie-720p-297-mb-hd/20%Monthly2021-05-26 20:31
http://xxxset.org/amateur/doris-dawn-carpetbj-classic-720p-310-mb-hd/20%Monthly2021-05-26 20:30
http://xxxset.org/amateur/doris-dawn-morning-quickie-720p-328-mb-hd/20%Monthly2021-05-26 20:29
http://xxxset.org/amateur/doris-dawn-comspring-720p-328-mb-hd/20%Monthly2021-05-26 20:28
http://xxxset.org/amateur/doris-dawn-red-wild-strip-dance-720p-334-mb-hd/20%Monthly2021-05-26 20:27
http://xxxset.org/amateur/doris-dawn-retro-u-r-a-masturbator-355-mb-hd/20%Monthly2021-05-26 20:26
http://xxxset.org/amateur/doris-dawn-a-cup-of-tea-sensual-720p-375-mb-hd/20%Monthly2021-05-26 20:25
http://xxxset.org/amateur/doris-dawn-lace-face-sittin-720p-382-mb-hd/20%Monthly2021-05-26 20:24
http://xxxset.org/amateur/doris-dawn-mutual-masturbation-sofa-play-720p-424-mb-hd/20%Monthly2021-05-26 20:23
http://xxxset.org/amateur/doris-dawn-atelier-fucks-720p-425-mb-hd/20%Monthly2021-05-26 20:22
http://xxxset.org/amateur/doris-dawn-luftballons-720p-427-mb-hd/20%Monthly2021-05-26 20:20
http://xxxset.org/amateur/doris-dawn-wakedickup1-720p-468-mb-hd/20%Monthly2021-05-26 20:19
http://xxxset.org/amateur/doris-dawn-full-3-angles-blazer-dance-bj-pov-475-mb-hd/20%Monthly2021-05-26 20:18
http://xxxset.org/amateur/doris-dawn-foot-blow-do-nothing-jobs-720p-500-mb-hd/20%Monthly2021-05-26 20:17
http://xxxset.org/amateur/doris-dawn-balloons-play-720p-515-mb-hd/20%Monthly2021-05-26 20:16
http://xxxset.org/amateur/doris-dawn-raw-sunshine-ass-sittin-720p-541-mb-hd/20%Monthly2021-05-26 20:15
http://xxxset.org/amateur/doris-dawn-frontal-riding-orgasm-720p-572-mb-hd/20%Monthly2021-05-26 20:14
http://xxxset.org/amateur/doris-dawn-cozier-lickinfuckinsittin-720p-2-739-mb-hd/20%Monthly2021-05-26 20:13
http://xxxset.org/amateur/doris-dawn-cozier-lickinfuckinsittin-720p-739-mb-hd/20%Monthly2021-05-26 20:12
http://xxxset.org/amateur/doris-dawn-big-load-ass-720p-755-mb-hd/20%Monthly2021-05-26 20:11
http://xxxset.org/amateur/doris-dawn-iphonus-interruptus-720p-869-mb-hd/20%Monthly2021-05-26 20:10
http://xxxset.org/amateur/doris-dawn-jazzin-in-jazzin-out-720p-1-17-gb-hd/20%Monthly2021-05-26 20:09
http://xxxset.org/milf/auntjudys-2021-05-26-cindy-high-heels-and-pantyhose-upskirt-play-175-pics-669-46-mb/20%Monthly2021-05-26 12:36
http://xxxset.org/milf/allover30-2021-05-26-galas-looner-ladies-with-toys-148-pics-261-22-mb/20%Monthly2021-05-26 12:35
http://xxxset.org/milf/allover30-2021-05-26-eva-long-elegant-ladies-137-pics-323-89-mb/20%Monthly2021-05-26 12:34
http://xxxset.org/teen/sexart-2021-05-26-ten-years-together-kinuski-deny-lou-114-pics-403-19-mb/20%Monthly2021-05-26 12:33
http://xxxset.org/teen/thelifeerotic-2021-05-26-outdoor-experience-matty-120-pics-150-29-mb/20%Monthly2021-05-26 12:32
http://xxxset.org/milf/anilos-2021-05-25-roxee-couture-passion-and-pleasure-113-pics-209-38-mb/20%Monthly2021-05-25 12:49
http://xxxset.org/milf/allover30-2021-05-25-tiny-tina-mature-pleasure-159-pics-332-94-mb/20%Monthly2021-05-25 12:48
http://xxxset.org/milf/allover30-2021-05-25-quinn-waters-ladies-in-action-229-pics-455-39-mb/20%Monthly2021-05-25 12:47
http://xxxset.org/teen/sexart-2021-05-25-study-session-lilly-bella-125-pics-330-51-mb/20%Monthly2021-05-25 12:46
http://xxxset.org/milf/anilos-2021-05-24-beatrice-a-wet-as-it-gets-56-pics-115-05-mb/20%Monthly2021-05-24 10:51
http://xxxset.org/milf/auntjudys-2021-05-24-44yo-big-tit-milf-janey-is-back-by-popular-demand-with-a-bush-171-p/20%Monthly2021-05-24 10:50
http://xxxset.org/milf/allover30-2021-05-24-tanita-ladies-with-toys-182-pics-346-45-mb/20%Monthly2021-05-24 10:49
http://xxxset.org/milf/allover30-2021-05-24-lynn-nudism-outdoors-201-pics-617-75-mb/20%Monthly2021-05-24 10:48
http://xxxset.org/milf/allover30-2021-05-24-kitty-quinn-mature-housewives-116-pics-204-53-mb/20%Monthly2021-05-24 10:47
http://xxxset.org/teen/sexart-2021-05-24-river-side-hayli-sanders-84-pics-178-62-mb/20%Monthly2021-05-24 10:46
http://xxxset.org/milf/auntjudys-2021-05-23-yulenka-in-stockings-high-heels-upskirt-and-masturbation-181-pics/20%Monthly2021-05-23 19:40
http://xxxset.org/teen/sexart-2021-05-23-wait-for-it-serina-gomez-john-price-122-pics-225-92-mb/20%Monthly2021-05-23 19:42
http://xxxset.org/fetish/amanda-2010-12-26-black-beauty-124-pics-101-63-mb/20%Monthly2021-05-23 19:38
http://xxxset.org/fetish/amanda-2010-12-19-nixies-121-pics-79-36-mb/20%Monthly2021-05-23 19:37
http://xxxset.org/fetish/amanda-2010-12-12-hot-lady-110-pics-45-47-mb/20%Monthly2021-05-23 19:36
http://xxxset.org/fetish/amanda-2010-12-05-sherry-stockings-110-pics-80-91-mb/20%Monthly2021-05-23 19:35
http://xxxset.org/fetish/amanda-2010-11-28-spanish-girls-115-pics-62-62-mb/20%Monthly2021-05-23 19:34
http://xxxset.org/fetish/amanda-2010-11-21-park-bench-112-pics-74-85-mb/20%Monthly2021-05-23 19:33
http://xxxset.org/fetish/amanda-2010-11-14-ocean-view-89-pics-57-05-mb/20%Monthly2021-05-23 19:32
http://xxxset.org/fetish/amanda-2010-11-07-iceberg-166-pics-81-50-mb/20%Monthly2021-05-23 19:31
http://xxxset.org/fetish/amanda-2010-10-31-simply-in-pink-114-pics-56-61-mb/20%Monthly2021-05-23 19:30
http://xxxset.org/fetish/amanda-2010-10-24-sexy-bees-105-pics-86-02-mb/20%Monthly2021-05-23 19:29
http://xxxset.org/fetish/amanda-2010-10-17-brown-nylons-120-pics-70-07-mb/20%Monthly2021-05-23 19:27
http://xxxset.org/fetish/amanda-2010-10-10-in-the-garden-103-pics-64-64-mb/20%Monthly2021-05-23 19:26
http://xxxset.org/fetish/amanda-2010-10-03-leopard-toenail-111-pics-68-64-mb/20%Monthly2021-05-23 19:25
http://xxxset.org/fetish/amanda-2010-09-26-mixed-98-pics-39-46-mb/20%Monthly2021-05-23 19:24
http://xxxset.org/fetish/amanda-2010-09-19-the-office-1-103-pics-38-10-mb/20%Monthly2021-05-23 19:23
http://xxxset.org/fetish/amanda-2010-09-12-black-panther-111-pics-55-37-mb/20%Monthly2021-05-23 19:22
http://xxxset.org/fetish/amanda-2010-09-05-girlfriends-107-pics-56-08-mb/20%Monthly2021-05-23 19:21
http://xxxset.org/fetish/amanda-2010-08-29-spilling-110-pics-68-42-mb/20%Monthly2021-05-23 19:20
http://xxxset.org/fetish/amanda-2010-08-22-alluring-109-pics-62-44-mb/20%Monthly2021-05-23 19:19
http://xxxset.org/fetish/amanda-2010-08-15-snake-and-pearls-108-pics-59-92-mb/20%Monthly2021-05-23 19:18
http://xxxset.org/fetish/amanda-2010-08-08-checked-113-pics-58-96-mb/20%Monthly2021-05-23 19:17
http://xxxset.org/fetish/amanda-2010-08-01-body-fluid-110-pics-59-01-mb/20%Monthly2021-05-23 19:16
http://xxxset.org/fetish/amanda-2010-07-25-lurex-110-pics-59-50-mb/20%Monthly2021-05-23 19:15
http://xxxset.org/fetish/amanda-2010-07-18-safari-100-pics-78-98-mb/20%Monthly2021-05-23 19:14
http://xxxset.org/fetish/amanda-2010-07-11-outdoor-99-pics-69-45-mb/20%Monthly2021-05-23 19:13
http://xxxset.org/fetish/amanda-2010-07-04-girl-friday-115-pics-64-16-mb/20%Monthly2021-05-23 19:11
http://xxxset.org/fetish/amanda-2010-06-27-legshow-110-pics-83-13-mb/20%Monthly2021-05-23 19:10
http://xxxset.org/fetish/amanda-2010-06-20-grassland-111-pics-90-84-mb/20%Monthly2021-05-23 19:09
http://xxxset.org/fetish/amanda-2010-06-13-sitting-pretty-97-pics-40-75-mb/20%Monthly2021-05-23 19:08
http://xxxset.org/fetish/amanda-2010-06-06-street-view-110-pics-83-12-mb/20%Monthly2021-05-23 19:07
http://xxxset.org/fetish/amanda-2010-05-30-palm-garden-98-pics-55-94-mb/20%Monthly2021-05-23 19:06
http://xxxset.org/fetish/amanda-2010-05-23-hitcher-110-pics-75-49-mb/20%Monthly2021-05-23 19:05
http://xxxset.org/fetish/amanda-2010-05-16-glove-lady-110-pics-52-79-mb/20%Monthly2021-05-23 19:04
http://xxxset.org/fetish/amanda-2010-05-09-ocelot-110-pics-54-89-mb/20%Monthly2021-05-23 19:03
http://xxxset.org/fetish/amanda-2010-05-02-bubble-bath-114-pics-53-27-mb/20%Monthly2021-05-23 19:02
http://xxxset.org/fetish/amanda-2010-04-25-stretching-113-pics-46-53-mb/20%Monthly2021-05-23 19:01
http://xxxset.org/fetish/amanda-2010-04-18-grasshopper-110-pics-81-74-mb/20%Monthly2021-05-23 19:00
http://xxxset.org/fetish/amanda-2010-04-11-in-the-wood-109-pics-73-98-mb/20%Monthly2021-05-23 18:59
http://xxxset.org/fetish/amanda-2010-04-04-streetview-119-pics-86-50-mb/20%Monthly2021-05-23 18:58
http://xxxset.org/fetish/amanda-2010-03-28-golden-brown-118-pics-47-97-mb/20%Monthly2021-05-23 18:57
http://xxxset.org/fetish/amanda-2010-03-21-onyx-110-pics-46-87-mb/20%Monthly2021-05-23 18:56
http://xxxset.org/fetish/amanda-2010-03-14-vintage-queen-112-pics-62-mb/20%Monthly2021-05-23 18:54
http://xxxset.org/fetish/amanda-2010-03-07-delicate-145-pics-71-17-mb/20%Monthly2021-05-23 18:53
http://xxxset.org/fetish/amanda-2010-02-28-ragtag-112-pics-51-29-mb/20%Monthly2021-05-23 18:52
http://xxxset.org/fetish/amanda-2010-02-21-black-panther-121-pics-51-13-mb/20%Monthly2021-05-23 18:51
http://xxxset.org/fetish/amanda-2010-02-14-legslegs-124-pics-33-76-mb/20%Monthly2021-05-23 18:50
http://xxxset.org/fetish/amanda-2010-02-07-very-busy-114-pics-22-30-mb/20%Monthly2021-05-23 18:49
http://xxxset.org/fetish/amanda-2010-01-31-zebra-110-pics-26-20-mb/20%Monthly2021-05-23 18:48
http://xxxset.org/fetish/amanda-2010-01-24-red-mules-125-pics-30-70-mb/20%Monthly2021-05-23 18:47
http://xxxset.org/fetish/amanda-2010-01-17-pure-white-115-pics-23-75-mb/20%Monthly2021-05-23 18:46
http://xxxset.org/fetish/amanda-2010-01-10-ebony-ivory-121-pics-27-mb/20%Monthly2021-05-23 18:45
http://xxxset.org/fetish/amanda-2010-01-03-tropic-bird-115-pics-32-45-mb/20%Monthly2021-05-23 18:44
http://xxxset.org/fetish/amanda-2009-12-27-blue-angel-95-pics-19-92-mb/20%Monthly2021-05-23 18:43
http://xxxset.org/fetish/amanda-2009-12-20-silverline-115-pics-30-92-mb/20%Monthly2021-05-23 18:42
http://xxxset.org/fetish/amanda-2009-12-13-leo-113-pics-36-65-mb/20%Monthly2021-05-23 18:41
http://xxxset.org/fetish/amanda-2009-12-06-bodacious-103-pics-29-58-mb/20%Monthly2021-05-23 18:40
http://xxxset.org/fetish/amanda-2009-11-29-the-kitchen-100-pics-25-04-mb/20%Monthly2021-05-23 18:39
http://xxxset.org/fetish/amanda-2009-11-22-violet-heels-120-pics-26-42-mb/20%Monthly2021-05-23 18:38
http://xxxset.org/fetish/amanda-2009-11-15-black-white-114-pics-22-78-mb/20%Monthly2021-05-23 18:37
http://xxxset.org/fetish/amanda-2009-11-08-silver-103-pics-35-27-mb/20%Monthly2021-05-23 18:35
http://xxxset.org/fetish/amanda-2009-11-01-strawberry-105-pics-22-29-mb/20%Monthly2021-05-23 18:34
http://xxxset.org/fetish/amanda-2009-10-25-erotic-109-pics-30-49-mb/20%Monthly2021-05-23 18:33
http://xxxset.org/fetish/amanda-2009-10-18-power-play-135-pics-35-43-mb/20%Monthly2021-05-23 18:32
http://xxxset.org/fetish/amanda-2009-10-11-beer-can-128-pics-30-14-mb/20%Monthly2021-05-23 18:31
http://xxxset.org/fetish/amanda-2009-10-04-scandalous-legs-113-pics-33-12-mb/20%Monthly2021-05-23 18:30
http://xxxset.org/fetish/amanda-2009-09-27-wet-games-119-pics-36-90-mb/20%Monthly2021-05-23 18:29
http://xxxset.org/fetish/amanda-2009-09-20-hot-sparkle-126-pics-35-86-mb/20%Monthly2021-05-23 18:28
http://xxxset.org/fetish/amanda-2009-09-13-red-hood-116-pics-25-59-mb/20%Monthly2021-05-23 18:27
http://xxxset.org/fetish/amanda-2009-09-06-sexy-heels-112-pics-27-68-mb/20%Monthly2021-05-23 18:26
http://xxxset.org/fetish/amanda-2009-08-30-baby-doll-98-pics-25-94-mb/20%Monthly2021-05-23 18:25
http://xxxset.org/fetish/amanda-2009-08-23-delicate-120-pics-35-mb/20%Monthly2021-05-23 18:24
http://xxxset.org/fetish/amanda-2009-08-16-polka-dot-118-pics-29-21-mb/20%Monthly2021-05-23 18:23
http://xxxset.org/fetish/amanda-2009-08-09-vintage-119-pics-30-63-mb/20%Monthly2021-05-23 18:22
http://xxxset.org/fetish/amanda-2009-08-02-ladylike-132-pics-34-62-mb/20%Monthly2021-05-23 18:21
http://xxxset.org/fetish/amanda-2009-07-26-long-toe-nails-120-pics-29-21-mb/20%Monthly2021-05-23 18:20
http://xxxset.org/fetish/amanda-2009-07-19-hotlegs-120-pics-28-86-mb/20%Monthly2021-05-23 18:18
http://xxxset.org/fetish/amanda-2009-07-12-ph-fun-116-pics-31-01-mb/20%Monthly2021-05-23 18:17
http://xxxset.org/fetish/amanda-2009-07-05-stocking-girls-125-pics-32-37-mb/20%Monthly2021-05-23 18:16
http://xxxset.org/fetish/amanda-2009-06-28-sexy-lady-123-pics-32-02-mb/20%Monthly2021-05-23 18:15
http://xxxset.org/fetish/amanda-2009-06-21-teaser-122-pics-33-12-mb/20%Monthly2021-05-23 18:14
http://xxxset.org/fetish/amanda-2009-06-14-slippery-pt-2-111-pics-27-84-mb/20%Monthly2021-05-23 18:13
http://xxxset.org/fetish/amanda-2009-06-07-hell-for-leather-125-pics-36-59-mb/20%Monthly2021-05-23 18:12
http://xxxset.org/fetish/amanda-2009-05-31-bounded-119-pics-25-91-mb/20%Monthly2021-05-23 18:11
http://xxxset.org/fetish/amanda-2009-05-24-slippery-pt-1-120-pics-30-64-mb/20%Monthly2021-05-23 18:10
http://xxxset.org/fetish/amanda-2009-05-17-red-heels-109-pics-36-98-mb/20%Monthly2021-05-23 18:09
http://xxxset.org/fetish/amanda-2009-05-10-feet-voyeur-116-pics-30-81-mb/20%Monthly2021-05-23 18:08
http://xxxset.org/fetish/amanda-2009-05-03-precious-119-pics-35-93-mb/20%Monthly2021-05-23 18:07
http://xxxset.org/fetish/amanda-2009-04-26-black-seams-120-pics-38-88-mb/20%Monthly2021-05-23 18:06
http://xxxset.org/fetish/amanda-2009-04-19-fancies-114-pics-32-92-mb/20%Monthly2021-05-23 18:05
http://xxxset.org/fetish/amanda-2009-04-12-green-pearl-124-pics-49-46-mb/20%Monthly2021-05-23 18:04
http://xxxset.org/fetish/amanda-2009-04-05-business-women-130-pics-39-77-mb/20%Monthly2021-05-23 18:03
http://xxxset.org/fetish/amanda-2009-03-29-royal-120-pics-38-37-mb/20%Monthly2021-05-23 18:02
http://xxxset.org/fetish/amanda-2009-03-22-slimy-pt-2-98-pics-27-50-mb/20%Monthly2021-05-23 18:00
http://xxxset.org/fetish/amanda-2009-03-15-slimy-pt-1-100-pics-26-78-mb/20%Monthly2021-05-23 17:59
http://xxxset.org/fetish/amanda-2009-03-08-noblesse-105-pics-41-27-mb/20%Monthly2021-05-23 17:58
http://xxxset.org/fetish/amanda-2009-03-01-pink-114-pics-25-67-mb/20%Monthly2021-05-23 17:57
http://xxxset.org/fetish/amanda-2009-02-22-toe-111-pics-29-98-mb/20%Monthly2021-05-23 17:56
http://xxxset.org/fetish/amanda-2009-02-15-passion-130-pics-51-93-mb/20%Monthly2021-05-23 17:55
http://xxxset.org/fetish/amanda-2009-02-08-wild-thing-112-pics-31-53-mb/20%Monthly2021-05-23 17:54
http://xxxset.org/fetish/amanda-2009-02-01-tres-chic-107-pics-29-89-mb/20%Monthly2021-05-23 17:53
http://xxxset.org/fetish/amanda-2009-01-25-heartily-118-pics-31-33-mb/20%Monthly2021-05-23 17:52
http://xxxset.org/fetish/amanda-2009-01-18-appetizer-115-pics-30-62-mb/20%Monthly2021-05-23 17:51
http://xxxset.org/fetish/amanda-2009-01-11-enchantress-104-pics-23-96-mb/20%Monthly2021-05-23 17:50
http://xxxset.org/fetish/amanda-2009-01-04-juice-114-pics-33-32-mb/20%Monthly2021-05-23 17:49
http://xxxset.org/fetish/amanda-2008-12-28-fabulous-118-pics-33-22-mb/20%Monthly2021-05-23 17:48
http://xxxset.org/fetish/amanda-2008-12-21-sunset-104-pics-25-06-mb/20%Monthly2021-05-23 17:47
http://xxxset.org/fetish/amanda-2008-12-14-jacuzzi-134-pics-40-95-mb/20%Monthly2021-05-23 17:46
http://xxxset.org/fetish/amanda-2008-12-07-rainy-noon-120-pics-40-24-mb/20%Monthly2021-05-23 17:45
http://xxxset.org/fetish/amanda-2008-11-30-lustful-120-pics-34-98-mb/20%Monthly2021-05-23 17:44
http://xxxset.org/fetish/amanda-2008-11-22-nylon-games-118-pics-42-55-mb/20%Monthly2021-05-23 17:42
http://xxxset.org/fetish/amanda-2008-11-16-glitter-108-pics-31-18-mb/20%Monthly2021-05-23 17:41
http://xxxset.org/fetish/amanda-2008-11-02-red-evil-110-pics-30-79-mb/20%Monthly2021-05-23 17:40
http://xxxset.org/fetish/amanda-2008-10-26-flamy-112-pics-27-45-mb/20%Monthly2021-05-23 17:39
http://xxxset.org/fetish/amanda-2008-10-19-silver-star-117-pics-31-95-mb/20%Monthly2021-05-23 17:38
http://xxxset.org/fetish/amanda-2008-10-12-sultry-109-pics-34-88-mb/20%Monthly2021-05-23 17:37
http://xxxset.org/fetish/amanda-2008-10-05-luscious-120-pics-38-71-mb/20%Monthly2021-05-23 17:36
http://xxxset.org/fetish/amanda-2008-09-28-lordly-110-pics-43-04-mb/20%Monthly2021-05-23 17:35
http://xxxset.org/fetish/amanda-2008-09-21-beauty-lady-125-pics-32-93-mb/20%Monthly2021-05-23 17:34
http://xxxset.org/fetish/amanda-2008-09-14-black-pearl-121-pics-33-89-mb/20%Monthly2021-05-23 17:33
http://xxxset.org/fetish/amanda-2008-09-07-body-splash-109-pics-28-40-mb/20%Monthly2021-05-23 17:32
http://xxxset.org/fetish/amanda-2008-08-31-noble-119-pics-30-03-mb/20%Monthly2021-05-23 17:31
http://xxxset.org/fetish/amanda-2008-08-24-tender-feelings-125-pics-54-07-mb/20%Monthly2021-05-23 17:30
http://xxxset.org/fetish/amanda-2008-08-17-touchable-130-pics-36-30-mb/20%Monthly2021-05-23 17:29
http://xxxset.org/fetish/amanda-2008-08-10-splashed-nylons-104-pics-24-69-mb/20%Monthly2021-05-23 17:28
http://xxxset.org/fetish/amanda-2008-08-03-leathergirl-111-pics-23-40-mb/20%Monthly2021-05-23 17:27
http://xxxset.org/fetish/amanda-2008-07-27-splendid-126-pics-28-36-mb/20%Monthly2021-05-23 17:25
http://xxxset.org/fetish/amanda-2008-07-20-leggy-amanda-122-pics-30-07-mb/20%Monthly2021-05-23 17:24
http://xxxset.org/fetish/amanda-2008-07-13-luxurious-lady-136-pics-38-47-mb/20%Monthly2021-05-23 17:23
http://xxxset.org/fetish/amanda-2008-07-06-mature-ladies-111-pics-33-09-mb/20%Monthly2021-05-23 17:22
http://xxxset.org/fetish/amanda-2008-06-29-squirted-stockings-148-pics-43-13-mb/20%Monthly2021-05-23 17:21
http://xxxset.org/fetish/amanda-2008-06-22-pink-lady-121-pics-25-93-mb/20%Monthly2021-05-23 17:20
http://xxxset.org/fetish/amanda-2008-06-15-nylon-games-136-pics-36-97-mb/20%Monthly2021-05-23 17:19
http://xxxset.org/fetish/amanda-2008-06-08-nylon-dots-120-pics-31-56-mb/20%Monthly2021-05-23 17:18
http://xxxset.org/fetish/amanda-2008-05-31-hot-squirt-124-pics-27-92-mb/20%Monthly2021-05-23 17:17
http://xxxset.org/fetish/amanda-2008-05-25-spicy-toe-nails-124-pics-31-16-mb/20%Monthly2021-05-23 17:16
http://xxxset.org/fetish/amanda-2008-05-18-shes-the-limit-121-pics-28-96-mb/20%Monthly2021-05-23 17:15
http://xxxset.org/fetish/amanda-2008-05-11-pin-up-119-pics-26-52-mb/20%Monthly2021-05-23 17:14
http://xxxset.org/fetish/amanda-2008-05-04-sun-bath-105-pics-23-31-mb/20%Monthly2021-05-23 17:13
http://xxxset.org/fetish/amanda-2008-04-27-soaking-wet-109-pics-23-67-mb/20%Monthly2021-05-23 17:12
http://xxxset.org/fetish/amanda-2008-04-20-hot-ff-nylons-118-pics-27-57-mb/20%Monthly2021-05-23 17:11
http://xxxset.org/fetish/amanda-2008-04-13-posh-baroness-110-pics-24-03-mb/20%Monthly2021-05-23 17:10
http://xxxset.org/fetish/amanda-2008-04-06-balcony-110-pics-25-84-mb/20%Monthly2021-05-23 17:08
http://xxxset.org/fetish/amanda-2008-03-30-damp-104-pics-21-75-mb/20%Monthly2021-05-23 17:07
http://xxxset.org/fetish/amanda-2008-03-23-glamour-lady-117-pics-23-06-mb/20%Monthly2021-05-23 17:06
http://xxxset.org/fetish/amanda-2008-03-16-the-baroness-101-pics-24-26-mb/20%Monthly2021-05-23 17:05
http://xxxset.org/fetish/amanda-2008-03-09-palm-springs-107-pics-38-77-mb/20%Monthly2021-05-23 17:04
http://xxxset.org/fetish/amanda-2008-03-02-talk-of-the-devil-112-pics-32-52-mb/20%Monthly2021-05-23 17:03
http://xxxset.org/fetish/amanda-2008-02-24-rubin-121-pics-26-mb/20%Monthly2021-05-23 17:02
http://xxxset.org/fetish/amanda-2008-02-17-a-glas-of-wine-103-pics-21-91-mb/20%Monthly2021-05-23 17:01
http://xxxset.org/fetish/amanda-2008-02-10-the-crow-2-107-pics-19-36-mb/20%Monthly2021-05-23 17:00
http://xxxset.org/fetish/amanda-2008-02-03-smart-lady-105-pics-21-22-mb/20%Monthly2021-05-23 16:59
http://xxxset.org/fetish/amanda-2008-01-27-the-crow-136-pics-40-31-mb/20%Monthly2021-05-23 16:58
http://xxxset.org/fetish/amanda-2008-01-20-fruity-110-pics-28-94-mb/20%Monthly2021-05-23 16:57
http://xxxset.org/fetish/amanda-2008-01-13-dirty-cleaning-113-pics-26-89-mb/20%Monthly2021-05-23 16:56
http://xxxset.org/fetish/amanda-2008-01-06-exotic-flower-104-pics-23-33-mb/20%Monthly2021-05-23 16:55
http://xxxset.org/fetish/amanda-2007-12-30-cocktail-114-pics-25-30-mb/20%Monthly2021-05-23 16:54
http://xxxset.org/fetish/amanda-2007-12-23-golden-eye-96-pics-29-09-mb/20%Monthly2021-05-23 16:52
http://xxxset.org/fetish/amanda-2007-12-16-lovely-112-pics-30-96-mb/20%Monthly2021-05-23 16:51
http://xxxset.org/fetish/amanda-2007-12-09-society-lady-111-pics-25-90-mb/20%Monthly2021-05-23 16:50
http://xxxset.org/fetish/amanda-2007-12-02-jungle-queen-100-pics-25-78-mb/20%Monthly2021-05-23 16:49
http://xxxset.org/fetish/amanda-2007-11-25-grotto-109-pics-28-75-mb/20%Monthly2021-05-23 16:48
http://xxxset.org/fetish/amanda-2007-11-18-japanese-style-99-pics-20-22-mb/20%Monthly2021-05-23 16:47
http://xxxset.org/fetish/amanda-2007-11-11-lascivious-109-pics-26-06-mb/20%Monthly2021-05-23 16:46
http://xxxset.org/fetish/amanda-2007-11-04-grid-girls-114-pics-22-48-mb/20%Monthly2021-05-23 16:45
http://xxxset.org/fetish/amanda-2007-10-28-sputtering-91-pics-19-04-mb/20%Monthly2021-05-23 16:44
http://xxxset.org/fetish/amanda-2007-10-21-palm-garden-94-pics-27-70-mb/20%Monthly2021-05-23 16:43
http://xxxset.org/fetish/amanda-2007-10-14-summertime-110-pics-23-62-mb/20%Monthly2021-05-23 16:42
http://xxxset.org/fetish/amanda-2007-10-07-red-chamber-107-pics-17-26-mb/20%Monthly2021-05-23 16:41
http://xxxset.org/fetish/amanda-2007-09-30-lounge-lizard-106-pics-21-71-mb/20%Monthly2021-05-23 16:40
http://xxxset.org/fetish/amanda-2007-09-23-oktoberfest-130-pics-26-55-mb/20%Monthly2021-05-23 16:39
http://xxxset.org/fetish/amanda-2007-09-16-the-mirror-104-pics-22-05-mb/20%Monthly2021-05-23 16:38
http://xxxset.org/fetish/amanda-2007-09-09-leather-dress-106-pics-22-18-mb/20%Monthly2021-05-23 16:37
http://xxxset.org/fetish/amanda-2007-09-02-splish-splash-98-pics-19-44-mb/20%Monthly2021-05-23 16:36
http://xxxset.org/fetish/amanda-2007-08-26-grande-madame-107-pics-22-47-mb/20%Monthly2021-05-23 16:34
http://xxxset.org/fetish/amanda-2007-08-19-africa-110-pics-23-20-mb/20%Monthly2021-05-23 16:33
http://xxxset.org/fetish/amanda-2007-08-12-rococo-107-pics-23-10-mb/20%Monthly2021-05-23 16:32
http://xxxset.org/fetish/amanda-2007-08-05-black-devil-95-pics-19-02-mb/20%Monthly2021-05-23 16:31
http://xxxset.org/fetish/amanda-2007-07-29-very-scummy-112-pics-23-42-mb/20%Monthly2021-05-23 16:30
http://xxxset.org/fetish/amanda-2007-07-22-red-rose-113-pics-20-13-mb/20%Monthly2021-05-23 16:29
http://xxxset.org/fetish/amanda-2007-07-15-naughty-widows-119-pics-32-46-mb/20%Monthly2021-05-23 16:28
http://xxxset.org/fetish/amanda-2007-07-08-motorcar-110-pics-20-54-mb/20%Monthly2021-05-23 16:27
http://xxxset.org/fetish/amanda-2007-07-01-chocopee-110-pics-22-50-mb/20%Monthly2021-05-23 16:26
http://xxxset.org/fetish/amanda-2007-06-24-tabledance-119-pics-25-78-mb/20%Monthly2021-05-23 16:25
http://xxxset.org/fetish/amanda-2007-06-17-supercharger-100-pics-17-61-mb/20%Monthly2021-05-23 16:24
http://xxxset.org/fetish/amanda-2007-06-10-grace-119-pics-24-48-mb/20%Monthly2021-05-23 16:23
http://xxxset.org/fetish/amanda-2007-06-03-hot-cats-122-pics-32-mb/20%Monthly2021-05-23 16:22
http://xxxset.org/fetish/amanda-2007-05-27-foaming-angel-2-102-pics-22-85-mb/20%Monthly2021-05-23 16:21
http://xxxset.org/fetish/amanda-2007-05-21-lustful-107-pics-27-72-mb/20%Monthly2021-05-23 16:20
http://xxxset.org/fetish/amanda-2007-05-13-pudding-126-pics-23-39-mb/20%Monthly2021-05-23 16:19
http://xxxset.org/fetish/amanda-2007-05-06-foaming-angel-102-pics-18-38-mb/20%Monthly2021-05-23 16:18
http://xxxset.org/fetish/amanda-2007-04-29-spatting-biddy-169-pics-34-31-mb/20%Monthly2021-05-23 16:17
http://xxxset.org/fetish/amanda-2007-04-22-mademoiselle-127-pics-20-86-mb/20%Monthly2021-05-23 16:16
http://xxxset.org/fetish/amanda-2007-04-15-flower-power-113-pics-24-91-mb/20%Monthly2021-05-23 16:14
http://xxxset.org/fetish/amanda-2007-04-08-vintage-ladies-133-pics-23-09-mb/20%Monthly2021-05-23 16:13
http://xxxset.org/fetish/amanda-2007-04-01-blue-dream-104-pics-20-50-mb/20%Monthly2021-05-23 16:12
http://xxxset.org/fetish/amanda-2007-03-25-dressed-in-black-116-pics-24-33-mb/20%Monthly2021-05-23 16:11
http://xxxset.org/fetish/amanda-2007-03-18-charming-lady-123-pics-21-84-mb/20%Monthly2021-05-23 16:10
http://xxxset.org/fetish/amanda-2007-03-11-eve-amanda-134-pics-24-88-mb/20%Monthly2021-05-23 16:09
http://xxxset.org/fetish/amanda-2007-03-05-squirting-woman-133-pics-21-62-mb/20%Monthly2021-05-23 16:08
http://xxxset.org/fetish/amanda-2007-02-25-hammering-124-pics-21-49-mb/20%Monthly2021-05-23 16:07
http://xxxset.org/fetish/amanda-2007-02-18-diabola-117-pics-22-97-mb/20%Monthly2021-05-23 16:06
http://xxxset.org/fetish/amanda-2007-02-11-cloudy-sky-107-pics-26-69-mb/20%Monthly2021-05-23 16:05
http://xxxset.org/fetish/amanda-2007-02-04-rb-heels-104-pics-20-33-mb/20%Monthly2021-05-23 16:04
http://xxxset.org/fetish/amanda-2007-01-28-playing-alone-120-pics-28-93-mb/20%Monthly2021-05-23 16:03
http://xxxset.org/fetish/amanda-2007-01-21-ying-yang-97-pics-19-05-mb/20%Monthly2021-05-23 16:02
http://xxxset.org/fetish/amanda-2007-01-14-the-coat-106-pics-25-24-mb/20%Monthly2021-05-23 16:01
http://xxxset.org/fetish/amanda-2006-12-31-lounge-142-pics-24-66-mb/20%Monthly2021-05-23 15:59
http://xxxset.org/fetish/amanda-2006-12-25-black-widow-2-133-pics-23-34-mb/20%Monthly2021-05-23 15:58
http://xxxset.org/fetish/amanda-2006-12-17-black-widow-1-127-pics-23-28-mb/20%Monthly2021-05-23 15:56
http://xxxset.org/fetish/amanda-2006-12-10-maribou-heels-101-pics-20-14-mb/20%Monthly2021-05-23 15:55
http://xxxset.org/fetish/amanda-2006-12-03-girlfriends-2-83-pics-21-29-mb/20%Monthly2021-05-23 15:54
http://xxxset.org/fetish/amanda-2006-11-26-lonely-at-home-108-pics-20-67-mb/20%Monthly2021-05-23 15:53
http://xxxset.org/fetish/amanda-2006-11-19-pink-flamingo-95-pics-17-02-mb/20%Monthly2021-05-23 15:52
http://xxxset.org/fetish/amanda-2006-11-12-nude-stockings-110-pics-24-84-mb/20%Monthly2021-05-23 15:51
http://xxxset.org/fetish/amanda-2006-11-05-damply-curly-head-126-pics-18-93-mb/20%Monthly2021-05-23 15:50
http://xxxset.org/fetish/amanda-2006-10-29-neon-babe-103-pics-23-64-mb/20%Monthly2021-05-23 15:49
http://xxxset.org/fetish/amanda-2006-10-22-spitting-98-pics-29-04-mb/20%Monthly2021-05-23 15:48
http://xxxset.org/fetish/amanda-2006-10-15-pink-cowgirl-99-pics-21-03-mb/20%Monthly2021-05-23 15:47
http://xxxset.org/fetish/amanda-2006-10-09-wet-and-nasty-103-pics-20-46-mb/20%Monthly2021-05-23 15:46
http://xxxset.org/fetish/amanda-2006-10-02-splashy-in-the-tube-117-pics-21-96-mb/20%Monthly2021-05-23 15:45
http://xxxset.org/fetish/amanda-2006-09-24-girlfriends-84-pics-16-27-mb/20%Monthly2021-05-23 15:44
http://xxxset.org/fetish/amanda-2006-09-17-beautiful-day-93-pics-28-51-mb/20%Monthly2021-05-23 15:43
http://xxxset.org/fetish/amanda-2006-09-10-hot-brown-stockings-106-pics-27-52-mb/20%Monthly2021-05-23 15:42
http://xxxset.org/fetish/amanda-2006-09-03-snake-110-pics-21-43-mb/20%Monthly2021-05-23 15:41
http://xxxset.org/fetish/amanda-2006-08-27-flower-power-109-pics-21-68-mb/20%Monthly2021-05-23 15:40
http://xxxset.org/fetish/amanda-2006-08-19-heaven-and-hell-131-pics-25-66-mb/20%Monthly2021-05-23 15:38
http://xxxset.org/fetish/amanda-2006-08-12-milky-way-113-pics-22-62-mb/20%Monthly2021-05-23 15:37
http://xxxset.org/fetish/amanda-2006-08-06-wet-sunny-day-110-pics-24-20-mb/20%Monthly2021-05-23 15:36
http://xxxset.org/fetish/amanda-2006-07-30-yellow-pink-114-pics-24-31-mb/20%Monthly2021-05-23 15:35
http://xxxset.org/fetish/amanda-2006-07-23-hot-chilli-pepper-111-pics-22-91-mb/20%Monthly2021-05-23 15:34
http://xxxset.org/fetish/amanda-2006-07-16-blue-laguna-99-pics-14-59-mb/20%Monthly2021-05-23 15:33
http://xxxset.org/fetish/amanda-2006-07-09-hosepipe-122-pics-24-92-mb/20%Monthly2021-05-23 15:32
http://xxxset.org/fetish/amanda-2006-07-04-privat-amanda-109-pics-21-89-mb/20%Monthly2021-05-23 15:31
http://xxxset.org/fetish/amanda-2006-06-25-junglequeen-111-pics-27-46-mb/20%Monthly2021-05-23 15:30
http://xxxset.org/fetish/amanda-2006-06-20-so-hot-111-pics-23-41-mb/20%Monthly2021-05-23 15:29
http://xxxset.org/fetish/amanda-2006-06-11-red-rose-120-pics-26-77-mb/20%Monthly2021-05-23 15:28
http://xxxset.org/fetish/amanda-2006-06-05-the-pool-110-pics-27-04-mb/20%Monthly2021-05-23 15:27
http://xxxset.org/fetish/amanda-2006-05-27-banana-split-121-pics-20-12-mb/20%Monthly2021-05-23 15:26
http://xxxset.org/fetish/amanda-2006-05-21-cowgirl-110-pics-21-58-mb/20%Monthly2021-05-23 15:25
http://xxxset.org/fetish/amanda-2006-05-14-wet-and-messy-124-pics-25-47-mb/20%Monthly2021-05-23 15:24
http://xxxset.org/fetish/amanda-2006-05-07-business-woman-121-pics-23-88-mb/20%Monthly2021-05-23 15:23
http://xxxset.org/fetish/amanda-2006-04-30-wet-mixed-pix-104-pics-16-43-mb/20%Monthly2021-05-23 15:22
http://xxxset.org/fetish/amanda-2006-04-23-hot-rain-125-pics-22-86-mb/20%Monthly2021-05-23 15:20
http://xxxset.org/fetish/amanda-2006-04-16-the-wall-2-107-pics-25-85-mb/20%Monthly2021-05-23 15:19
http://xxxset.org/fetish/amanda-2006-04-09-messy-toes-132-pics-20-70-mb/20%Monthly2021-05-23 15:18
http://xxxset.org/fetish/amanda-2006-04-02-pink-panther-100-pics-15-70-mb/20%Monthly2021-05-23 15:17
http://xxxset.org/fetish/amanda-2006-03-26-in-the-garage-99-pics-22-47-mb/20%Monthly2021-05-23 15:16
http://xxxset.org/fetish/amanda-2006-03-19-the-wall-103-pics-22-99-mb/20%Monthly2021-05-23 15:15
http://xxxset.org/fetish/amanda-2006-03-12-ws-bitch-105-pics-19-77-mb/20%Monthly2021-05-23 15:14
http://xxxset.org/fetish/amanda-2006-03-05-the-boss-122-pics-23-76-mb/20%Monthly2021-05-23 15:13
http://xxxset.org/fetish/amanda-2006-02-28-white-boa-98-pics-19-30-mb/20%Monthly2021-05-23 15:12
http://xxxset.org/fetish/amanda-2006-02-19-messy-nurse-145-pics-24-45-mb/20%Monthly2021-05-23 15:11
http://xxxset.org/fetish/amanda-2006-02-13-black-stockings-123-pics-26-29-mb/20%Monthly2021-05-23 15:10
http://xxxset.org/fetish/amanda-2006-02-04-wicked-maid-130-pics-26-27-mb/20%Monthly2021-05-23 15:09
http://xxxset.org/fetish/amanda-2006-01-29-apricot-127-pics-25-73-mb/20%Monthly2021-05-23 15:08
http://xxxset.org/fetish/amanda-2006-01-22-hot-pants-121-pics-30-74-mb/20%Monthly2021-05-23 15:07
http://xxxset.org/fetish/amanda-2006-01-15-pantyhose-114-pics-24-57-mb/20%Monthly2021-05-23 15:06
http://xxxset.org/fetish/amanda-2006-01-08-splashy-81-pics-16-12-mb/20%Monthly2021-05-23 15:05
http://xxxset.org/fetish/amanda-2005-12-31-happy-new-year-109-pics-21-59-mb/20%Monthly2021-05-23 15:03
http://xxxset.org/fetish/amanda-2005-12-25-merry-christmas-102-pics-17-mb/20%Monthly2021-05-23 15:02
http://xxxset.org/fetish/amanda-2005-12-18-toes-and-soles-106-pics-16-79-mb/20%Monthly2021-05-23 15:01
http://xxxset.org/fetish/amanda-2005-12-11-pearl-149-pics-22-43-mb/20%Monthly2021-05-23 15:00
http://xxxset.org/fetish/amanda-2005-12-05-tomatoe-crunch-108-pics-10-08-mb/20%Monthly2021-05-23 14:59
http://xxxset.org/fetish/amanda-2005-11-27-dangerous-84-pics-12-32-mb/20%Monthly2021-05-23 14:58
http://xxxset.org/fetish/amanda-2005-11-19-wet-and-messy-holidays-139-pics-19-14-mb/20%Monthly2021-05-23 14:57
http://xxxset.org/fetish/amanda-2005-11-13-red-stockings-99-pics-13-77-mb/20%Monthly2021-05-23 14:56
http://xxxset.org/fetish/amanda-2005-11-04-close-ups-115-pics-13-94-mb/20%Monthly2021-05-23 14:55
http://xxxset.org/fetish/amanda-2005-10-30-wrinkled-nylons-117-pics-14-48-mb/20%Monthly2021-05-23 14:54
http://xxxset.org/fetish/amanda-2005-10-23-egg-crushing-116-pics-12-05-mb/20%Monthly2021-05-23 14:53
http://xxxset.org/fetish/amanda-2005-10-15-rain-drops-145-pics-19-25-mb/20%Monthly2021-05-23 14:52
http://xxxset.org/fetish/amanda-2005-10-09-in-the-wood-100-pics-12-45-mb/20%Monthly2021-05-23 14:51
http://xxxset.org/fetish/amanda-2005-10-02-underground-parking-104-pics-13-44-mb/20%Monthly2021-05-23 14:50
http://xxxset.org/fetish/amanda-2005-09-25-shoe-session-105-pics-11-63-mb/20%Monthly2021-05-23 14:49
http://xxxset.org/fetish/amanda-2005-09-18-car-stop-122-pics-16-21-mb/20%Monthly2021-05-23 14:48
http://xxxset.org/fetish/amanda-2005-07-03-white-blue-100-pics-12-33-mb/20%Monthly2021-05-23 14:46
http://xxxset.org/fetish/amanda-2005-06-26-silver-shower-123-pics-13-29-mb/20%Monthly2021-05-23 14:45
http://xxxset.org/fetish/amanda-2005-06-19-spagetti-spagetti-104-pics-10-88-mb/20%Monthly2021-05-23 14:44
http://xxxset.org/fetish/amanda-2005-06-12-lonely-amanda-101-pics-11-02-mb/20%Monthly2021-05-23 14:43
http://xxxset.org/fetish/amanda-2005-06-05-dangerous-108-pics-15-06-mb/20%Monthly2021-05-23 14:42
http://xxxset.org/fetish/amanda-2005-05-29-bikini-and-heels-113-pics-12-84-mb/20%Monthly2021-05-23 14:41
http://xxxset.org/fetish/amanda-2005-05-22-lazy-maid-103-pics-11-48-mb/20%Monthly2021-05-23 14:40
http://xxxset.org/fetish/amanda-2005-05-15-business-lady-101-pics-11-85-mb/20%Monthly2021-05-23 14:39
http://xxxset.org/fetish/amanda-2005-05-08-secretary-124-pics-14-33-mb/20%Monthly2021-05-23 14:38
http://xxxset.org/fetish/amanda-2005-04-24-lustful-lilac-119-pics-13-57-mb/20%Monthly2021-05-23 14:37
http://xxxset.org/fetish/amanda-2005-04-17-very-wet-and-messy-163-pics-19-88-mb/20%Monthly2021-05-23 14:36
http://xxxset.org/fetish/amanda-2005-04-10-niagara-falls-100-pics-11-14-mb/20%Monthly2021-05-23 14:35
http://xxxset.org/fetish/amanda-2005-04-03-sunny-spring-day-116-pics-18-68-mb/20%Monthly2021-05-23 14:34
http://xxxset.org/fetish/amanda-2005-03-28-kinky-after-disco-143-pics-14-58-mb/20%Monthly2021-05-23 14:33
http://xxxset.org/fetish/amanda-2005-03-20-with-my-black-top-hat-104-pics-11-58-mb/20%Monthly2021-05-23 14:32
http://xxxset.org/fetish/amanda-2005-03-14-juicy-fruit-part-2-162-pics-15-66-mb/20%Monthly2021-05-23 14:31
http://xxxset.org/fetish/amanda-2005-03-06-juicy-fruit-part-1-128-pics-9-98-mb/20%Monthly2021-05-23 14:29
http://xxxset.org/fetish/amanda-2005-02-27-naughty-in-jackboots-103-pics-14-36-mb/20%Monthly2021-05-23 14:28
http://xxxset.org/fetish/amanda-2005-02-20-sweet-and-wet-146-pics-26-45-mb/20%Monthly2021-05-23 14:27
http://xxxset.org/fetish/amanda-2005-02-13-squirting-black-cat-116-pics-17-mb/20%Monthly2021-05-23 14:26
http://xxxset.org/fetish/amanda-2005-02-06-horny-widow-2-100-pics-18-66-mb/20%Monthly2021-05-23 14:25
http://xxxset.org/fetish/amanda-2005-02-01-an-afternoon-at-the-building-site-125-pics-20-85-mb/20%Monthly2021-05-23 14:24
http://xxxset.org/fetish/amanda-2005-01-24-carnival-175-pics-28-20-mb/20%Monthly2021-05-23 14:23
http://xxxset.org/fetish/amanda-2005-01-18-a-glass-of-champagne-114-pics-16-42-mb/20%Monthly2021-05-23 14:22
http://xxxset.org/fetish/amanda-2005-01-11-winter-fun-101-pics-22-59-mb/20%Monthly2021-05-23 14:21
http://xxxset.org/fetish/amanda-2005-01-10-wet-innocence-135-pics-17-19-mb/20%Monthly2021-05-23 14:20
http://xxxset.org/fetish/amanda-2005-01-09-wet-christmas-217-pics-27-02-mb/20%Monthly2021-05-23 14:19
http://xxxset.org/fetish/amanda-2004-12-16-silver-nylon-glamour-79-pics-8-79-mb/20%Monthly2021-05-23 14:18
http://xxxset.org/fetish/amanda-2004-12-15-horny-widow-140-pics-16-84-mb/20%Monthly2021-05-23 14:17
http://xxxset.org/fetish/amanda-2004-12-14-wet-and-dry-netbody-95-pics-14-84-mb/20%Monthly2021-05-23 14:16
http://xxxset.org/fetish/amanda-2004-12-14-stilettos-and-nylons-98-pics-10-94-mb/20%Monthly2021-05-23 14:15
http://xxxset.org/fetish/amanda-2004-12-14-piss-time-56-pics-11-05-mb/20%Monthly2021-05-23 14:14
http://xxxset.org/fetish/amanda-2004-12-14-nylons-are-sexy-78-pics-7-20-mb/20%Monthly2021-05-23 14:12
http://xxxset.org/fetish/amanda-2004-12-14-cum-in-the-bath-71-pics-7-06-mb/20%Monthly2021-05-23 14:11
http://xxxset.org/fetish/amanda-2004-12-14-blue-dress-and-roman-sandals-92-pics-8-66-mb/20%Monthly2021-05-23 14:10
http://xxxset.org/fetish/amanda-2004-12-14-black-and-white-85-pics-9-44-mb/20%Monthly2021-05-23 14:09
http://xxxset.org/milf/anilos-2021-05-22-beatrice-a-time-for-a-tease-68-pics-133-56-mb/20%Monthly2021-05-22 09:27
http://xxxset.org/milf/allover30-2021-05-22-serene-siren-milana-ricci-ladies-on-ladies-160-pics-290-55-mb/20%Monthly2021-05-22 09:26
http://xxxset.org/milf/allover30-2021-05-22-katya-elegant-ladies-125-pics-295-75-mb/20%Monthly2021-05-22 09:25
http://xxxset.org/teen/sexart-2021-05-22-lounger-keira-blue-93-pics-154-68-mb/20%Monthly2021-05-22 09:23
http://xxxset.org/teen/thelifeerotic-2021-05-22-clamp-my-clit-mia-trejsi-80-pics-145-36-mb/20%Monthly2021-05-22 09:22
http://xxxset.org/milf/desyra-noir-crotchless-spandex-swimsuit-005-38-pics-49-28-mb/20%Monthly2021-05-22 09:21
http://xxxset.org/milf/desyra-noir-colorful-lyrca-leggings-big-butt-tease-44-pics-39-79-mb/20%Monthly2021-05-22 09:20
http://xxxset.org/milf/desyra-noir-casablanca-romance-587-maxi-dress-59-pics-73-09-mb/20%Monthly2021-05-22 09:19
http://xxxset.org/milf/desyra-noir-car-wash-85-pics-106-79-mb/20%Monthly2021-05-22 09:18
http://xxxset.org/milf/desyra-noir-cameltoe-in-my-wicked-weasel-404-334-bandeau-top-sheer-vision-bikini-55-pics-49/20%Monthly2021-05-22 09:17
http://xxxset.org/milf/desyra-noir-blue-wicked-weasel-609-knicker-24-pics-25-67-mb/20%Monthly2021-05-22 09:16
http://xxxset.org/milf/desyra-noir-blue-crotchless-swimsuit-50-pics-62-13-mb/20%Monthly2021-05-22 09:15
http://xxxset.org/milf/desyra-noir-black-slinkystylez-cameltoe-leggings-38-pics-35-20-mb/20%Monthly2021-05-22 09:14
http://xxxset.org/milf/desyra-noir-big-oiled-booty-in-tight-yellow-leggings-65-pics-115-41-mb/20%Monthly2021-05-22 09:13
http://xxxset.org/milf/desyra-noir-big-cameltoe-in-slinkystylez-thongs-56-pics-51-34-mb/20%Monthly2021-05-22 09:12
http://xxxset.org/milf/desyra-noir-big-butt-in-shiny-slinkystylez-booty-leggings-77-pics-109-63-mb/20%Monthly2021-05-22 09:11
http://xxxset.org/milf/desyra-noir-big-booty-in-leopard-spandex-leggings-57-pics-76-mb/20%Monthly2021-05-22 09:09
http://xxxset.org/milf/desyra-noir-big-booty-in-a-slinkystylez-cheekywedge-leggings-103-pics-107-89-mb/20%Monthly2021-05-22 09:08
http://xxxset.org/milf/desyra-noir-big-ass-slinkystylez-leggings-marilyn-tease-31-pics-29-75-mb/20%Monthly2021-05-22 09:07
http://xxxset.org/milf/desyra-noir-big-ass-milf-in-a-slinkystylez-cheekywedge-leggings-and-a-leotard-30-pics-31-81-mb/20%Monthly2021-05-22 09:06
http://xxxset.org/milf/desyra-noir-big-ass-milf-desyra-in-a-sheer-wicked-weasel-lycra-bikini-59-pics-65-34-mb/20%Monthly2021-05-22 09:05
http://xxxset.org/milf/desyra-noir-big-ass-in-microminimus-rainbow-bikini-51-pics-60-82-mb/20%Monthly2021-05-22 09:04
http://xxxset.org/milf/desyra-noir-barbariga-seaside-spandex-cameltoe-64-pics-48-24-mb/20%Monthly2021-05-22 09:03
http://xxxset.org/milf/desyra-noir-a-sexy-photoshooting-in-my-yellow-slinkystylez-leggings-57-pics-61-75-mb/20%Monthly2021-05-22 09:02
http://xxxset.org/milf/desyra-noir-a-custom-photoset-for-a-fan-in-my-slinkystylez-classic-leggings-79-pics-60-18-mb/20%Monthly2021-05-22 09:01
http://xxxset.org/milf/desyra-noir-at-the-sea-in-my-slinkystylez-sportback-hydrasuit-49-pics-56-33-mb/20%Monthly2021-05-22 09:00
http://xxxset.org/milf/allover30-2021-05-21-nancy-acty-mature-housewives-136-pics-358-82-mb/20%Monthly2021-05-21 09:30
http://xxxset.org/milf/allover30-2021-05-21-elisa-tiger-lacey-ladies-159-pics-317-79-mb/20%Monthly2021-05-21 09:29
http://xxxset.org/teen/sexart-2021-05-21-girly-talk-eve-sweet-ivy-rein-114-pics-201-26-mb/20%Monthly2021-05-21 09:28
http://xxxset.org/milf/auntjudys-2021-05-20-liana-living-room-strip-and-masturbation-in-sheer-panties-169-pics-6/20%Monthly2021-05-20 10:16
http://xxxset.org/milf/anilos-2021-05-20-beatrice-a-naughty-pics-79-pics-165-82-mb/20%Monthly2021-05-20 10:15
http://xxxset.org/milf/allover30-2021-05-20-tiny-tina-elegant-ladies-145-pics-294-74-mb/20%Monthly2021-05-20 10:14
http://xxxset.org/milf/allover30-2021-05-20-quinn-waters-ladies-in-action-202-pics-359-10-mb/20%Monthly2021-05-20 10:12
http://xxxset.org/milf/allover30-2021-05-20-cheyenne-jewel-lacey-ladies-171-pics-354-98-mb/20%Monthly2021-05-20 10:11
http://xxxset.org/teen/sexart-2021-05-20-prepare-mirabella-82-pics-135-46-mb/20%Monthly2021-05-20 10:10
http://xxxset.org/fetish/lady-ewa-6199-90-pics-54-67-mb/20%Monthly2021-05-19 21:17
http://xxxset.org/fetish/lady-barbara-6198-84-pics-54-79-mb/20%Monthly2021-05-19 21:16
http://xxxset.org/fetish/lady-lena-6197-93-pics-53-73-mb/20%Monthly2021-05-19 21:15
http://xxxset.org/fetish/lady-ewa-6196-88-pics-44-06-mb/20%Monthly2021-05-19 21:14
http://xxxset.org/fetish/lady-barbara-6195-93-pics-31-10-mb/20%Monthly2021-05-19 21:13
http://xxxset.org/fetish/lady-lena-6194-48-pics-7-45-mb/20%Monthly2021-05-19 21:12
http://xxxset.org/fetish/lady-ewa-6193-64-pics-42-26-mb/20%Monthly2021-05-19 21:11
http://xxxset.org/fetish/lady-barbara-6192-71-pics-31-30-mb/20%Monthly2021-05-19 21:10
http://xxxset.org/fetish/lady-ewa-6191-106-pics-70-16-mb/20%Monthly2021-05-19 21:09
http://xxxset.org/fetish/lady-ewa-6190-91-pics-45-91-mb/20%Monthly2021-05-19 21:08
http://xxxset.org/fetish/lady-barbara-6189-82-pics-55-59-mb/20%Monthly2021-05-19 21:07
http://xxxset.org/fetish/lady-ewa-6188-82-pics-41-39-mb/20%Monthly2021-05-19 21:06
http://xxxset.org/fetish/lady-heike-6187-58-pics-27-59-mb/20%Monthly2021-05-19 21:05
http://xxxset.org/fetish/lady-tamara-6186-62-pics-37-80-mb/20%Monthly2021-05-19 21:04
http://xxxset.org/fetish/lady-barbara-6185-71-pics-25-63-mb/20%Monthly2021-05-19 21:02
http://xxxset.org/fetish/lady-ewa-6184-70-pics-33-34-mb/20%Monthly2021-05-19 21:01
http://xxxset.org/fetish/lady-ewa-6183-79-pics-52-80-mb/20%Monthly2021-05-19 21:00
http://xxxset.org/fetish/lady-barbara-6182-83-pics-44-66-mb/20%Monthly2021-05-19 20:59
http://xxxset.org/fetish/lady-barbara-6181-126-pics-42-40-mb/20%Monthly2021-05-19 20:58
http://xxxset.org/fetish/lady-ewa-6180-64-pics-39-77-mb/20%Monthly2021-05-19 20:57
http://xxxset.org/fetish/lady-tamara-6179-84-pics-47-37-mb/20%Monthly2021-05-19 20:56
http://xxxset.org/fetish/lady-ewa-6178-126-pics-50-25-mb/20%Monthly2021-05-19 20:55
http://xxxset.org/fetish/lady-barbara-6177-74-pics-22-27-mb/20%Monthly2021-05-19 20:54
http://xxxset.org/fetish/lady-carmen-6176-51-pics-29-50-mb/20%Monthly2021-05-19 20:53
http://xxxset.org/fetish/lady-rebecca-6175-88-pics-58-15-mb/20%Monthly2021-05-19 20:52
http://xxxset.org/fetish/lady-ewa-6174-95-pics-41-14-mb/20%Monthly2021-05-19 20:51
http://xxxset.org/fetish/lady-barbara-6173-88-pics-68-03-mb/20%Monthly2021-05-19 20:50
http://xxxset.org/fetish/lady-barbara-6172-80-pics-47-18-mb/20%Monthly2021-05-19 20:49
http://xxxset.org/fetish/lady-ewa-6171-86-pics-30-66-mb/20%Monthly2021-05-19 20:48
http://xxxset.org/milf/allover30-2021-05-19-nika-dupre-lacey-ladies-169-pics-291-33-mb/20%Monthly2021-05-19 09:43
http://xxxset.org/milf/allover30-2021-05-19-kitty-quinn-elegant-ladies-112-pics-229-79-mb/20%Monthly2021-05-19 09:42
http://xxxset.org/teen/sexart-2021-05-19-denouement-melany-mendes-ricky-104-pics-289-36-mb/20%Monthly2021-05-19 09:41
http://xxxset.org/fetish/lady-barbara-6170-27-pics-6-23-mb/20%Monthly2021-05-19 09:40
http://xxxset.org/fetish/lady-ewa-6169-74-pics-37-05-mb/20%Monthly2021-05-19 09:39
http://xxxset.org/fetish/lady-tamara-6168-104-pics-62-88-mb/20%Monthly2021-05-19 09:38
http://xxxset.org/fetish/lady-ewa-6167-65-pics-39-96-mb/20%Monthly2021-05-19 09:37
http://xxxset.org/fetish/lady-barbara-6166-79-pics-39-67-mb/20%Monthly2021-05-19 09:36
http://xxxset.org/fetish/lady-barbara-6165-86-pics-45-74-mb/20%Monthly2021-05-19 09:35
http://xxxset.org/fetish/lady-barbara-6164-84-pics-22-76-mb/20%Monthly2021-05-19 09:34
http://xxxset.org/fetish/lady-barbara-6163-160-pics-89-50-mb/20%Monthly2021-05-19 09:32
http://xxxset.org/fetish/lady-tamara-6162-85-pics-49-21-mb/20%Monthly2021-05-19 09:31
http://xxxset.org/fetish/lady-ewa-6161-66-pics-42-54-mb/20%Monthly2021-05-19 09:30
http://xxxset.org/fetish/lady-barbara-6160-225-pics-113-91-mb/20%Monthly2021-05-19 09:29
http://xxxset.org/fetish/lady-ewa-6159-85-pics-46-45-mb/20%Monthly2021-05-19 09:28
http://xxxset.org/fetish/lady-ewa-6158-121-pics-50-32-mb/20%Monthly2021-05-19 09:27
http://xxxset.org/fetish/lady-barbara-6157-70-pics-40-19-mb/20%Monthly2021-05-19 09:26
http://xxxset.org/fetish/lady-ewa-6156-100-pics-46-87-mb/20%Monthly2021-05-19 09:25
http://xxxset.org/fetish/lady-lena-6155-74-pics-35-91-mb/20%Monthly2021-05-19 09:24
http://xxxset.org/fetish/lady-barbara-6154-33-pics-22-95-mb/20%Monthly2021-05-19 09:23
http://xxxset.org/fetish/lady-ewa-6153-78-pics-30-88-mb/20%Monthly2021-05-19 09:22
http://xxxset.org/fetish/lady-ewa-6152-98-pics-41-03-mb/20%Monthly2021-05-19 09:21
http://xxxset.org/fetish/lady-heike-6151-88-pics-31-37-mb/20%Monthly2021-05-19 09:20
http://xxxset.org/fetish/lady-barbara-6150-82-pics-42-93-mb/20%Monthly2021-05-19 09:19
http://xxxset.org/fetish/lady-carmen-6149-74-pics-30-32-mb/20%Monthly2021-05-19 09:18
http://xxxset.org/fetish/lady-barbara-6148-121-pics-59-35-mb/20%Monthly2021-05-19 09:17
http://xxxset.org/fetish/lady-ewa-6147-95-pics-41-08-mb/20%Monthly2021-05-19 09:17
http://xxxset.org/fetish/lady-ewa-6145-138-pics-57-63-mb/20%Monthly2021-05-19 09:17
http://xxxset.org/fetish/lady-valerie-6144-63-pics-47-51-mb/20%Monthly2021-05-19 09:17
http://xxxset.org/fetish/lady-barbara-6143-50-pics-28-38-mb/20%Monthly2021-05-19 09:17
http://xxxset.org/fetish/lady-rebecca-6142-104-pics-51-09-mb/20%Monthly2021-05-19 09:17
http://xxxset.org/fetish/lady-gina-6141-53-pics-24-09-mb/20%Monthly2021-05-19 09:17
http://xxxset.org/fetish/lady-valerie-6140-86-pics-34-54-mb/20%Monthly2021-05-19 09:18
http://xxxset.org/fetish/lady-carmen-6139-49-pics-14-56-mb/20%Monthly2021-05-18 22:38
http://xxxset.org/fetish/lady-barbara-6138-80-pics-42-35-mb/20%Monthly2021-05-18 22:37
http://xxxset.org/fetish/lady-ewa-jennie-6137-111-pics-73-15-mb/20%Monthly2021-05-18 22:36
http://xxxset.org/fetish/lady-heike-6136-113-pics-45-86-mb/20%Monthly2021-05-18 22:35
http://xxxset.org/fetish/lady-carmen-6135-92-pics-64-30-mb/20%Monthly2021-05-18 22:34
http://xxxset.org/fetish/lady-barbara-6134-138-pics-70-62-mb/20%Monthly2021-05-18 22:33
http://xxxset.org/fetish/lady-lena-6133-79-pics-46-47-mb/20%Monthly2021-05-18 22:32
http://xxxset.org/fetish/lady-ewa-jennie-6132-150-pics-75-92-mb/20%Monthly2021-05-18 22:31
http://xxxset.org/fetish/lady-barbara-6131-107-pics-51-79-mb/20%Monthly2021-05-18 22:30
http://xxxset.org/fetish/lady-ewa-jennie-6130-83-pics-53-79-mb/20%Monthly2021-05-18 22:29
http://xxxset.org/fetish/lady-heike-6129-98-pics-56-13-mb/20%Monthly2021-05-18 22:28
http://xxxset.org/fetish/lady-ewa-6128-117-pics-77-34-mb/20%Monthly2021-05-18 22:27
http://xxxset.org/fetish/lady-barbara-6127-83-pics-41-92-mb/20%Monthly2021-05-18 22:25
http://xxxset.org/fetish/lady-ewa-6125-98-pics-44-37-mb/20%Monthly2021-05-18 22:24
http://xxxset.org/fetish/lady-ewa-6124-121-pics-44-82-mb/20%Monthly2021-05-18 22:23
http://xxxset.org/fetish/lady-ewa-6123-50-pics-22-85-mb/20%Monthly2021-05-18 22:22
http://xxxset.org/fetish/lady-barbara-6122-152-pics-97-26-mb/20%Monthly2021-05-18 22:21
http://xxxset.org/fetish/lady-ewa-6121-98-pics-66-48-mb/20%Monthly2021-05-18 22:20
http://xxxset.org/fetish/lady-rebecca-6120-74-pics-30-34-mb/20%Monthly2021-05-18 22:19
http://xxxset.org/fetish/lady-ewa-6119-88-pics-38-51-mb/20%Monthly2021-05-18 22:18
http://xxxset.org/fetish/lady-barbara-6118-88-pics-56-94-mb/20%Monthly2021-05-18 22:17
http://xxxset.org/fetish/lady-anoushka-6117-52-pics-3-74-mb/20%Monthly2021-05-18 22:16
http://xxxset.org/fetish/lady-ewa-6116-100-pics-47-41-mb/20%Monthly2021-05-18 22:05
http://xxxset.org/fetish/lady-ewa-6115-89-pics-54-10-mb/20%Monthly2021-05-18 22:04
http://xxxset.org/fetish/lady-barbara-6114-120-pics-31-91-mb/20%Monthly2021-05-18 22:03
http://xxxset.org/fetish/lady-rebecca-6112-93-pics-40-80-mb/20%Monthly2021-05-18 22:02
http://xxxset.org/fetish/lady-barbara-6111-80-pics-41-25-mb/20%Monthly2021-05-18 22:01
http://xxxset.org/fetish/lady-barbara-6110-69-pics-35-50-mb/20%Monthly2021-05-18 22:00
http://xxxset.org/fetish/lady-ewa-6109-85-pics-32-22-mb/20%Monthly2021-05-18 21:59
http://xxxset.org/fetish/lady-ewa-6108-94-pics-40-36-mb/20%Monthly2021-05-18 21:58
http://xxxset.org/fetish/lady-barbara-6107-46-pics-20-34-mb/20%Monthly2021-05-18 21:57
http://xxxset.org/fetish/lady-ewa-6106-136-pics-102-09-mb/20%Monthly2021-05-18 21:55
http://xxxset.org/fetish/lady-heike-6105-51-pics-4-20-mb/20%Monthly2021-05-18 21:54
http://xxxset.org/fetish/lady-barbara-6104-90-pics-33-84-mb/20%Monthly2021-05-18 21:53
http://xxxset.org/fetish/lady-ewa-6103-91-pics-52-03-mb/20%Monthly2021-05-18 21:52
http://xxxset.org/fetish/lady-rebecca-6102-115-pics-58-34-mb/20%Monthly2021-05-18 21:51
http://xxxset.org/fetish/lady-ewa-6101-104-pics-71-21-mb/20%Monthly2021-05-18 21:50
http://xxxset.org/fetish/lady-barbara-6100-111-pics-57-52-mb/20%Monthly2021-05-18 21:49
http://xxxset.org/milf/auntjudys-2021-05-18-felicity-upskirt-and-stockings-in-the-stairway-144-pics-553-70-mb/20%Monthly2021-05-18 09:58
http://xxxset.org/milf/anilos-2021-05-18-beatrice-a-anything-for-pleasure-53-pics-136-19-mb/20%Monthly2021-05-18 09:57
http://xxxset.org/milf/allover30-2021-05-18-julia-north-lacey-ladies-155-pics-218-52-mb/20%Monthly2021-05-18 09:56
http://xxxset.org/milf/allover30-2021-05-18-allegra-elegant-ladies-194-pics-366-25-mb/20%Monthly2021-05-18 09:55
http://xxxset.org/teen/thelifeerotic-2021-05-18-playing-hard-deepika-kiere-120-pics-337-32-mb/20%Monthly2021-05-18 09:54
http://xxxset.org/teen/sexart-2021-05-18-black-lace-candice-luka-204-pics-383-87-mb/20%Monthly2021-05-18 09:53
http://xxxset.org/fetish/bazhena-white-dress-red-lingerie-106-pics-105-71-mb/20%Monthly2021-05-18 09:52
http://xxxset.org/fetish/bazhena-white-blouse-black-dress-124-pics-134-77-mb/20%Monthly2021-05-18 09:50
http://xxxset.org/fetish/bazhena-green-garden-green-dress-105-pics-112-29-mb/20%Monthly2021-05-18 09:49
http://xxxset.org/fetish/bazhena-blue-apron-pink-lingerie-112-pics-108-12-mb/20%Monthly2021-05-18 09:48
http://xxxset.org/fetish/bazhena-black-dress-black-bra-115-pics-132-02-mb/20%Monthly2021-05-18 09:47
http://xxxset.org/fetish/bazhena-black-blouse-black-stockings-122-pics-134-75-mb/20%Monthly2021-05-18 09:46
http://xxxset.org/fetish/barbara-yellow-wall-white-dress-129-pics-105-94-mb/20%Monthly2021-05-18 09:45
http://xxxset.org/fetish/barbara-yellow-dress-white-panty-130-pics-110-70-mb/20%Monthly2021-05-18 09:44
http://xxxset.org/fetish/barbara-yellow-banana-purple-lingere-120-pics-95-50-mb/20%Monthly2021-05-18 09:43
http://xxxset.org/fetish/barbara-white-shirt-grey-pants-117-pics-96-06-mb/20%Monthly2021-05-18 09:42
http://xxxset.org/fetish/barbara-tan-bed-purple-dress-105-pics-91-84-mb/20%Monthly2021-05-18 09:41
http://xxxset.org/fetish/barbara-black-bra-denim-jeans-117-pics-98-02-mb/20%Monthly2021-05-18 09:40
http://xxxset.org/fetish/azul-spot-carpet-grey-blouse-100-pics-89-43-mb/20%Monthly2021-05-18 09:39
http://xxxset.org/fetish/azul-grey-jacket-white-panty-101-pics-83-52-mb/20%Monthly2021-05-18 09:38
http://xxxset.org/fetish/azul-grey-blouse-blue-panty-100-pics-81-77-mb/20%Monthly2021-05-18 09:37
http://xxxset.org/fetish/azul-brown-sweater-black-panty-102-pics-83-93-mb/20%Monthly2021-05-18 09:36
http://xxxset.org/fetish/azul-blue-bed-red-lingerie-102-pics-98-10-mb/20%Monthly2021-05-18 09:35
http://xxxset.org/fetish/azul-black-parka-black-thong-100-pics-81-63-mb/20%Monthly2021-05-18 09:33
http://xxxset.org/fetish/azul-black-panty-brown-top-105-pics-84-06-mb/20%Monthly2021-05-18 09:32
http://xxxset.org/milf/anilos-2021-05-17-eva-may-when-she-cums-49-pics-88-91-mb/20%Monthly2021-05-17 08:20
http://xxxset.org/milf/allover30-2021-05-17-galas-looner-lacey-ladies-129-pics-364-60-mb/20%Monthly2021-05-17 08:19
http://xxxset.org/milf/allover30-2021-05-17-elisa-tiger-9-to-5-ladies-154-pics-228-84-mb/20%Monthly2021-05-17 08:18
http://xxxset.org/teen/sexart-2021-05-17-flower-matty-120-pics-100-53-mb/20%Monthly2021-05-17 08:17
http://xxxset.org/pornstar/whitney-wonders-2020-04-16-bikinis-are-for-busting-90-pics-143-47-mb/20%Monthly2021-05-16 22:39
http://xxxset.org/pornstar/wendy-whoppers-2017-08-24-a-whopper-of-a-blonde-50-pics-53-23-mb/20%Monthly2021-05-16 22:38
http://xxxset.org/pornstar/victoria-2019-08-31-the-woman-next-door-60-pics-76-71-mb/20%Monthly2021-05-16 22:37
http://xxxset.org/pornstar/victoria-2019-08-29-vicky-the-everyday-woman-56-pics-63-15-mb/20%Monthly2021-05-16 22:36
http://xxxset.org/pornstar/vicky-2020-11-28-an-everyday-extraordinary-woman-64-pics-68-71-mb/20%Monthly2021-05-16 22:35
http://xxxset.org/pornstar/via-paxton-2020-03-28-the-naked-gymnasium-80-pics-79-07-mb/20%Monthly2021-05-16 22:34
http://xxxset.org/pornstar/via-paxton-2020-03-26-on-the-beach-with-via-paxton-55-pics-86-98-mb/20%Monthly2021-05-16 22:33
http://xxxset.org/pornstar/via-paxton-2017-06-22-a-day-with-via-paxton-69-pics-107-58-mb/20%Monthly2021-05-16 22:32
http://xxxset.org/pornstar/vanessa-2020-05-09-one-of-britains-best-70-pics-84-63-mb/20%Monthly2021-05-16 22:31
http://xxxset.org/pornstar/vanessa-katie-2020-09-26-finger-lickin-good-65-pics-64-76-mb/20%Monthly2021-05-16 22:30
http://xxxset.org/pornstar/tracy-west-2016-08-08-lingerie-lass-60-pics-61-79-mb/20%Monthly2021-05-16 22:29
http://xxxset.org/pornstar/tracy-neve-2020-08-08-best-of-britain-100-pics-148-86-mb/20%Monthly2021-05-16 22:28
http://xxxset.org/pornstar/traci-burr-2017-06-04-titty-tugger-40-pics-56-97-mb/20%Monthly2021-05-16 22:27
http://xxxset.org/pornstar/tracey-neve-2020-08-22-lights-camera-tracey-neve-80-pics-97-77-mb/20%Monthly2021-05-16 22:26
http://xxxset.org/pornstar/tracey-neve-2020-08-06-the-perfect-body-65-pics-85-07-mb/20%Monthly2021-05-16 22:25
http://xxxset.org/pornstar/toppsy-curvey-2019-03-14-sunshine-super-titter-toppsy-curvey-50-pics-53-09-mb/20%Monthly2021-05-16 22:24
http://xxxset.org/pornstar/toppsy-curvey-2018-12-08-spread-out-for-toppsy-90-pics-34-27-mb/20%Monthly2021-05-16 22:22
http://xxxset.org/pornstar/toppsy-curvey-2018-12-06-secretary-of-stacked-80-pics-24-39-mb/20%Monthly2021-05-16 22:21
http://xxxset.org/pornstar/toppsy-curvey-2016-08-28-bostonian-bra-buster-50-pics-75-60-mb/20%Monthly2021-05-16 22:20
http://xxxset.org/pornstar/toni-evans-2017-12-19-the-hot-blonde-from-candy-cane-lane-40-pics-64-84-mb/20%Monthly2021-05-16 22:19
http://xxxset.org/pornstar/toni-evans-dawn-phoenix-2020-03-19-80-pics-115-58-mb/20%Monthly2021-05-16 22:18
http://xxxset.org/pornstar/tina-cheri-2020-11-19-the-blonde-in-black-stockings-55-pics-88-61-mb/20%Monthly2021-05-16 22:17
http://xxxset.org/pornstar/tianna-thomas-2020-09-29-hot-pants-shiny-black-thigh-high-boots-60-pics-82-39-mb/20%Monthly2021-05-16 22:16
http://xxxset.org/pornstar/tianna-thomas-2020-08-27-tianna-thomass-bikini-bustout-55-pics-85-06-mb/20%Monthly2021-05-16 22:15
http://xxxset.org/pornstar/teresa-2020-04-02-teresa-brought-european-flavor-to-score-70-pics-101-37-mb/20%Monthly2021-05-16 22:14
http://xxxset.org/pornstar/taylor-marie-2020-07-30-tan-lined-miami-beach-blonde-70-pics-93-78-mb/20%Monthly2021-05-16 22:13
http://xxxset.org/pornstar/taylor-marie-2020-04-18-farmers-jerk-off-fantasy-74-pics-115-98-mb/20%Monthly2021-05-16 22:12
http://xxxset.org/pornstar/suzie-boobies-2020-02-01-big-titters-photo-chest-50-pics-78-90-mb/20%Monthly2021-05-16 22:11
http://xxxset.org/pornstar/suzie-boobies-2020-01-30-suzie-boobies-office-break-50-pics-56-78-mb/20%Monthly2021-05-16 22:10
http://xxxset.org/pornstar/stacy-owen-2020-06-06-stacy-owens-forest-hideaway-59-pics-82-23-mb/20%Monthly2021-05-16 22:09
http://xxxset.org/pornstar/stacy-owen-2020-06-04-beach-pool-42-pics-48-82-mb/20%Monthly2021-05-16 22:08
http://xxxset.org/pornstar/stacy-owen-2019-12-28-sexy-scot-44-pics-59-06-mb/20%Monthly2021-05-16 22:07
http://xxxset.org/pornstar/stacy-owen-2019-12-26-house-painter-for-hire-110-pics-128-93-mb/20%Monthly2021-05-16 22:06
http://xxxset.org/pornstar/stacy-owen-jeannine-oldfield-2020-02-08-british-jungle-girls-49-pics-88-04-mb/20%Monthly2021-05-16 22:04
http://xxxset.org/pornstar/sofia-staks-2019-02-14-first-score-photo-shoot-65-pics-79-05-mb/20%Monthly2021-05-16 22:03
http://xxxset.org/pornstar/shanelle-staxx-2019-09-19-miss-petite-usa-50-pics-59-09-mb/20%Monthly2021-05-16 22:02
http://xxxset.org/pornstar/sarenna-lee-sana-fey-2020-12-10-sexy-legs-feet-60-pics-48-98-mb/20%Monthly2021-05-16 22:01
http://xxxset.org/pornstar/sammie-black-2018-07-07-sammies-island-hideaway-45-pics-71-67-mb/20%Monthly2021-05-16 22:00
http://xxxset.org/pornstar/sammie-black-2018-07-05-on-board-the-1998-boob-cruise-55-pics-71-04-mb/20%Monthly2021-05-16 21:59
http://xxxset.org/pornstar/sammie-black-2018-05-19-one-of-the-biggest-breasts-in-the-united-kingdom-60-pics-65-10-mb/20%Monthly2021-05-16 21:58
http://xxxset.org/pornstar/sammie-black-2018-04-28-from-an-office-job-to-international-stardom-70-pics-87-86-mb/20%Monthly2021-05-16 21:57
http://xxxset.org/pornstar/sammie-black-2018-04-26-no-bra-can-hold-sammies-mountains-100-pics-97-36-mb/20%Monthly2021-05-16 21:56
http://xxxset.org/pornstar/sammie-black-2018-03-17-centerfold-in-pictures-70-pics-78-37-mb/20%Monthly2021-05-16 21:55
http://xxxset.org/pornstar/rocki-roads-2020-03-14-busty-bath-75-pics-66-79-mb/20%Monthly2021-05-16 21:54
http://xxxset.org/pornstar/rocki-roads-2019-10-24-rocki-roads-melts-the-ice-80-pics-83-94-mb/20%Monthly2021-05-16 21:53
http://xxxset.org/pornstar/rhonda-baxter-2020-05-30-one-of-the-20-greatest-naturals-of-the-1990s-70-pics-53-63-mb/20%Monthly2021-05-16 21:52
http://xxxset.org/pornstar/rhonda-baxter-2019-11-07-poolside-with-the-peaches-cream-girl-rhonda-75-pics-75-57-mb/20%Monthly2021-05-16 21:51
http://xxxset.org/pornstar/rhonda-baxter-2019-09-14-horny-homemaker-rhonda-her-vacuum-cleaner-55-pics-50-23-mb/20%Monthly2021-05-16 21:50
http://xxxset.org/pornstar/rhonda-baxter-2019-09-12-the-happy-girl-next-door-75-pics-123-98-mb/20%Monthly2021-05-16 21:49
http://xxxset.org/pornstar/rebecca-winters-2020-05-07-winters-heat-55-pics-96-77-mb/20%Monthly2021-05-16 21:47
http://xxxset.org/pornstar/rachel-rockets-2019-01-05-wrestling-diva-80-pics-80-41-mb/20%Monthly2021-05-16 21:46
http://xxxset.org/pornstar/rachel-rockets-2019-01-03-rocketts-boob-glare-84-pics-82-09-mb/20%Monthly2021-05-16 21:45
http://xxxset.org/pornstar/pandora-peaks-2017-09-02-star-spangled-beauty-50-pics-12-17-mb/20%Monthly2021-05-16 21:44
http://xxxset.org/pornstar/ona-2020-06-13-an-au-pair-with-a-beautiful-pair-of-tits-48-pics-73-43-mb/20%Monthly2021-05-16 21:43
http://xxxset.org/pornstar/ona-2020-06-11-cleavage-concerto-60-pics-90-76-mb/20%Monthly2021-05-16 21:42
http://xxxset.org/pornstar/ona-2019-12-05-ona-from-berlin-50-pics-63-37-mb/20%Monthly2021-05-16 21:41
http://xxxset.org/pornstar/nina-2019-09-21-flexible-fox-60-pics-85-57-mb/20%Monthly2021-05-16 21:40
http://xxxset.org/pornstar/nilli-willis-2020-11-07-nillis-bathing-boobs-50-pics-75-25-mb/20%Monthly2021-05-16 21:39
http://xxxset.org/pornstar/nilli-willis-2016-12-02-exotica-erotica-60-pics-91-44-mb/20%Monthly2021-05-16 21:38
http://xxxset.org/pornstar/niki-knockers-2019-08-15-niki-knockers-tan-lined-tits-60-pics-87-50-mb/20%Monthly2021-05-16 21:37
http://xxxset.org/pornstar/niki-knockers-sarenna-lee-2019-08-17-beauties-with-big-tits-55-pics-59-41-mb/20%Monthly2021-05-16 21:36
http://xxxset.org/pornstar/nicole-tyler-2019-11-14-balancing-act-65-pics-105-75-mb/20%Monthly2021-05-16 21:35
http://xxxset.org/pornstar/nicole-tyler-2019-10-05-slinky-limbo-contest-winner-55-pics-78-87-mb/20%Monthly2021-05-16 21:34
http://xxxset.org/pornstar/nicole-tyler-2019-10-03-sleek-and-stacked-55-pics-88-08-mb/20%Monthly2021-05-16 21:33
http://xxxset.org/pornstar/monique-2020-02-20-pregnant-pretty-60-pics-77-39-mb/20%Monthly2021-05-16 21:32
http://xxxset.org/pornstar/michelle-willings-2021-01-23-black-stockings-girl-65-pics-111-02-mb/20%Monthly2021-05-16 21:31
http://xxxset.org/pornstar/michelle-2019-11-23-stocking-stunner-michelle-80-pics-77-95-mb/20%Monthly2021-05-16 21:29
http://xxxset.org/pornstar/michaela-2020-06-20-a-young-german-girl-in-london-55-pics-71-34-mb/20%Monthly2021-05-16 21:28
http://xxxset.org/pornstar/michaela-2020-06-18-busty-bather-michaela-60-pics-89-37-mb/20%Monthly2021-05-16 21:27
http://xxxset.org/pornstar/lynden-johnson-2017-09-21-big-busted-proud-40-pics-59-71-mb/20%Monthly2021-05-16 21:26
http://xxxset.org/pornstar/lulu-devine-2019-03-16-motorcycle-mama-55-pics-77-80-mb/20%Monthly2021-05-16 21:25
http://xxxset.org/pornstar/lulu-devine-2018-12-29-the-fantasy-tits-of-a-superbusty-stripper-79-pics-130-91-mb/20%Monthly2021-05-16 21:24
http://xxxset.org/pornstar/lulu-devine-2018-12-27-massive-mammary-mama-85-pics-116-81-mb/20%Monthly2021-05-16 21:23
http://xxxset.org/pornstar/lulu-devine-2017-04-09-shes-a-lulu-40-pics-51-80-mb/20%Monthly2021-05-16 21:22
http://xxxset.org/pornstar/lucia-2020-07-25-university-student-and-waitress-55-pics-52-59-mb/20%Monthly2021-05-16 21:21
http://xxxset.org/pornstar/lucia-2020-05-02-deer-in-the-headlights-55-pics-66-70-mb/20%Monthly2021-05-16 21:20
http://xxxset.org/pornstar/louise-montgomery-2020-10-03-girlfriend-material-100-pics-151-44-mb/20%Monthly2021-05-16 21:19
http://xxxset.org/pornstar/lisa-phillips-2018-10-13-the-busty-beauty-of-belfast-50-pics-12-95-mb/20%Monthly2021-05-16 21:18
http://xxxset.org/pornstar/lisa-phillips-2016-11-14-the-country-house-54-pics-16-21-mb/20%Monthly2021-05-16 21:17
http://xxxset.org/pornstar/lisa-miller-2019-07-06-the-body-power-of-lisa-miller-55-pics-77-50-mb/20%Monthly2021-05-16 21:16
http://xxxset.org/pornstar/lisa-lipps-2020-12-17-fantasy-woman-in-the-flesh-80-pics-100-71-mb/20%Monthly2021-05-16 21:15
http://xxxset.org/pornstar/lisa-lipps-sarenna-lee-2020-08-20-play-time-with-lisa-lipps-and-sarenna-lee-65-pics-77/20%Monthly2021-05-16 21:14
http://xxxset.org/pornstar/lisa-chest-2020-12-12-truth-in-advertising-74-pics-130-60-mb/20%Monthly2021-05-16 21:12
http://xxxset.org/pornstar/linda-2020-06-27-the-girl-in-black-stockings-65-pics-75-55-mb/20%Monthly2021-05-16 21:11
http://xxxset.org/pornstar/linda-2020-06-25-the-nurse-next-door-50-pics-68-64-mb/20%Monthly2021-05-16 21:10
http://xxxset.org/pornstar/lili-xene-2020-02-29-from-nurse-to-bust-star-70-pics-60-87-mb/20%Monthly2021-05-16 21:09
http://xxxset.org/pornstar/lili-xene-2019-03-09-the-xene-connection-60-pics-61-11-mb/20%Monthly2021-05-16 21:08
http://xxxset.org/pornstar/lili-xene-casey-james-2021-01-02-four-of-the-biggest-boobs-in-the-world-55-pics-56-93-mb/20%Monthly2021-05-16 21:07
http://xxxset.org/pornstar/lacey-pleasure-2020-11-14-personal-trainer-60-pics-83-10-mb/20%Monthly2021-05-16 21:06
http://xxxset.org/pornstar/la-bust-2020-12-26-busting-in-the-great-outdoors-with-la-bust-60-pics-77-09-mb/20%Monthly2021-05-16 21:05
http://xxxset.org/pornstar/la-bust-2019-10-10-california-girl-85-pics-105-07-mb/20%Monthly2021-05-16 21:04
http://xxxset.org/pornstar/la-bust-2018-11-15-sexy-swimsuit-time-60-pics-54-78-mb/20%Monthly2021-05-16 21:03
http://xxxset.org/pornstar/kerry-marie-linsey-dawn-mckenzie-2019-08-03-bras-panties-outdoors-65-pics-62-23-mb/20%Monthly2021-05-16 21:02
http://xxxset.org/pornstar/kayla-kleevage-2020-10-31-bra-busting-star-of-stage-video-web-80-pics-89-53-mb/20%Monthly2021-05-16 21:01
http://xxxset.org/pornstar/kayla-kleevage-2020-10-29-superstar-of-kleevage-60-pics-57-31-mb/20%Monthly2021-05-16 21:00
http://xxxset.org/pornstar/katie-2020-01-11-buttoned-down-bra-buster-100-pics-146-07-mb/20%Monthly2021-05-16 20:59
http://xxxset.org/pornstar/katie-2020-01-09-best-of-britain-50-pics-74-73-mb/20%Monthly2021-05-16 20:58
http://xxxset.org/pornstar/katie-monique-2020-02-22-50-pics-79-84-mb/20%Monthly2021-05-16 20:57
http://xxxset.org/pornstar/kathryn-gable-2020-01-23-titillating-teen-65-pics-94-32-mb/20%Monthly2021-05-16 20:56
http://xxxset.org/pornstar/kathryn-gable-2019-05-18-putting-the-great-in-great-britain-51-pics-74-72-mb/20%Monthly2021-05-16 20:54
http://xxxset.org/pornstar/katherine-2020-08-15-danish-dish-50-pics-73-88-mb/20%Monthly2021-05-16 20:53
http://xxxset.org/pornstar/karen-tyler-nicole-tyler-2019-11-16-tyler-2-tyler-55-pics-75-04-mb/20%Monthly2021-05-16 20:52
http://xxxset.org/pornstar/julia-miles-2017-01-23-sweater-ripping-julia-miles-69-pics-53-91-mb/20%Monthly2021-05-16 20:51
http://xxxset.org/pornstar/jerrica-fox-2020-07-16-jerica-fox-was-a-porcelain-doll-70-pics-111-95-mb/20%Monthly2021-05-16 20:50
http://xxxset.org/pornstar/jenny-2019-08-24-super-natural-wonder-of-the-world-jenny-50-pics-62-23-mb/20%Monthly2021-05-16 20:49
http://xxxset.org/pornstar/jenny-2019-08-22-jenny-works-out-that-body-50-pics-72-82-mb/20%Monthly2021-05-16 20:48
http://xxxset.org/pornstar/jeannine-oldfield-2020-07-18-jeannines-lounge-act-80-pics-111-94-mb/20%Monthly2021-05-16 20:47
http://xxxset.org/pornstar/jeannine-oldfield-2019-12-19-jeannine-oldfield-pools-her-assets-93-pics-144-36-mb/20%Monthly2021-05-16 20:46
http://xxxset.org/pornstar/jeannine-oldfield-2019-10-19-jeannine-oldfield-and-the-cadillac-65-pics-68-64-mb/20%Monthly2021-05-16 20:45
http://xxxset.org/pornstar/jeannine-oldfield-2019-10-17-flower-child-jeannine-oldfield-85-pics-103-08-mb/20%Monthly2021-05-16 20:44
http://xxxset.org/pornstar/jeannine-oldfield-2019-06-06-busty-brits-of-yore-75-pics-75-90-mb/20%Monthly2021-05-16 20:43
http://xxxset.org/pornstar/jeannine-oldfield-2017-09-09-punk-rock-jeannine-65-pics-87-20-mb/20%Monthly2021-05-16 20:42
http://xxxset.org/pornstar/jay-sweet-kimberly-kupps-2020-05-14-boob-cruise-2-58-pics-86-10-mb/20%Monthly2021-05-16 20:41
http://xxxset.org/pornstar/jay-milo-2020-03-07-stacked-sexbomb-60-pics-96-83-mb/20%Monthly2021-05-16 20:40
http://xxxset.org/pornstar/jay-milo-2020-03-05-busty-slim-blonde-stripper-porn-star-60-pics-86-15-mb/20%Monthly2021-05-16 20:39
http://xxxset.org/pornstar/jacqueline-west-2019-12-07-tiny-dancer-big-tits-70-pics-96-69-mb/20%Monthly2021-05-16 20:38
http://xxxset.org/pornstar/ingrid-2021-01-14-young-ingrid-had-the-magic-70-pics-100-19-mb/20%Monthly2021-05-16 20:36
http://xxxset.org/pornstar/ingrid-2020-04-11-salute-to-a-buxom-british-beauty-50-pics-63-83-mb/20%Monthly2021-05-16 20:35
http://xxxset.org/pornstar/ingrid-2020-04-09-big-peaches-creamy-skin-50-pics-74-43-mb/20%Monthly2021-05-16 20:34
http://xxxset.org/pornstar/ingrid-2019-06-01-ingrid-1991-85-pics-111-27-mb/20%Monthly2021-05-16 20:33
http://xxxset.org/pornstar/honey-moons-2017-07-20-the-wet-big-tits-of-honey-moons-classic-60-pics-76-73-mb/20%Monthly2021-05-16 20:32
http://xxxset.org/pornstar/honey-hills-2020-12-24-miss-hot-legs-50-pics-72-65-mb/20%Monthly2021-05-16 20:31
http://xxxset.org/pornstar/heidi-hooters-2018-11-10-heidi-her-huge-hooters-75-pics-92-25-mb/20%Monthly2021-05-16 20:30
http://xxxset.org/pornstar/heidi-hooters-2016-12-18-the-total-package-50-pics-72-97-mb/20%Monthly2021-05-16 20:29
http://xxxset.org/pornstar/heidi-hooters-trinity-loren-2020-01-04-heidi-hooters-trinity-loren-65-pics-91-79-mb/20%Monthly2021-05-16 20:28
http://xxxset.org/pornstar/heather-hooters-2019-11-02-big-tits-white-top-plaid-skirt-high-heels-70-pics-72-13-mb/20%Monthly2021-05-16 20:27
http://xxxset.org/pornstar/heather-hooters-2019-10-31-damsel-in-distress-in-the-dungeon-60-pics-70-64-mb/20%Monthly2021-05-16 20:26
http://xxxset.org/pornstar/harley-raine-2020-10-24-boobs-bubbles-65-pics-86-31-mb/20%Monthly2021-05-16 20:25
http://xxxset.org/pornstar/hannah-callow-2020-09-05-stacked-saucy-90-pics-102-75-mb/20%Monthly2021-05-16 20:24
http://xxxset.org/pornstar/ginger-2020-09-10-a-blonde-named-ginger-85-pics-92-43-mb/20%Monthly2021-05-16 20:23
http://xxxset.org/pornstar/gabi-2020-05-23-come-blow-the-horn-75-pics-131-23-mb/20%Monthly2021-05-16 20:22
http://xxxset.org/pornstar/erica-everest-2020-10-10-busting-into-the-bahamas-50-pics-85-71-mb/20%Monthly2021-05-16 20:21
http://xxxset.org/pornstar/erica-everest-2019-10-26-the-secretary-with-big-tits-65-pics-81-05-mb/20%Monthly2021-05-16 20:19
http://xxxset.org/pornstar/erica-everest-sarenna-lee-2020-10-08-lingerie-lovers-60-pics-49-66-mb/20%Monthly2021-05-16 20:18
http://xxxset.org/pornstar/elaine-2019-09-28-in-out-british-totty-75-pics-98-37-mb/20%Monthly2021-05-16 20:17
http://xxxset.org/pornstar/eden-2020-01-16-a-girl-called-eden-50-pics-71-16-mb/20%Monthly2021-05-16 20:16
http://xxxset.org/pornstar/dawn-phoenix-2021-01-09-teenage-tit-dream-90-pics-132-97-mb/20%Monthly2021-05-16 20:15
http://xxxset.org/pornstar/dawn-phoenix-2021-01-07-the-18th-birthday-party-pictures-100-pics-135-18-mb/20%Monthly2021-05-16 20:14
http://xxxset.org/pornstar/dawn-phoenix-2020-11-21-the-other-dawn-80-pics-125-81-mb/20%Monthly2021-05-16 20:13
http://xxxset.org/pornstar/dawn-phoenix-2020-09-12-big-lips-and-a-full-bush-75-pics-101-84-mb/20%Monthly2021-05-16 20:12
http://xxxset.org/pornstar/davia-ardell-2020-03-12-stacked-in-the-stacks-60-pics-70-47-mb/20%Monthly2021-05-16 20:11
http://xxxset.org/pornstar/crystal-storm-2020-01-02-dominatrix-stripper-69-pics-106-23-mb/20%Monthly2021-05-16 20:10
http://xxxset.org/pornstar/courtney-winston-2020-04-25-one-shot-wonder-65-pics-74-86-mb/20%Monthly2021-05-16 20:09
http://xxxset.org/pornstar/corinna-2020-09-17-thickalicious-eye-candy-55-pics-85-98-mb/20%Monthly2021-05-16 20:08
http://xxxset.org/pornstar/corinna-peaches-2020-09-19-%d1%82he-peachy-pair-of-corinna-peaches-65-pics-91-33-mb/20%Monthly2021-05-16 20:07
http://xxxset.org/pornstar/colt-45-2020-12-19-her-body-was-a-weapon-85-pics-80-79-mb/20%Monthly2021-05-16 20:06
http://xxxset.org/pornstar/colt-45-2020-02-15-colt-45s-big-guns-60-pics-81-57-mb/20%Monthly2021-05-16 20:05
http://xxxset.org/pornstar/colt-45-2020-02-13-corpus-delicious-from-corpus-christi-60-pics-67-82-mb/20%Monthly2021-05-16 20:04
http://xxxset.org/pornstar/cindy-lee-2020-04-04-perky-one-timer-65-pics-78-07-mb/20%Monthly2021-05-16 20:03
http://xxxset.org/pornstar/chloe-vevrier-jay-sweet-2021-01-21-lesbian-fire-90-pics-126-43-mb/20%Monthly2021-05-16 20:01
http://xxxset.org/pornstar/chloe-vevrier-danni-ashe-2020-07-11-the-perfect-pair-118-pics-173-29-mb/20%Monthly2021-05-16 20:00
http://xxxset.org/pornstar/chaz-2016-09-25-busty-bronze-chaz-45-pics-45-63-mb/20%Monthly2021-05-16 19:59
http://xxxset.org/pornstar/chaz-hannah-callow-2020-12-03-very-bosomy-buddies-68-pics-68-75-mb/20%Monthly2021-05-16 19:58
http://xxxset.org/pornstar/casey-james-2016-09-07-the-blazing-twin-cannons-of-casey-james-40-pics-37-68-mb/20%Monthly2021-05-16 19:57
http://xxxset.org/pornstar/carol-brown-2019-09-26-voluptuous-model-of-the-year-1998-55-pics-57-96-mb/20%Monthly2021-05-16 19:56
http://xxxset.org/pornstar/candy-cantaloupes-2021-01-16-when-super-busty-dancers-ruled-the-earth-55-pics-77-89-mb/20%Monthly2021-05-16 19:55
http://xxxset.org/pornstar/candy-cantaloupes-2019-04-06-sweet-as-candy-90-pics-128-19-mb/20%Monthly2021-05-16 19:54
http://xxxset.org/pornstar/candy-cantaloupes-2016-08-20-a-girl-named-candy-50-pics-73-16-mb/20%Monthly2021-05-16 19:53
http://xxxset.org/pornstar/candy-can-can-2020-05-21-a-taste-of-canadian-candy-60-pics-82-93-mb/20%Monthly2021-05-16 19:52
http://xxxset.org/pornstar/busty-brianna-2021-01-28-short-super-busty-70-pics-90-23-mb/20%Monthly2021-05-16 19:51
http://xxxset.org/pornstar/brittany-andrews-2020-05-28-a-porn-magnate-for-all-seasons-65-pics-89-09-mb/20%Monthly2021-05-16 19:50
http://xxxset.org/pornstar/brandy-boom-boom-2020-02-06-boom-boom-in-the-room-55-pics-72-66-mb/20%Monthly2021-05-16 19:49
http://xxxset.org/pornstar/brandi-2020-07-04-brandi-the-amazon-75-pics-85-32-mb/20%Monthly2021-05-16 19:48
http://xxxset.org/pornstar/brandi-2020-07-02-a-georgia-woman-and-her-big-peaches-65-pics-99-25-mb/20%Monthly2021-05-16 19:47
http://xxxset.org/pornstar/bonnie-banks-2019-09-05-bonnie-banks-gets-her-boobs-out-in-the-bahamas-75-pics-119-17-mb/20%Monthly2021-05-16 19:46
http://xxxset.org/pornstar/beverlee-hills-2020-01-04-strippers-rights-advocate-30-pics-37-60-mb/20%Monthly2021-05-16 19:45
http://xxxset.org/pornstar/bethany-bustin-2020-08-01-soaps-on-with-bethany-bustin-60-pics-86-04-mb/20%Monthly2021-05-16 19:43
http://xxxset.org/pornstar/bethany-bustin-2019-01-26-bustin-out-59-pics-81-19-mb/20%Monthly2021-05-16 19:42
http://xxxset.org/pornstar/bethany-bustin-2018-11-29-skin-diver-55-pics-70-34-mb/20%Monthly2021-05-16 19:41
http://xxxset.org/pornstar/belinda-2020-11-26-hair-today-gone-tomorrow-49-pics-55-69-mb/20%Monthly2021-05-16 19:40
http://xxxset.org/pornstar/autumn-jade-2020-07-09-the-girl-from-alabama-73-pics-92-22-mb/20%Monthly2021-05-16 19:39
http://xxxset.org/pornstar/angelique-2020-10-17-queen-of-the-tropics-55-pics-48-79-mb/20%Monthly2021-05-16 19:38
http://xxxset.org/pornstar/angelique-2020-10-15-the-brazilian-bombshell-50-pics-69-98-mb/20%Monthly2021-05-16 19:37
http://xxxset.org/pornstar/angel-2020-05-16-an-angelic-girl-60-pics-91-30-mb/20%Monthly2021-05-16 19:36
http://xxxset.org/pornstar/alice-2020-10-01-pouty-face-alice-85-pics-133-96-mb/20%Monthly2021-05-16 19:35
http://xxxset.org/pornstar/alexis-love-2020-12-05-lady-love-65-pics-110-64-mb/20%Monthly2021-05-16 19:34
http://xxxset.org/pornstar/adele-stephens-2019-03-21-yorkshire-girl-makes-good-50-pics-62-24-mb/20%Monthly2021-05-16 19:33
http://xxxset.org/milf/auntjudys-2021-05-16-badmitton-day-with-linda-138-pics-600-14-mb/20%Monthly2021-05-16 09:29
http://xxxset.org/teen/sexart-2021-05-16-when-the-night-ends-jenny-doll-angelo-godshack-106-pics-240-67-mb/20%Monthly2021-05-16 09:28
http://xxxset.org/fetish/nylon-sue-1099-122-pics-262-32-mb/20%Monthly2021-05-16 08:56
http://xxxset.org/fetish/nylon-sue-1098-104-pics-265-32-mb/20%Monthly2021-05-16 08:55
http://xxxset.org/fetish/nylon-sue-1097-124-pics-408-65-mb/20%Monthly2021-05-16 08:54
http://xxxset.org/fetish/nylon-sue-1096-141-pics-339-24-mb/20%Monthly2021-05-16 08:53
http://xxxset.org/fetish/nylon-sue-1095-121-pics-372-34-mb/20%Monthly2021-05-16 08:52
http://xxxset.org/fetish/nylon-sue-1094-117-pics-441-73-mb/20%Monthly2021-05-16 08:51
http://xxxset.org/fetish/nylon-sue-1093-110-pics-294-02-mb/20%Monthly2021-05-16 08:50
http://xxxset.org/fetish/nylon-sue-1092-149-pics-423-17-mb/20%Monthly2021-05-16 08:49
http://xxxset.org/fetish/nylon-sue-1091-152-pics-391-51-mb/20%Monthly2021-05-16 08:48
http://xxxset.org/fetish/nylon-sue-1090-107-pics-328-27-mb/20%Monthly2021-05-16 08:46
http://xxxset.org/fetish/nylon-sue-1089-121-pics-318-21-mb/20%Monthly2021-05-16 08:45
http://xxxset.org/fetish/nylon-sue-1088-125-pics-360-81-mb/20%Monthly2021-05-16 08:44
http://xxxset.org/fetish/nylon-sue-1087-129-pics-325-82-mb/20%Monthly2021-05-16 08:43
http://xxxset.org/fetish/nylon-sue-1086-135-pics-384-37-mb/20%Monthly2021-05-16 08:42
http://xxxset.org/fetish/nylon-sue-1085-137-pics-343-94-mb/20%Monthly2021-05-16 08:41
http://xxxset.org/fetish/nylon-sue-1084-107-pics-338-42-mb/20%Monthly2021-05-16 08:40
http://xxxset.org/fetish/nylon-sue-1083-133-pics-351-74-mb/20%Monthly2021-05-16 08:39
http://xxxset.org/fetish/nylon-sue-1082-174-pics-414-06-mb/20%Monthly2021-05-16 08:38
http://xxxset.org/fetish/nylon-sue-1081-122-pics-274-53-mb/20%Monthly2021-05-16 08:37
http://xxxset.org/fetish/nylon-sue-1080-106-pics-268-80-mb/20%Monthly2021-05-16 08:36
http://xxxset.org/fetish/nylon-sue-1079-142-pics-345-99-mb/20%Monthly2021-05-16 08:35
http://xxxset.org/fetish/nylon-sue-1078-112-pics-355-99-mb/20%Monthly2021-05-16 08:34
http://xxxset.org/fetish/nylon-sue-1077-103-pics-285-94-mb/20%Monthly2021-05-16 08:33
http://xxxset.org/fetish/nylon-sue-1076-130-pics-366-53-mb/20%Monthly2021-05-16 08:32
http://xxxset.org/fetish/nylon-sue-1075-121-pics-267-86-mb/20%Monthly2021-05-16 08:31
http://xxxset.org/fetish/nylon-sue-1074-117-pics-280-48-mb/20%Monthly2021-05-16 08:29
http://xxxset.org/fetish/nylon-sue-1073-113-pics-277-66-mb/20%Monthly2021-05-16 08:28
http://xxxset.org/fetish/satin-jayde-sjv415-14-may-1-29-gb-fullhd/20%Monthly2021-05-15 21:15
http://xxxset.org/fetish/satin-jayde-sjv414-30-april-1-42-gb-fullhd/20%Monthly2021-05-15 21:14
http://xxxset.org/fetish/satin-jayde-sjv413-23-april-1-17-gb-fullhd/20%Monthly2021-05-15 21:13
http://xxxset.org/fetish/satin-jayde-sjv412-16-april-1-50-gb-fullhd/20%Monthly2021-05-15 21:11
http://xxxset.org/fetish/satin-jayde-sj509-7-may-122-pics-44-59-mb/20%Monthly2021-05-15 21:10
http://xxxset.org/milf/anilos-2021-05-15-eva-may-more-to-give-43-pics-102-04-mb/20%Monthly2021-05-15 08:54
http://xxxset.org/milf/auntjudys-2021-05-15-lovely-55yo-uk-amateur-cindy-makes-her-stunning-aj-debut-129-pics-55/20%Monthly2021-05-15 08:53
http://xxxset.org/milf/allover30-2021-05-15-liza-shay-ladies-in-action-174-pics-450-75-mb/20%Monthly2021-05-15 08:52
http://xxxset.org/milf/allover30-2021-05-15-cheyenne-jewel-mature-housewives-155-pics-280-02-mb/20%Monthly2021-05-15 08:51
http://xxxset.org/teen/sexart-2021-05-15-the-stair-sapphira-a-177-pics-304-51-mb/20%Monthly2021-05-15 08:50
http://xxxset.org/milf/thelifeerotic-2021-05-14-alyssa-reece-fuck-machine-118-pics-925-76-mb/20%Monthly2021-05-14 09:40
http://xxxset.org/milf/allover30-2021-05-14-tanita-elegant-ladies-178-pics-365-82-mb/20%Monthly2021-05-14 09:39
http://xxxset.org/milf/allover30-2021-05-14-nika-dupre-mature-housewives-146-pics-260-57-mb/20%Monthly2021-05-14 09:38
http://xxxset.org/milf/allover30-2021-05-14-melanie-hicks-ladies-in-action-244-pics-399-75-mb/20%Monthly2021-05-14 09:37
http://xxxset.org/teen/sexart-2021-05-14-stay-together-part-1-katarina-rina-lilly-bella-107-pics-423-10-mb/20%Monthly2021-05-14 09:36
http://xxxset.org/milf/anilos-2021-05-13-eva-may-lady-in-red-67-pics-160-67-mb/20%Monthly2021-05-13 08:32
http://xxxset.org/milf/auntjudys-2021-05-13-yulenka-upskirt-and-stockings-190-pics-1-41-gb/20%Monthly2021-05-13 08:31
http://xxxset.org/milf/allover30-2021-05-13-serene-siren-ladies-with-toys-179-pics-292-02-mb/20%Monthly2021-05-13 08:30
http://xxxset.org/milf/allover30-2021-05-13-gianna-chanel-ladies-with-toys-134-pics-350-27-mb/20%Monthly2021-05-13 08:29
http://xxxset.org/teen/sexart-2021-05-13-power-of-pink-bjorg-larson-83-pics-127-61-mb/20%Monthly2021-05-13 08:28
http://xxxset.org/milf/allover30-2021-05-12-nancy-acty-lacey-ladies-152-pics-342-56-mb/20%Monthly2021-05-12 14:15
http://xxxset.org/milf/allover30-2021-05-12-galas-looner-exotic-ladies-149-pics-413-58-mb/20%Monthly2021-05-12 14:14
http://xxxset.org/teen/sexart-2021-05-12-club-part-3-anie-darling-nick-ross-116-pics-298-05-mb/20%Monthly2021-05-12 14:13
http://xxxset.org/fetish/amanda-wetting-my-stockings-1080p-144-mb-fullhd/20%Monthly2021-05-11 21:11
http://xxxset.org/fetish/amanda-the-walk-1080p-272-mb-fullhd/20%Monthly2021-05-11 21:10
http://xxxset.org/fetish/amanda-the-car-1080p-151-mb-fullhd/20%Monthly2021-05-11 21:09
http://xxxset.org/fetish/amanda-summer-pt1-1080p-159-mb-fullhd/20%Monthly2021-05-11 21:07
http://xxxset.org/fetish/amanda-street-pt1-1080p-356-mb-fullhd/20%Monthly2021-05-11 21:06
http://xxxset.org/fetish/amanda-street-2-1080p-375-mb-fullhd/20%Monthly2021-05-11 21:05
http://xxxset.org/fetish/amanda-stairways-pt1-1080p-57-1-mb-fullhd/20%Monthly2021-05-11 21:04
http://xxxset.org/fetish/amanda-squirty-480p-35-1-mb-sd/20%Monthly2021-05-11 21:03
http://xxxset.org/fetish/amanda-squirting-like-hell-1080p-43-4-mb-fullhd/20%Monthly2021-05-11 21:02
http://xxxset.org/fetish/amanda-slimy-mature-lady-1080p-126-mb-fullhd/20%Monthly2021-05-11 21:01
http://xxxset.org/fetish/amanda-shaving-1080p-189-mb-fullhd/20%Monthly2021-05-11 21:00
http://xxxset.org/fetish/amanda-shaving-pt-2-1080p-199-mb-fullhd/20%Monthly2021-05-11 20:59
http://xxxset.org/fetish/amanda-sexy-feet-720p-88-7-mb-hd/20%Monthly2021-05-11 20:58
http://xxxset.org/fetish/amanda-sexy-amanda-1080p-175-mb-fullhd/20%Monthly2021-05-11 20:57
http://xxxset.org/fetish/amanda-pretty-legs-of-mature-amanda-1080p-307-mb-fullhd/20%Monthly2021-05-11 20:56
http://xxxset.org/fetish/amanda-parkingplace-1080p-115-mb-fullhd/20%Monthly2021-05-11 20:55
http://xxxset.org/fetish/amanda-park-bench-1080p-164-mb-fullhd/20%Monthly2021-05-11 20:54
http://xxxset.org/fetish/amanda-nasty-amanda-1080p-268-mb-fullhd/20%Monthly2021-05-11 20:53
http://xxxset.org/fetish/amanda-mature-amanda-hard-pissing-and-squirting-1080p-222-mb-fullhd/20%Monthly2021-05-11 20:52
http://xxxset.org/fetish/amanda-leggy-pt-1-1080p-287-mb-fullhd/20%Monthly2021-05-11 20:50
http://xxxset.org/fetish/amanda-leggy-mature-1080p-409-mb-fullhd/20%Monthly2021-05-11 20:49
http://xxxset.org/fetish/amanda-leggy-mature-pt-2-1080p-462-mb-fullhd/20%Monthly2021-05-11 20:48
http://xxxset.org/fetish/amanda-lady-amanda-1080p-337-mb-fullhd/20%Monthly2021-05-11 20:47
http://xxxset.org/fetish/amanda-intro-1080p-46-2-mb-fullhd/20%Monthly2021-05-11 20:46
http://xxxset.org/fetish/amanda-in-the-wood-1080p-231-mb-fullhd/20%Monthly2021-05-11 20:45
http://xxxset.org/fetish/amanda-hot-slut-in-nylons-1080p-340-mb-fullhd/20%Monthly2021-05-11 20:44
http://xxxset.org/fetish/amanda-hot-shower-1080p-202-mb-fullhd/20%Monthly2021-05-11 20:43
http://xxxset.org/fetish/amanda-hot-shower-pt-2-1080p-248-mb-fullhd/20%Monthly2021-05-11 20:42
http://xxxset.org/fetish/amanda-horny-pissing-1080p-180-mb-fullhd/20%Monthly2021-05-11 20:41
http://xxxset.org/fetish/amanda-horny-in-the-bathroom-1080p-266-mb-fullhd/20%Monthly2021-05-11 20:40
http://xxxset.org/fetish/amanda-fountain-of-pee-1080p-167-mb-fullhd/20%Monthly2021-05-11 20:39
http://xxxset.org/fetish/amanda-elegant-feet-720p-106-mb-hd/20%Monthly2021-05-11 20:38
http://xxxset.org/fetish/amanda-dirty-pissing-1080p-235-mb-fullhd/20%Monthly2021-05-11 20:37
http://xxxset.org/fetish/amanda-dildoing-in-pantyhose-1080p-171-mb-fullhd/20%Monthly2021-05-11 20:36
http://xxxset.org/fetish/amanda-dildoing-in-pantyhose-pt2-1080p-222-mb-fullhd/20%Monthly2021-05-11 20:35
http://xxxset.org/fetish/amanda-cum-over-me-1080p-131-mb-fullhd/20%Monthly2021-05-11 20:33
http://xxxset.org/fetish/amanda-catwalk-1080p-218-mb-fullhd/20%Monthly2021-05-11 20:32
http://xxxset.org/fetish/amanda-castle-1080p-163-mb-fullhd/20%Monthly2021-05-11 20:31
http://xxxset.org/fetish/amanda-0033-1080p-213-mb-fullhd/20%Monthly2021-05-11 20:30
http://xxxset.org/fetish/amanda-0031-1080p-209-mb-fullhd/20%Monthly2021-05-11 20:29
http://xxxset.org/fetish/amanda-0030-1080p-333-mb-fullhd/20%Monthly2021-05-11 20:28
http://xxxset.org/fetish/amanda-0029-1080p-164-mb-fullhd/20%Monthly2021-05-11 20:27
http://xxxset.org/fetish/amanda-0027-1080p-119-mb-fullhd/20%Monthly2021-05-11 20:26
http://xxxset.org/fetish/amanda-0020-1080p-117-mb-fullhd/20%Monthly2021-05-11 20:25
http://xxxset.org/milf/auntjudys-2021-05-11-nel-silk-robe-and-lingerie-strip-and-play-148-pics-519-86-mb/20%Monthly2021-05-11 09:19
http://xxxset.org/milf/anilos-2021-05-11-eva-may-down-to-business-39-pics-78-64-mb/20%Monthly2021-05-11 09:18
http://xxxset.org/milf/allover30-2021-05-11-tiny-tina-lacey-ladies-145-pics-245-94-mb/20%Monthly2021-05-11 09:17
http://xxxset.org/milf/allover30-2021-05-11-quinn-waters-mature-pleasure-156-pics-302-34-mb/20%Monthly2021-05-11 09:15
http://xxxset.org/milf/allover30-2021-05-11-liza-shay-mature-housewives-143-pics-483-74-mb/20%Monthly2021-05-11 09:14
http://xxxset.org/teen/sexart-2021-05-11-fishnet-isabela-de-laa-121-pics-176-07-mb/20%Monthly2021-05-11 09:13
http://xxxset.org/fetish/vanessa-bush-white-mirror-black-lingerie-111-pics-114-11-mb/20%Monthly2021-05-10 22:34
http://xxxset.org/fetish/vanessa-bush-santa-uniform-white-top-126-pics-132-58-mb/20%Monthly2021-05-10 22:33
http://xxxset.org/fetish/vanessa-bush-red-top-red-pj-119-pics-125-48-mb/20%Monthly2021-05-10 22:32
http://xxxset.org/fetish/vanessa-bush-purple-top-grey-shorts-119-pics-118-80-mb/20%Monthly2021-05-10 22:31
http://xxxset.org/fetish/vanessa-bush-purple-top-black-skirt-120-pics-144-71-mb/20%Monthly2021-05-10 22:30
http://xxxset.org/fetish/vanessa-bush-purple-robe-blue-bed-134-pics-151-mb/20%Monthly2021-05-10 22:29
http://xxxset.org/fetish/vanessa-bush-plaid-skirt-red-blouse-109-pics-122-42-mb/20%Monthly2021-05-10 22:28
http://xxxset.org/fetish/vanessa-bush-pink-blouse-denim-shorts-122-pics-166-55-mb/20%Monthly2021-05-10 22:27
http://xxxset.org/fetish/vanessa-bush-pink-bench-black-dress-113-pics-87-15-mb/20%Monthly2021-05-10 22:26
http://xxxset.org/fetish/vanessa-bush-green-apron-pink-panty-126-pics-146-28-mb/20%Monthly2021-05-10 22:25
http://xxxset.org/fetish/vanessa-bush-blue-top-denim-shorts-130-pics-213-27-mb/20%Monthly2021-05-10 22:24
http://xxxset.org/fetish/vanessa-bush-blue-tights-white-rug-121-pics-132-23-mb/20%Monthly2021-05-10 22:23
http://xxxset.org/fetish/vanessa-bush-blue-shirt-brown-couch-132-pics-158-61-mb/20%Monthly2021-05-10 22:22
http://xxxset.org/fetish/vanessa-bush-black-tight-red-ball-127-pics-148-26-mb/20%Monthly2021-05-10 22:21
http://xxxset.org/fetish/vanessa-bush-black-suit-red-robe-116-pics-100-66-mb/20%Monthly2021-05-10 22:19
http://xxxset.org/fetish/alex-swon-yellow-feather-black-maid-106-pics-91-94-mb/20%Monthly2021-05-10 22:18
http://xxxset.org/fetish/alex-swon-white-bra-purple-dress-104-pics-101-77-mb/20%Monthly2021-05-10 22:17
http://xxxset.org/fetish/alex-swon-pink-shirt-white-tights-107-pics-76-18-mb/20%Monthly2021-05-10 22:16
http://xxxset.org/fetish/alex-swon-orange-top-denim-shorts-104-pics-105-64-mb/20%Monthly2021-05-10 22:15
http://xxxset.org/fetish/alex-swon-grey-pants-blue-shirt-101-pics-81-18-mb/20%Monthly2021-05-10 22:14
http://xxxset.org/fetish/alex-swon-green-dress-black-panty-104-pics-84-54-mb/20%Monthly2021-05-10 22:13
http://xxxset.org/fetish/alex-swon-brown-sofa-purple-dress-108-pics-117-64-mb/20%Monthly2021-05-10 22:12
http://xxxset.org/fetish/alex-swon-blue-shorts-pink-top-100-pics-68-83-mb/20%Monthly2021-05-10 22:11
http://xxxset.org/fetish/chloe-morgane-2017-12-19-fun-sensual-blowjob-in-blue-lingerie-34-pics-101-02-mb/20%Monthly2021-05-10 22:10
http://xxxset.org/fetish/chloe-morgane-2017-11-07-redhead-in-blue-43-pics-109-61-mb/20%Monthly2021-05-10 22:09
http://xxxset.org/fetish/chloe-morgane-2017-10-24-happy-redhead-blowjob-31-pics-91-74-mb/20%Monthly2021-05-10 22:08
http://xxxset.org/fetish/chloe-morgane-2017-10-10-in-the-forest-wearing-lingerie-30-pics-91-81-mb/20%Monthly2021-05-10 22:07
http://xxxset.org/fetish/chloe-morgane-2017-08-29-redhead-sensual-blowjob-31-pics-53-17-mb/20%Monthly2021-05-10 22:06
http://xxxset.org/fetish/chloe-morgane-2017-08-15-redhead-in-the-woods-31-pics-67-68-mb/20%Monthly2021-05-10 22:05
http://xxxset.org/fetish/chloe-morgane-2017-08-01-blowjob-and-cleavage-31-pics-54-79-mb/20%Monthly2021-05-10 22:04
http://xxxset.org/fetish/chloe-morgane-2017-07-18-plaid-shirt-30-pics-67-93-mb/20%Monthly2021-05-10 22:03
http://xxxset.org/fetish/chloe-morgane-2017-07-04-sweet-sexy-blowjob-32-pics-64-23-mb/20%Monthly2021-05-10 22:01
http://xxxset.org/fetish/chloe-morgane-2017-06-20-redhead-in-nature-24-pics-41-23-mb/20%Monthly2021-05-10 22:00
http://xxxset.org/fetish/chloe-morgane-2017-05-23-redheads-give-the-best-blowjobs-32-pics-41-48-mb/20%Monthly2021-05-10 21:59
http://xxxset.org/fetish/chloe-morgane-2017-04-25-the-last-of-winter-32-pics-78-98-mb/20%Monthly2021-05-10 21:58
http://xxxset.org/fetish/chloe-morgane-2017-04-11-sensual-blowjob-in-pink-lingerie-30-pics-26-37-mb/20%Monthly2021-05-10 21:57
http://xxxset.org/fetish/chloe-morgane-2017-03-14-sensual-blowjob-in-gorgeous-bustier-36-pics-56-68-mb/20%Monthly2021-05-10 21:56
http://xxxset.org/fetish/chloe-morgane-2017-02-28-this-redhead-loves-winter-25-pics-35-24-mb/20%Monthly2021-05-10 21:55
http://xxxset.org/fetish/chloe-morgane-2017-02-14-valentines-day-blowjob-32-pics-46-70-mb/20%Monthly2021-05-10 21:54
http://xxxset.org/fetish/chloe-morgane-2017-01-24-redhead-on-polka-dot-24-pics-40-39-mb/20%Monthly2021-05-10 21:53
http://xxxset.org/fetish/chloe-morgane-2017-01-17-blowjob-treat-32-pics-60-37-mb/20%Monthly2021-05-10 21:52
http://xxxset.org/fetish/chloe-morgane-2017-01-03-canadian-winter-24-pics-35-41-mb/20%Monthly2021-05-10 21:51
http://xxxset.org/milf/anilos-2021-05-10-lexus-smith-watch-me-cum-68-pics-143-43-mb/20%Monthly2021-05-10 09:27
http://xxxset.org/milf/allover30-2021-05-10-tanita-mature-housewives-176-pics-353-02-mb/20%Monthly2021-05-10 09:26
http://xxxset.org/milf/allover30-2021-05-10-melanie-hicks-ladies-in-action-239-pics-484-35-mb/20%Monthly2021-05-10 09:25
http://xxxset.org/milf/allover30-2021-05-10-kitty-quinn-9-to-5-ladies-137-pics-235-57-mb/20%Monthly2021-05-10 09:24
http://xxxset.org/teen/sexart-2021-05-10-play-with-me-agatha-vega-82-pics-174-80-mb/20%Monthly2021-05-10 09:23
http://xxxset.org/teen/thelifeerotic-2021-05-10-no-restrictions-lina-80-pics-142-13-mb/20%Monthly2021-05-10 09:22
http://xxxset.org/milf/auntjudys-2021-05-09-liana-black-dress-upskirt-and-masturbation-169-pics-651-57-mb/20%Monthly2021-05-09 13:37
http://xxxset.org/teen/sexart-2021-05-09-the-very-last-time-casey-angelo-godshack-116-pics-355-53-mb/20%Monthly2021-05-09 13:36
http://xxxset.org/milf/zoe-marks-toy-lover-1600-124-pics-161-31-mb/20%Monthly2021-05-09 13:35
http://xxxset.org/milf/zara-toy-time-1600-68-pics-67-70-mb/20%Monthly2021-05-09 13:34
http://xxxset.org/milf/zara-hardcore-1600-101-pics-92-82-mb/20%Monthly2021-05-09 13:33
http://xxxset.org/milf/vicky-love-want-more-1600-75-pics-63-76-mb/20%Monthly2021-05-09 13:32
http://xxxset.org/milf/veronica-shaw-watch-me-cum-1600-71-pics-60-29-mb/20%Monthly2021-05-09 13:31
http://xxxset.org/milf/theresa-soza-toy-play-1600-130-pics-121-06-mb/20%Monthly2021-05-09 13:30
http://xxxset.org/milf/tasha-grant-toy-orgasm-1600-91-pics-93-42-mb/20%Monthly2021-05-09 13:29
http://xxxset.org/milf/tanya-foxxx-toys-with-tanya-1600-91-pics-80-42-mb/20%Monthly2021-05-09 13:28
http://xxxset.org/milf/sylvie-white-christmas-1600-106-pics-90-54-mb/20%Monthly2021-05-09 13:27
http://xxxset.org/milf/sylvie-naughty-and-nice-1600-102-pics-106-71-mb/20%Monthly2021-05-09 13:25
http://xxxset.org/milf/sylvie-happy-holidays-1600-106-pics-122-21-mb/20%Monthly2021-05-09 13:24
http://xxxset.org/milf/sylvie-back-for-more-1600-101-pics-129-91-mb/20%Monthly2021-05-09 13:23
http://xxxset.org/milf/sylvia-what-you-want-1600-82-pics-80-60-mb/20%Monthly2021-05-09 13:22
http://xxxset.org/milf/sunshine-two-finger-touch-1600-110-pics-146-85-mb/20%Monthly2021-05-09 13:21
http://xxxset.org/milf/stacey-robinson-watch-me-play-1600-78-pics-88-05-mb/20%Monthly2021-05-09 13:20
http://xxxset.org/milf/stacey-robinson-vibe-orgasm-1600-85-pics-79-36-mb/20%Monthly2021-05-09 13:19
http://xxxset.org/milf/stacey-robinson-sexuality-1600-65-pics-50-89-mb/20%Monthly2021-05-09 13:18
http://xxxset.org/milf/stacey-robinson-hardcore-1600-71-pics-73-mb/20%Monthly2021-05-09 13:17
http://xxxset.org/milf/simony-diamond-tits-and-toys-1600-103-pics-89-76-mb/20%Monthly2021-05-09 13:16
http://xxxset.org/milf/simony-diamond-pussy-in-the-park-1600-85-pics-88-08-mb/20%Monthly2021-05-09 13:15
http://xxxset.org/milf/simony-diamond-pure-ecstasy-1600-111-pics-87-44-mb/20%Monthly2021-05-09 13:14
http://xxxset.org/milf/simony-diamond-busty-brunette-1600-102-pics-112-79-mb/20%Monthly2021-05-09 13:13
http://xxxset.org/milf/silvia-toy-pleasure-1600-63-pics-55-41-mb/20%Monthly2021-05-09 13:12
http://xxxset.org/milf/silvia-hardcore-1600-83-pics-74-38-mb/20%Monthly2021-05-09 13:11
http://xxxset.org/milf/seraphina-wet-dreaming-1600-120-pics-114-35-mb/20%Monthly2021-05-09 13:10
http://xxxset.org/milf/seraphina-lets-cum-together-1600-75-pics-62-44-mb/20%Monthly2021-05-09 13:08
http://xxxset.org/milf/seraphina-hardcore2-1600-85-pics-66-33-mb/20%Monthly2021-05-09 13:07
http://xxxset.org/milf/seraphina-hardcore-1600-82-pics-69-82-mb/20%Monthly2021-05-09 13:06
http://xxxset.org/milf/seraphina-hardcore-1600-99-pics-96-11-mb/20%Monthly2021-05-09 13:05
http://xxxset.org/milf/selena-ravishing-in-red-1600-97-pics-95-04-mb/20%Monthly2021-05-09 13:04
http://xxxset.org/milf/selena-love-note-1600-94-pics-89-29-mb/20%Monthly2021-05-09 13:03
http://xxxset.org/milf/selena-lets-play-1600-79-pics-80-35-mb/20%Monthly2021-05-09 13:02
http://xxxset.org/milf/roxy-mendez-toy-orgasm-1600-51-pics-38-05-mb/20%Monthly2021-05-09 13:01
http://xxxset.org/milf/rio-malandro-vibe-orgasm-1600-140-pics-126-41-mb/20%Monthly2021-05-09 13:00
http://xxxset.org/milf/rebecca-nolan-toy-with-me-1600-90-pics-88-96-mb/20%Monthly2021-05-09 12:59
http://xxxset.org/milf/rafaella-naturally-yours-1600-107-pics-116-93-mb/20%Monthly2021-05-09 12:58
http://xxxset.org/milf/ophelia-rosenburg-wanting-ophelia-1600-98-pics-115-79-mb/20%Monthly2021-05-09 12:57
http://xxxset.org/milf/olga-cabaeva-hot-mama-1600-161-pics-247-27-mb/20%Monthly2021-05-09 12:56
http://xxxset.org/milf/olga-cabaeva-green-eyed-goddess-1600-149-pics-212-74-mb/20%Monthly2021-05-09 12:55
http://xxxset.org/milf/olga-cabaeva-eat-me-1600-134-pics-200-71-mb/20%Monthly2021-05-09 12:54
http://xxxset.org/milf/olga-cabaeva-back-for-more-1600-169-pics-219-22-mb/20%Monthly2021-05-09 12:52
http://xxxset.org/milf/nimfa-wet-beauty-1600-53-pics-38-06-mb/20%Monthly2021-05-09 12:51
http://xxxset.org/milf/nata-nice-undressed-1600-124-pics-130-23-mb/20%Monthly2021-05-09 12:50
http://xxxset.org/milf/natali-wet-fun-1600-66-pics-48-41-mb/20%Monthly2021-05-09 12:49
http://xxxset.org/milf/natali-toy-session-1600-75-pics-57-61-mb/20%Monthly2021-05-09 12:48
http://xxxset.org/milf/nata-treat-me-right-1600-60-pics-56-77-mb/20%Monthly2021-05-09 12:47
http://xxxset.org/milf/nata-pure-beauty-1600-89-pics-90-21-mb/20%Monthly2021-05-09 12:46
http://xxxset.org/milf/nata-naughty-with-nata-1600-71-pics-68-89-mb/20%Monthly2021-05-09 12:45
http://xxxset.org/milf/nata-back-for-more-1600-63-pics-62-11-mb/20%Monthly2021-05-09 12:44
http://xxxset.org/milf/nancy-acty-thinking-of-you-1600-69-pics-72-91-mb/20%Monthly2021-05-09 12:43
http://xxxset.org/milf/montse-swinger-mrs-swinger-1600-88-pics-82-85-mb/20%Monthly2021-05-09 12:42
http://xxxset.org/milf/montse-swinger-lingerie-love-1600-95-pics-77-38-mb/20%Monthly2021-05-09 12:41
http://xxxset.org/milf/montse-swinger-hardcore-1600-93-pics-84-14-mb/20%Monthly2021-05-09 12:40
http://xxxset.org/milf/montse-swinger-big-booty-beauty-1600-93-pics-71-22-mb/20%Monthly2021-05-09 12:39
http://xxxset.org/milf/montse-swinger-back-again-1600-103-pics-113-29-mb/20%Monthly2021-05-09 12:38
http://xxxset.org/milf/molly-broad-toy-play-1600-33-pics-27-61-mb/20%Monthly2021-05-09 12:37
http://xxxset.org/milf/misha-mynx-hardcore-1600-89-pics-86-53-mb/20%Monthly2021-05-09 12:36
http://xxxset.org/milf/milena-when-im-home-alone-1600-91-pics-79-07-mb/20%Monthly2021-05-09 12:34
http://xxxset.org/milf/mia-sexual-feeling-1600-76-pics-82-95-mb/20%Monthly2021-05-09 12:33
http://xxxset.org/milf/melody-wanting-you-1600-43-pics-36-23-mb/20%Monthly2021-05-09 12:32
http://xxxset.org/milf/melody-melt-with-melody-1600-46-pics-39-62-mb/20%Monthly2021-05-09 12:31
http://xxxset.org/milf/melody-coming-for-you-1600-40-pics-43-54-mb/20%Monthly2021-05-09 12:30
http://xxxset.org/milf/melody-busty-blonde-1600-39-pics-40-56-mb/20%Monthly2021-05-09 12:29
http://xxxset.org/milf/marta-watch-me-1600-69-pics-69-86-mb/20%Monthly2021-05-09 12:28
http://xxxset.org/milf/marta-toy-orgasm-1600-56-pics-54-54-mb/20%Monthly2021-05-09 12:27
http://xxxset.org/milf/madison-missina-hardcore-1600-72-pics-54-13-mb/20%Monthly2021-05-09 12:26
http://xxxset.org/milf/lira-red-waiting-for-you-1600-57-pics-49-36-mb/20%Monthly2021-05-09 12:25
http://xxxset.org/milf/lira-kissy-yoga-and-masturbation-1600-100-pics-85-54-mb/20%Monthly2021-05-09 12:24
http://xxxset.org/milf/leyla-lynn-undress-me-1600-41-pics-45-75-mb/20%Monthly2021-05-09 12:23
http://xxxset.org/milf/leyla-lee-watch-me-play-1600-132-pics-134-27-mb/20%Monthly2021-05-09 12:22
http://xxxset.org/milf/lexus-smith-in-the-mood-1600-77-pics-75-02-mb/20%Monthly2021-05-09 12:21
http://xxxset.org/milf/lexus-smith-fit-for-fun-1600-67-pics-54-44-mb/20%Monthly2021-05-09 12:20
http://xxxset.org/milf/lexus-smith-better-than-ever-1600-82-pics-78-31-mb/20%Monthly2021-05-09 12:19
http://xxxset.org/milf/lexi-lou-lovely-in-lingerie-1600-51-pics-38-82-mb/20%Monthly2021-05-09 12:17
http://xxxset.org/milf/lexi-lou-hardcore-1600-56-pics-43-87-mb/20%Monthly2021-05-09 12:16
http://xxxset.org/milf/lexi-lou-encore-1600-58-pics-56-01-mb/20%Monthly2021-05-09 12:15
http://xxxset.org/milf/lexi-lou-cum-for-you-1600-53-pics-44-10-mb/20%Monthly2021-05-09 12:14
http://xxxset.org/milf/lexi-lou-between-the-lips-1600-53-pics-46-86-mb/20%Monthly2021-05-09 12:13
http://xxxset.org/milf/laura-orsolya-valentines-day-1600-72-pics-64-92-mb/20%Monthly2021-05-09 12:12
http://xxxset.org/milf/laura-orsolya-toy-orgasm-1600-44-pics-49-16-mb/20%Monthly2021-05-09 12:11
http://xxxset.org/milf/lady-teresa-wet-for-it-1600-40-pics-46-77-mb/20%Monthly2021-05-09 12:10
http://xxxset.org/milf/kristi-wet-toy-play-1600-113-pics-118-83-mb/20%Monthly2021-05-09 12:09
http://xxxset.org/milf/katrina-sobar-what-she-likes-1600-87-pics-83-35-mb/20%Monthly2021-05-09 12:08
http://xxxset.org/milf/kathy-anderson-toy-fuck-1600-98-pics-90-88-mb/20%Monthly2021-05-09 12:07
http://xxxset.org/milf/kathy-anderson-sex-appeal-1600-91-pics-90-23-mb/20%Monthly2021-05-09 12:06
http://xxxset.org/milf/kathy-anderson-kathy-cums-1600-113-pics-123-46-mb/20%Monthly2021-05-09 12:05
http://xxxset.org/milf/kathy-anderson-hardcore2-1600-97-pics-85-97-mb/20%Monthly2021-05-09 12:04
http://xxxset.org/milf/kathy-anderson-hardcore-1600-113-pics-100-35-mb/20%Monthly2021-05-09 12:03
http://xxxset.org/milf/kathy-anderson-back-for-more-1600-79-pics-60-33-mb/20%Monthly2021-05-09 12:02
http://xxxset.org/milf/kassandra-hardcore-1600-94-pics-124-92-mb/20%Monthly2021-05-09 12:00
http://xxxset.org/milf/karen-fisher-the-blonde-bomshell-1600-90-pics-101-34-mb/20%Monthly2021-05-09 11:59
http://xxxset.org/milf/karen-fisher-cum-again-karen-1600-88-pics-86-94-mb/20%Monthly2021-05-09 11:58
http://xxxset.org/milf/karen-fisher-big-titties-1600-85-pics-94-06-mb/20%Monthly2021-05-09 11:57
http://xxxset.org/milf/karen-fisher-back-for-more-1600-83-pics-96-93-mb/20%Monthly2021-05-09 11:56
http://xxxset.org/milf/jamie-ray-toy-orgasm-1600-65-pics-48-57-mb/20%Monthly2021-05-09 11:55
http://xxxset.org/milf/helen-he-russian-beauty-1600-76-pics-61-09-mb/20%Monthly2021-05-09 11:54
http://xxxset.org/milf/gwen-take-your-time-1600-65-pics-55-20-mb/20%Monthly2021-05-09 11:53
http://xxxset.org/milf/goldie-glass-sexual-prime-1600-70-pics-73-31-mb/20%Monthly2021-05-09 11:52
http://xxxset.org/milf/florane-russell-too-hot-1600-123-pics-115-18-mb/20%Monthly2021-05-09 11:51
http://xxxset.org/milf/flirty-naughty-when-she-cums-1600-54-pics-55-mb/20%Monthly2021-05-09 11:50
http://xxxset.org/milf/ella-brown-watch-me-cum-1600-44-pics-38-62-mb/20%Monthly2021-05-09 11:49
http://xxxset.org/milf/elen-million-vibrator-orgasm-1600-89-pics-70-74-mb/20%Monthly2021-05-09 11:48
http://xxxset.org/milf/eleanor-what-you-want-1600-108-pics-111-38-mb/20%Monthly2021-05-09 11:47
http://xxxset.org/milf/diana-gold-sexy-diana-1600-120-pics-119-15-mb/20%Monthly2021-05-09 11:46
http://xxxset.org/milf/devyn-lux-while-you-watch-1600-80-pics-78-49-mb/20%Monthly2021-05-09 11:45
http://xxxset.org/milf/devina-warm-me-up-1600-101-pics-118-55-mb/20%Monthly2021-05-09 11:43
http://xxxset.org/milf/delly-ready-for-fun-1600-96-pics-102-32-mb/20%Monthly2021-05-09 11:42
http://xxxset.org/milf/dani-dare-take-it-off-1600-105-pics-86-86-mb/20%Monthly2021-05-09 11:41
http://xxxset.org/milf/dafna-may-underneath-her-clothes-1600-92-pics-79-41-mb/20%Monthly2021-05-09 11:40
http://xxxset.org/milf/dafna-may-simply-sensual-1600-77-pics-95-86-mb/20%Monthly2021-05-09 11:39
http://xxxset.org/milf/dafna-may-sexual-peak-1600-81-pics-117-69-mb/20%Monthly2021-05-09 11:38
http://xxxset.org/milf/dafna-may-give-you-more-1600-75-pics-119-42-mb/20%Monthly2021-05-09 11:37
http://xxxset.org/milf/dafna-may-cant-get-enough-1600-78-pics-100-61-mb/20%Monthly2021-05-09 11:36
http://xxxset.org/milf/cyndi-sinclair-toy-lover-1600-105-pics-124-44-mb/20%Monthly2021-05-09 11:35
http://xxxset.org/milf/crystal-swift-smother-me-1600-81-pics-70-35-mb/20%Monthly2021-05-09 11:34
http://xxxset.org/milf/cleo-summers-want-to-play-1600-104-pics-93-13-mb/20%Monthly2021-05-09 11:33
http://xxxset.org/milf/cj-bridge-turned-on-1600-109-pics-100-72-mb/20%Monthly2021-05-09 11:32
http://xxxset.org/milf/cherry-aleksandra-sexy-tease-1600-50-pics-49-57-mb/20%Monthly2021-05-09 11:31
http://xxxset.org/milf/chelsea-carter-undressed-1600-105-pics-102-87-mb/20%Monthly2021-05-09 11:30
http://xxxset.org/milf/charli-hope-what-she-wants-1600-78-pics-71-53-mb/20%Monthly2021-05-09 11:29
http://xxxset.org/milf/camilla-creampie-talk-dirty-to-me-1600-121-pics-111-45-mb/20%Monthly2021-05-09 11:27
http://xxxset.org/milf/bridget-flash-sexy-mature-1600-62-pics-73-06-mb/20%Monthly2021-05-09 11:26
http://xxxset.org/milf/bonita-hardcore-1600-85-pics-95-43-mb/20%Monthly2021-05-09 11:25
http://xxxset.org/milf/blanche-bradburry-toy-pleasure-1600-76-pics-57-85-mb/20%Monthly2021-05-09 11:24
http://xxxset.org/milf/black-kat-waiting-for-you-1600-91-pics-88-13-mb/20%Monthly2021-05-09 11:23
http://xxxset.org/milf/belisa-what-i-want-1600-71-pics-94-70-mb/20%Monthly2021-05-09 11:22
http://xxxset.org/milf/bekki-want-to-play-1600-95-pics-96-10-mb/20%Monthly2021-05-09 11:21
http://xxxset.org/milf/beau-diamonds-what-you-like-1600-79-pics-83-08-mb/20%Monthly2021-05-09 11:20
http://xxxset.org/milf/beau-diamonds-touch-myself-1600-73-pics-73-71-mb/20%Monthly2021-05-09 11:19
http://xxxset.org/milf/barbara-touch-myself-1600-109-pics-118-83-mb/20%Monthly2021-05-09 11:18
http://xxxset.org/milf/baby-doll-cum-for-me-1600-88-pics-72-73-mb/20%Monthly2021-05-09 11:17
http://xxxset.org/milf/artemia-still-got-it-1600-59-pics-59-43-mb/20%Monthly2021-05-09 11:16
http://xxxset.org/milf/annabelle-more-take-your-time-1600-98-pics-97-99-mb/20%Monthly2021-05-09 11:15
http://xxxset.org/milf/ani-unwind-with-ani-1600-132-pics-152-32-mb/20%Monthly2021-05-09 11:14
http://xxxset.org/milf/ani-hardcore-1600-110-pics-84-31-mb/20%Monthly2021-05-09 11:13
http://xxxset.org/milf/angel-a-hardcore-1600-133-pics-148-34-mb/20%Monthly2021-05-09 11:12
http://xxxset.org/milf/andi-james-your-wettest-dreams-1600-74-pics-90-84-mb/20%Monthly2021-05-09 11:10
http://xxxset.org/milf/andi-james-what-she-wants-1600-61-pics-56-92-mb/20%Monthly2021-05-09 11:09
http://xxxset.org/milf/andi-james-unleashed-1600-76-pics-80-76-mb/20%Monthly2021-05-09 11:08
http://xxxset.org/milf/andi-james-red-fox-1600-84-pics-94-50-mb/20%Monthly2021-05-09 11:07
http://xxxset.org/milf/andi-james-mature-beauty-1600-78-pics-81-86-mb/20%Monthly2021-05-09 11:06
http://xxxset.org/milf/andi-james-back-for-more-1600-83-pics-110-43-mb/20%Monthly2021-05-09 11:05
http://xxxset.org/milf/anastasia-ocean-wet-wonders-1600-70-pics-64-11-mb/20%Monthly2021-05-09 11:04
http://xxxset.org/milf/alika-alba-take-control-1600-65-pics-56-86-mb/20%Monthly2021-05-09 11:03
http://xxxset.org/milf/alice-potts-two-toys-1600-101-pics-86-99-mb/20%Monthly2021-05-09 11:02
http://xxxset.org/milf/alexandra-waiting-for-you-1600-126-pics-101-93-mb/20%Monthly2021-05-09 11:01
http://xxxset.org/milf/alexa-mood-wet-for-toys-1600-148-pics-127-70-mb/20%Monthly2021-05-09 11:00
http://xxxset.org/milf/alby-daor-turned-on-1600-82-pics-86-59-mb/20%Monthly2021-05-09 10:59
http://xxxset.org/milf/aella-rae-wet-for-you-1600-109-pics-96-61-mb/20%Monthly2021-05-09 10:58
http://xxxset.org/milf/adelis-shaman-sexy-russian-1600-76-pics-80-28-mb/20%Monthly2021-05-09 10:57
http://xxxset.org/milf/anilos-2021-05-08-lexus-smith-in-the-mood-77-pics-152-90-mb/20%Monthly2021-05-08 09:35
http://xxxset.org/milf/allover30-2021-05-08-serene-siren-lacey-ladies-159-pics-280-97-mb/20%Monthly2021-05-08 09:34
http://xxxset.org/milf/allover30-2021-05-08-julia-north-elegant-ladies-153-pics-345-96-mb/20%Monthly2021-05-08 09:33
http://xxxset.org/milf/allover30-2021-05-08-beth-ladies-with-toys-148-pics-282-36-mb/20%Monthly2021-05-08 09:32
http://xxxset.org/milf/desyra-noir-wicked-weasel-mesh-bikini-pussy-45-pics-54-52-mb/20%Monthly2021-05-08 09:31
http://xxxset.org/milf/desyra-noir-thongless-sunbath-38-pics-42-68-mb/20%Monthly2021-05-08 09:29
http://xxxset.org/milf/desyra-noir-that-big-ass-51-pics-60-57-mb/20%Monthly2021-05-08 09:28
http://xxxset.org/milf/desyra-noir-sheer-sunlounger-54-pics-57-18-mb/20%Monthly2021-05-08 09:27
http://xxxset.org/milf/desyra-noir-reversed-wicked-weasel-swimsuit-28-pics-30-95-mb/20%Monthly2021-05-08 09:26
http://xxxset.org/milf/desyra-noir-merry-wicked-christmas-35-pics-44-91-mb/20%Monthly2021-05-08 09:25
http://xxxset.org/milf/desyra-noir-mega-mesh-booty-60-pics-70-89-mb/20%Monthly2021-05-08 09:24
http://xxxset.org/milf/desyra-noir-hot-plugged-ass-70-pics-80-50-mb/20%Monthly2021-05-08 09:23
http://xxxset.org/milf/desyra-noir-hot-crotchless-34-pics-34-68-mb/20%Monthly2021-05-08 09:22
http://xxxset.org/milf/desyra-noir-dubio-vamp-extreme-bikini-61-pics-65-97-mb/20%Monthly2021-05-08 09:21
http://xxxset.org/milf/desyra-noir-crotchless-kitty-30-pics-35-02-mb/20%Monthly2021-05-08 09:20
http://xxxset.org/milf/desyra-noir-bowlicious-micro-thong-51-pics-57-91-mb/20%Monthly2021-05-08 09:19
http://xxxset.org/milf/desyra-noir-ass-very-personal-lingerie-32-pics-32-35-mb/20%Monthly2021-05-08 09:18
http://xxxset.org/milf/desyra-noir-ass-personal-bodysuit-with-buttplug-38-pics-40-26-mb/20%Monthly2021-05-08 09:17
http://xxxset.org/teen/sexart-2021-05-08-my-room-stacy-cruz-239-pics-518-70-mb/20%Monthly2021-05-08 09:16
http://xxxset.org/fetish/evane-nordstern-tan-stairs-red-hat-117-pics-119-37-mb/20%Monthly2021-05-08 09:15
http://xxxset.org/fetish/evane-nordstern-green-suit-tan-chair-117-pics-145-29-mb/20%Monthly2021-05-08 09:14
http://xxxset.org/fetish/evane-nordstern-green-bikini-brown-rug-127-pics-134-56-mb/20%Monthly2021-05-08 09:12
http://xxxset.org/fetish/evane-nordstern-blue-ball-blue-panty-123-pics-125-mb/20%Monthly2021-05-08 09:11
http://xxxset.org/fetish/evane-nordstern-black-stockings-black-tights-114-pics-126-73-mb/20%Monthly2021-05-08 09:10
http://xxxset.org/fetish/evane-nordstern-black-goggles-striped-outfit-126-pics-138-07-mb/20%Monthly2021-05-08 09:09
http://xxxset.org/milf/allover30-2021-05-07-galas-looner-elegant-ladies-123-pics-279-48-mb/20%Monthly2021-05-07 12:16
http://xxxset.org/milf/allover30-2021-05-07-elisa-tiger-mature-housewives-149-pics-413-84-mb/20%Monthly2021-05-07 12:15
http://xxxset.org/milf/auntjudys-2021-05-07-elegant-felicity-with-stockings-and-garter-142-pics-528-74-mb/20%Monthly2021-05-07 12:14
http://xxxset.org/fetish/2021-05-07-lady-ewa-6299-79-pics-40-54-mb/20%Monthly2021-05-07 12:13
http://xxxset.org/teen/sexart-2021-05-07-she-gets-me-anya-krey-mina-moreno-80-pics-270-78-mb/20%Monthly2021-05-07 12:12
http://xxxset.org/fetish/amanda-2014-06-29-silver-heel-125-pics-94-36-mb/20%Monthly2021-05-07 12:11
http://xxxset.org/fetish/amanda-2014-06-22-red-117-pics-55-55-mb/20%Monthly2021-05-07 12:10
http://xxxset.org/fetish/amanda-2014-06-15-nasty-shower-3-104-pics-51-26-mb/20%Monthly2021-05-07 12:09
http://xxxset.org/fetish/amanda-2014-06-08-the-balcony-2-103-pics-41-72-mb/20%Monthly2021-05-07 12:08
http://xxxset.org/fetish/amanda-2014-06-01-blue-scarf-113-pics-56-50-mb/20%Monthly2021-05-07 12:07
http://xxxset.org/fetish/amanda-2014-05-25-nasty-shower-2-102-pics-45-90-mb/20%Monthly2021-05-07 12:06
http://xxxset.org/fetish/amanda-2014-05-18-golden-shoes-109-pics-48-93-mb/20%Monthly2021-05-07 12:05
http://xxxset.org/fetish/amanda-2014-05-11-tree-frog-112-pics-50-63-mb/20%Monthly2021-05-07 12:04
http://xxxset.org/fetish/amanda-2014-05-04-legs-118-pics-39-64-mb/20%Monthly2021-05-07 12:03
http://xxxset.org/fetish/amanda-2014-04-27-in-the-wood-2-100-pics-60-32-mb/20%Monthly2021-05-07 12:01
http://xxxset.org/fetish/amanda-2014-04-21-nasty-shower-100-pics-55-35-mb/20%Monthly2021-05-07 12:00
http://xxxset.org/fetish/amanda-2014-04-13-the-walk-110-pics-90-08-mb/20%Monthly2021-05-07 11:59
http://xxxset.org/fetish/amanda-2014-04-06-sexy-butt-115-pics-46-27-mb/20%Monthly2021-05-07 11:58
http://xxxset.org/fetish/amanda-2014-03-30-azure-pearl-103-pics-70-12-mb/20%Monthly2021-05-07 11:57
http://xxxset.org/fetish/amanda-2014-03-23-posing-111-pics-36-83-mb/20%Monthly2021-05-07 11:56
http://xxxset.org/fetish/amanda-2014-03-16-in-the-wood-100-pics-87-86-mb/20%Monthly2021-05-07 11:55
http://xxxset.org/fetish/amanda-2014-03-09-papagallo-106-pics-43-37-mb/20%Monthly2021-05-07 11:54
http://xxxset.org/fetish/amanda-2014-03-02-black-beauty-105-pics-47-mb/20%Monthly2021-05-07 11:53
http://xxxset.org/fetish/amanda-2014-02-23-the-trip-102-pics-72-14-mb/20%Monthly2021-05-07 11:52
http://xxxset.org/fetish/amanda-2014-02-16-countrywoman-111-pics-82-19-mb/20%Monthly2021-05-07 11:51
http://xxxset.org/fetish/amanda-2014-02-09-frolic-shooting-136-pics-53-80-mb/20%Monthly2021-05-07 11:50
http://xxxset.org/fetish/amanda-2014-02-02-wet-night-92-pics-41-21-mb/20%Monthly2021-05-07 11:49
http://xxxset.org/fetish/amanda-2014-01-26-wet-fun-108-pics-47-09-mb/20%Monthly2021-05-07 11:48
http://xxxset.org/fetish/amanda-2014-01-19-snowball-108-pics-44-54-mb/20%Monthly2021-05-07 11:47
http://xxxset.org/fetish/amanda-2014-01-12-posing-106-pics-49-84-mb/20%Monthly2021-05-07 11:46
http://xxxset.org/fetish/amanda-2014-01-05-bawdy-108-pics-49-29-mb/20%Monthly2021-05-07 11:44
http://xxxset.org/fetish/amanda-2013-12-29-legs-102-pics-37-09-mb/20%Monthly2021-05-07 11:43
http://xxxset.org/fetish/amanda-2013-12-22-blue-sky-111-pics-50-97-mb/20%Monthly2021-05-07 11:42
http://xxxset.org/fetish/amanda-2013-12-15-tabledance-2-114-pics-39-31-mb/20%Monthly2021-05-07 11:41
http://xxxset.org/fetish/amanda-2013-12-08-red-skirt-111-pics-39-28-mb/20%Monthly2021-05-07 11:40
http://xxxset.org/fetish/amanda-2013-12-01-sunset-2-90-pics-37-68-mb/20%Monthly2021-05-07 11:39
http://xxxset.org/fetish/amanda-2013-11-24-morning-sky-105-pics-48-55-mb/20%Monthly2021-05-07 11:38
http://xxxset.org/fetish/amanda-2013-11-17-hot-heels-101-pics-48-38-mb/20%Monthly2021-05-07 11:37
http://xxxset.org/fetish/amanda-2013-11-10-foot-n-sole-122-pics-64-39-mb/20%Monthly2021-05-07 11:36
http://xxxset.org/fetish/amanda-2013-11-03-pure-115-pics-48-64-mb/20%Monthly2021-05-07 11:35
http://xxxset.org/fetish/amanda-2013-10-27-the-balkony-100-pics-41-30-mb/20%Monthly2021-05-07 11:34
http://xxxset.org/fetish/amanda-2013-10-20-sunset-1-100-pics-44-02-mb/20%Monthly2021-05-07 11:33
http://xxxset.org/fetish/amanda-2013-10-13-tabledance-107-pics-28-68-mb/20%Monthly2021-05-07 11:32
http://xxxset.org/fetish/amanda-2013-10-06-horny-babe-107-pics-34-57-mb/20%Monthly2021-05-07 11:31
http://xxxset.org/fetish/amanda-2013-09-29-white-tan-119-pics-79-49-mb/20%Monthly2021-05-07 11:30
http://xxxset.org/fetish/amanda-2013-09-23-beautiful-109-pics-53-18-mb/20%Monthly2021-05-07 11:29
http://xxxset.org/fetish/amanda-2013-09-15-tobbacco-brown-115-pics-47-30-mb/20%Monthly2021-05-07 11:28
http://xxxset.org/fetish/amanda-2013-09-08-rainfall-124-pics-47-71-mb/20%Monthly2021-05-07 11:27
http://xxxset.org/fetish/amanda-2013-09-01-on-the-carpet-129-pics-92-08-mb/20%Monthly2021-05-07 11:25
http://xxxset.org/fetish/amanda-2013-08-25-shower-n-sun-109-pics-40-41-mb/20%Monthly2021-05-07 11:24
http://xxxset.org/fetish/amanda-2013-08-18-golden-lady-100-pics-49-24-mb/20%Monthly2021-05-07 11:23
http://xxxset.org/fetish/amanda-2013-08-11-black-beauty-115-pics-46-48-mb/20%Monthly2021-05-07 11:22
http://xxxset.org/fetish/amanda-2013-08-04-vision-in-white-106-pics-38-18-mb/20%Monthly2021-05-07 11:21
http://xxxset.org/fetish/amanda-2013-07-28-ph-shower-117-pics-68-71-mb/20%Monthly2021-05-07 11:20
http://xxxset.org/fetish/amanda-2013-07-21-sun-day-107-pics-80-62-mb/20%Monthly2021-05-07 11:19
http://xxxset.org/fetish/amanda-2013-07-14-wide-open-2-139-pics-45-08-mb/20%Monthly2021-05-07 11:18
http://xxxset.org/fetish/amanda-2013-07-07-naked-legs-110-pics-85-49-mb/20%Monthly2021-05-07 11:17
http://xxxset.org/fetish/amanda-2013-06-30-grey-110-pics-43-31-mb/20%Monthly2021-05-07 11:16
http://xxxset.org/fetish/amanda-2013-06-23-promenade-109-pics-56-03-mb/20%Monthly2021-05-07 11:15
http://xxxset.org/fetish/amanda-2013-06-16-hottie-120-pics-42-50-mb/20%Monthly2021-05-07 11:14
http://xxxset.org/fetish/amanda-2013-06-09-extreme-pt3-107-pics-35-84-mb/20%Monthly2021-05-07 11:13
http://xxxset.org/fetish/amanda-2013-06-02-wide-open-135-pics-45-mb/20%Monthly2021-05-07 11:12
http://xxxset.org/fetish/amanda-2013-05-26-stockings-on-show-98-pics-61-23-mb/20%Monthly2021-05-07 11:11
http://xxxset.org/fetish/amanda-2013-05-19-golden-leg-110-pics-28-80-mb/20%Monthly2021-05-07 11:10
http://xxxset.org/fetish/amanda-2013-05-12-extreme-pt2-115-pics-40-29-mb/20%Monthly2021-05-07 11:09
http://xxxset.org/fetish/amanda-2013-05-05-outside-shower-102-pics-61-59-mb/20%Monthly2021-05-07 11:07
http://xxxset.org/fetish/amanda-2013-04-21-juicy-121-pics-67-87-mb/20%Monthly2021-05-07 11:06
http://xxxset.org/fetish/amanda-2013-04-14-tender-feet-117-pics-45-95-mb/20%Monthly2021-05-07 11:05
http://xxxset.org/fetish/amanda-2013-04-07-extreme-pt1-115-pics-50-01-mb/20%Monthly2021-05-07 11:04
http://xxxset.org/fetish/amanda-2013-03-31-splish-splash-pt2-116-pics-34-94-mb/20%Monthly2021-05-07 11:03
http://xxxset.org/fetish/amanda-2013-03-24-splish-splash-pt1-116-pics-55-19-mb/20%Monthly2021-05-07 11:02
http://xxxset.org/fetish/amanda-2013-03-17-tarty-117-pics-60-98-mb/20%Monthly2021-05-07 11:01
http://xxxset.org/fetish/amanda-2013-03-10-rose-113-pics-50-86-mb/20%Monthly2021-05-07 11:00
http://xxxset.org/fetish/amanda-2013-03-03-bondage-130-pics-33-54-mb/20%Monthly2021-05-07 10:59
http://xxxset.org/fetish/amanda-2013-02-24-lay-down-sally-108-pics-29-43-mb/20%Monthly2021-05-07 10:58
http://xxxset.org/fetish/amanda-2013-02-17-toe-pumps-108-pics-26-97-mb/20%Monthly2021-05-07 10:57
http://xxxset.org/fetish/amanda-2013-02-10-playing-time-110-pics-41-60-mb/20%Monthly2021-05-07 10:56
http://xxxset.org/fetish/amanda-2013-02-03-boardwalk-119-pics-35-93-mb/20%Monthly2021-05-07 10:55
http://xxxset.org/fetish/amanda-2013-01-27-nylons-and-heels-130-pics-33-16-mb/20%Monthly2021-05-07 10:54
http://xxxset.org/fetish/amanda-2013-01-20-leg-lust-114-pics-54-42-mb/20%Monthly2021-05-07 10:53
http://xxxset.org/fetish/amanda-2013-01-13-outside-105-pics-58-50-mb/20%Monthly2021-05-07 10:52
http://xxxset.org/fetish/amanda-2013-01-06-greys-110-pics-40-25-mb/20%Monthly2021-05-07 10:51
http://xxxset.org/fetish/amanda-2012-12-30-parrot-110-pics-56-79-mb/20%Monthly2021-05-07 10:49
http://xxxset.org/fetish/amanda-2012-12-23-pearls-110-pics-43-45-mb/20%Monthly2021-05-07 10:48
http://xxxset.org/fetish/amanda-2012-12-16-slingbacks-90-pics-37-46-mb/20%Monthly2021-05-07 10:47
http://xxxset.org/fetish/amanda-2012-12-09-classic-style-110-pics-46-81-mb/20%Monthly2021-05-07 10:46
http://xxxset.org/fetish/amanda-2012-12-02-hot-as-chili-118-pics-54-92-mb/20%Monthly2021-05-07 10:45
http://xxxset.org/fetish/amanda-2012-11-25-frisky-in-the-wood-118-pics-81-78-mb/20%Monthly2021-05-07 10:44
http://xxxset.org/fetish/amanda-2012-11-18-sheer-sexy-119-pics-63-76-mb/20%Monthly2021-05-07 10:43
http://xxxset.org/fetish/amanda-2012-11-11-nylongames-105-pics-43-32-mb/20%Monthly2021-05-07 10:42
http://xxxset.org/fetish/amanda-2012-11-04-batwoman-118-pics-19-09-mb/20%Monthly2021-05-07 10:41
http://xxxset.org/fetish/amanda-2012-10-28-steel-heel-119-pics-18-28-mb/20%Monthly2021-05-07 10:40
http://xxxset.org/fetish/amanda-2012-10-21-kinky-in-ph-100-pics-46-58-mb/20%Monthly2021-05-07 10:39
http://xxxset.org/fetish/amanda-2012-10-14-black-leather-p2-109-pics-43-40-mb/20%Monthly2021-05-07 10:38
http://xxxset.org/fetish/amanda-2012-10-07-sandals-123-pics-48-95-mb/20%Monthly2021-05-07 10:37
http://xxxset.org/fetish/amanda-2012-09-30-rainy-day-117-pics-72-12-mb/20%Monthly2021-05-07 10:36
http://xxxset.org/fetish/amanda-2012-09-23-109-pics-48-04-mb/20%Monthly2021-05-07 10:35
http://xxxset.org/fetish/amanda-2012-09-16-black-leather-p1-109-pics-50-50-mb/20%Monthly2021-05-07 10:34
http://xxxset.org/fetish/amanda-2012-09-09-au-naturel-102-pics-31-84-mb/20%Monthly2021-05-07 10:32
http://xxxset.org/fetish/amanda-2012-09-02-exhibitionism-115-pics-70-26-mb/20%Monthly2021-05-07 10:31
http://xxxset.org/fetish/amanda-2012-08-26-red-umbrella-116-pics-73-21-mb/20%Monthly2021-05-07 10:30
http://xxxset.org/fetish/amanda-2012-08-19-pedal-pumping-115-pics-51-88-mb/20%Monthly2021-05-07 10:29
http://xxxset.org/fetish/amanda-2012-08-12-car-n-fun-114-pics-68-58-mb/20%Monthly2021-05-07 10:28
http://xxxset.org/fetish/amanda-2012-08-05-sexy-chica-113-pics-53-66-mb/20%Monthly2021-05-07 10:27
http://xxxset.org/fetish/amanda-2012-07-29-hot-heels-115-pics-48-64-mb/20%Monthly2021-05-07 10:26
http://xxxset.org/fetish/amanda-2012-07-22-blue-vision-120-pics-51-12-mb/20%Monthly2021-05-07 10:25
http://xxxset.org/fetish/amanda-2012-07-15-high-sandals-114-pics-38-79-mb/20%Monthly2021-05-07 10:24
http://xxxset.org/fetish/amanda-2012-07-08-cloudless-106-pics-34-61-mb/20%Monthly2021-05-07 10:23
http://xxxset.org/fetish/amanda-2012-07-01-pink-toenails-108-pics-33-40-mb/20%Monthly2021-05-07 10:22
http://xxxset.org/fetish/amanda-2012-06-24-fun-in-the-sun-112-pics-47-79-mb/20%Monthly2021-05-07 10:21
http://xxxset.org/fetish/amanda-2012-06-17-sunny-day-114-pics-46-44-mb/20%Monthly2021-05-07 10:20
http://xxxset.org/fetish/amanda-2012-06-10-leggy-114-pics-43-48-mb/20%Monthly2021-05-07 10:19
http://xxxset.org/fetish/amanda-2012-06-03-red-shoes-153-pics-77-27-mb/20%Monthly2021-05-07 10:18
http://xxxset.org/fetish/amanda-2012-05-27-stockings-118-pics-43-72-mb/20%Monthly2021-05-07 10:17
http://xxxset.org/fetish/amanda-2012-05-20-wet-ph-3-109-pics-29-61-mb/20%Monthly2021-05-07 10:16
http://xxxset.org/fetish/amanda-2012-05-13-pink-115-pics-63-96-mb/20%Monthly2021-05-07 10:14
http://xxxset.org/fetish/amanda-2012-05-06-lady-in-red-115-pics-44-75-mb/20%Monthly2021-05-07 10:13
http://xxxset.org/fetish/amanda-2012-04-29-afternoon-fun-115-pics-75-91-mb/20%Monthly2021-05-07 10:12
http://xxxset.org/fetish/amanda-2012-04-22-grasshopper-119-pics-70-37-mb/20%Monthly2021-05-07 10:11
http://xxxset.org/fetish/amanda-2012-04-15-wet-ph-2-101-pics-32-44-mb/20%Monthly2021-05-07 10:10
http://xxxset.org/fetish/amanda-2012-04-08-wet-ph-105-pics-30-32-mb/20%Monthly2021-05-07 10:09
http://xxxset.org/fetish/amanda-2012-04-01-street-lady-2-110-pics-72-26-mb/20%Monthly2021-05-07 10:08
http://xxxset.org/fetish/amanda-2012-03-25-hot-wheels-88-pics-25-06-mb/20%Monthly2021-05-07 10:07
http://xxxset.org/fetish/amanda-2012-03-18-street-lady-1-110-pics-54-76-mb/20%Monthly2021-05-07 10:06
http://xxxset.org/fetish/amanda-2012-03-11-grid-grls-93-pics-30-25-mb/20%Monthly2021-05-07 10:05
http://xxxset.org/fetish/amanda-2012-03-05-smart-lady-115-pics-40-75-mb/20%Monthly2021-05-07 10:04
http://xxxset.org/fetish/amanda-2012-02-26-very-leggy-125-pics-46-66-mb/20%Monthly2021-05-07 10:03
http://xxxset.org/fetish/amanda-2012-02-19-elegant-118-pics-53-54-mb/20%Monthly2021-05-07 10:02
http://xxxset.org/fetish/amanda-2012-02-12-leo-lady-113-pics-49-95-mb/20%Monthly2021-05-07 10:01
http://xxxset.org/fetish/amanda-2012-02-05-spicy-116-pics-46-88-mb/20%Monthly2021-05-07 10:00
http://xxxset.org/fetish/amanda-2012-01-29-bahroom-122-pics-38-41-mb/20%Monthly2021-05-07 09:59
http://xxxset.org/fetish/amanda-2012-01-22-games-119-pics-43-14-mb/20%Monthly2021-05-07 09:57
http://xxxset.org/fetish/amanda-2012-01-15-wet-lace-102-pics-38-61-mb/20%Monthly2021-05-07 09:56
http://xxxset.org/fetish/amanda-2012-01-08-black-122-pics-42-30-mb/20%Monthly2021-05-07 09:55
http://xxxset.org/fetish/amanda-2012-01-01-posing-108-pics-46-77-mb/20%Monthly2021-05-07 09:54
http://xxxset.org/fetish/amanda-2011-12-25-very-leggy-109-pics-68-43-mb/20%Monthly2021-05-07 09:53
http://xxxset.org/fetish/amanda-2011-12-18-skirt-up-108-pics-51-01-mb/20%Monthly2021-05-07 09:52
http://xxxset.org/fetish/amanda-2011-12-11-very-wet-110-pics-55-73-mb/20%Monthly2021-05-07 09:51
http://xxxset.org/fetish/amanda-2011-12-04-posing-in-mules-119-pics-70-78-mb/20%Monthly2021-05-07 09:50
http://xxxset.org/fetish/amanda-2011-11-27-shoe-shop-140-pics-50-73-mb/20%Monthly2021-05-07 09:49
http://xxxset.org/fetish/amanda-2011-11-20-blue-115-pics-49-80-mb/20%Monthly2021-05-07 09:48
http://xxxset.org/fetish/amanda-2011-11-13-sexy-posing-117-pics-36-29-mb/20%Monthly2021-05-07 09:47
http://xxxset.org/fetish/amanda-2011-11-06-tiger-feet-121-pics-61-14-mb/20%Monthly2021-05-07 09:46
http://xxxset.org/fetish/amanda-2011-10-30-nails-n-heels-119-pics-55-75-mb/20%Monthly2021-05-07 09:45
http://xxxset.org/fetish/amanda-2011-10-23-goodbody-110-pics-35-79-mb/20%Monthly2021-05-07 09:44
http://xxxset.org/fetish/amanda-2011-10-16-splashy-120-pics-41-46-mb/20%Monthly2021-05-07 09:43
http://xxxset.org/fetish/amanda-2011-10-09-spiky-130-pics-47-05-mb/20%Monthly2021-05-07 09:42
http://xxxset.org/fetish/amanda-2011-10-02-tiger-lady-118-pics-55-59-mb/20%Monthly2021-05-07 09:41
http://xxxset.org/fetish/amanda-2011-09-25-satin-spikes-110-pics-40-91-mb/20%Monthly2021-05-07 09:39
http://xxxset.org/fetish/amanda-2011-09-18-simply-red-119-pics-45-27-mb/20%Monthly2021-05-07 09:38
http://xxxset.org/fetish/amanda-2011-09-11-lady-in-pink-120-pics-44-17-mb/20%Monthly2021-05-07 09:37
http://xxxset.org/fetish/amanda-2011-09-04-sandal-fetish-126-pics-42-16-mb/20%Monthly2021-05-07 09:36
http://xxxset.org/fetish/amanda-2011-08-28-sexy-posing-116-pics-41-57-mb/20%Monthly2021-05-07 09:35
http://xxxset.org/fetish/amanda-2011-08-21-airs-and-graces-119-pics-40-79-mb/20%Monthly2021-05-07 09:34
http://xxxset.org/fetish/amanda-2011-08-14-black-nylons-116-pics-37-11-mb/20%Monthly2021-05-07 09:33
http://xxxset.org/fetish/amanda-2011-08-07-naughty-lady-117-pics-49-21-mb/20%Monthly2021-05-07 09:32
http://xxxset.org/fetish/amanda-2011-07-31-stocking-pleasures-115-pics-39-38-mb/20%Monthly2021-05-07 09:31
http://xxxset.org/fetish/amanda-2011-07-25-golden-heels-111-pics-39-47-mb/20%Monthly2021-05-07 09:30
http://xxxset.org/fetish/amanda-2011-07-17-ph-ripping-141-pics-56-20-mb/20%Monthly2021-05-07 09:29
http://xxxset.org/fetish/amanda-2011-07-10-seams-n-heels-108-pics-89-42-mb/20%Monthly2021-05-07 09:28
http://xxxset.org/fetish/amanda-2011-07-03-oriental-108-pics-83-39-mb/20%Monthly2021-05-07 09:27
http://xxxset.org/fetish/amanda-2011-06-26-outdoor-posing-114-pics-68-74-mb/20%Monthly2021-05-07 09:26
http://xxxset.org/fetish/amanda-2011-06-19-car-crash-106-pics-53-64-mb/20%Monthly2021-05-07 09:25
http://xxxset.org/fetish/amanda-2011-06-12-the-office-pt-2-98-pics-34-40-mb/20%Monthly2021-05-07 09:24
http://xxxset.org/fetish/amanda-2011-06-05-garden-tease-108-pics-73-50-mb/20%Monthly2021-05-07 09:23
http://xxxset.org/fetish/amanda-2011-05-29-pink-flower-107-pics-72-95-mb/20%Monthly2021-05-07 09:21
http://xxxset.org/fetish/amanda-2011-05-22-black-panther-110-pics-57-88-mb/20%Monthly2021-05-07 09:20
http://xxxset.org/fetish/amanda-2011-05-15-lakeside-117-pics-70-71-mb/20%Monthly2021-05-07 09:19
http://xxxset.org/fetish/amanda-2011-05-08-barn-door-110-pics-61-24-mb/20%Monthly2021-05-07 09:18
http://xxxset.org/fetish/amanda-2011-05-01-marakesh-111-pics-71-12-mb/20%Monthly2021-05-07 09:17
http://xxxset.org/fetish/amanda-2011-04-17-golden-heels-125-pics-51-12-mb/20%Monthly2021-05-07 09:16
http://xxxset.org/fetish/amanda-2011-04-10-kinky-109-pics-42-16-mb/20%Monthly2021-05-07 09:15
http://xxxset.org/fetish/amanda-2011-04-03-hotn-wet-120-pics-41-54-mb/20%Monthly2021-05-07 09:14
http://xxxset.org/fetish/amanda-2011-03-27-two-of-us-104-pics-64-60-mb/20%Monthly2021-05-07 09:13
http://xxxset.org/fetish/amanda-2011-03-20-surprise-81-pics-30-32-mb/20%Monthly2021-05-07 09:12
http://xxxset.org/fetish/amanda-2011-03-13-addicted-to-squirt-126-pics-37-40-mb/20%Monthly2021-05-07 09:11
http://xxxset.org/fetish/amanda-2011-03-06-splashy-113-pics-41-30-mb/20%Monthly2021-05-07 09:10
http://xxxset.org/fetish/amanda-2011-02-27-liquid-124-pics-34-17-mb/20%Monthly2021-05-07 09:09
http://xxxset.org/fetish/amanda-2011-02-20-al-capone-115-pics-41-39-mb/20%Monthly2021-05-07 09:08
http://xxxset.org/fetish/amanda-2011-02-13-stray-cats-104-pics-82-59-mb/20%Monthly2021-05-07 09:07
http://xxxset.org/fetish/amanda-2011-02-06-miniskirt-117-pics-37-79-mb/20%Monthly2021-05-07 09:06
http://xxxset.org/fetish/amanda-2011-01-30-stocking-baby-112-pics-85-26-mb/20%Monthly2021-05-07 09:05
http://xxxset.org/fetish/amanda-2011-01-23-chinese-girl-119-pics-48-83-mb/20%Monthly2021-05-07 09:03
http://xxxset.org/fetish/amanda-2011-01-16-stocking-ladies-109-pics-72-23-mb/20%Monthly2021-05-07 09:02
http://xxxset.org/fetish/amanda-2011-01-09-smoky-122-pics-29-57-mb/20%Monthly2021-05-07 09:01
http://xxxset.org/fetish/amanda-2011-01-02-legss-toes-103-pics-50-39-mb/20%Monthly2021-05-07 09:00
http://xxxset.org/milf/anilos-2021-05-06-lexus-smith-fit-for-fun-67-pics-115-25-mb/20%Monthly2021-05-06 10:24
http://xxxset.org/milf/allover30-2021-05-06-tiny-tina-9-to-5-ladies-145-pics-203-40-mb/20%Monthly2021-05-06 10:23
http://xxxset.org/milf/allover30-2021-05-06-cheyenne-jewel-elegant-ladies-138-pics-298-40-mb/20%Monthly2021-05-06 10:22
http://xxxset.org/fetish/2021-05-06-lady-barbara-6298-91-pics-57-47-mb/20%Monthly2021-05-06 10:21
http://xxxset.org/teen/sexart-2021-05-06-the-view-briana-120-pics-576-96-mb/20%Monthly2021-05-06 10:20
http://xxxset.org/teen/thelifeerotic-2021-05-06-ice-cold-kourtney-l-109-pics-330-60-mb/20%Monthly2021-05-06 10:19
http://xxxset.org/milf/desyra-noir-wicked-weasel-mega-mesh-30-pics-41-22-mb/20%Monthly2021-05-06 10:18
http://xxxset.org/milf/desyra-noir-sheer-wicked-weasel-knicker-31-pics-32-44-mb/20%Monthly2021-05-06 10:17
http://xxxset.org/milf/desyra-noir-remote-controlled-lifeguard-41-pics-50-17-mb/20%Monthly2021-05-06 10:16
http://xxxset.org/milf/desyra-noir-plugged-pink-mesh-43-pics-52-88-mb/20%Monthly2021-05-06 10:15
http://xxxset.org/milf/desyra-noir-orgasmic-nude-sunbathing-20-pics-23-10-mb/20%Monthly2021-05-06 10:14
http://xxxset.org/milf/desyra-noir-little-knicker-dildoplay-43-pics-54-15-mb/20%Monthly2021-05-06 10:13
http://xxxset.org/milf/desyra-noir-crotchless-dubio-bikini-37-pics-39-82-mb/20%Monthly2021-05-06 10:11
http://xxxset.org/milf/anilos-2021-05-05-selena-secret-passion-88-pics-209-27-mb/20%Monthly2021-05-05 11:33
http://xxxset.org/milf/auntjudys-2021-05-05-in-the-kitchen-with-linda-168-pics-586-88-mb/20%Monthly2021-05-05 11:32
http://xxxset.org/milf/allover30-2021-05-05-nika-dupre-elegant-ladies-165-pics-422-21-mb/20%Monthly2021-05-05 11:31
http://xxxset.org/milf/allover30-2021-05-05-kitty-quinn-ladies-with-toys-138-pics-194-26-mb/20%Monthly2021-05-05 11:30
http://xxxset.org/fetish/2021-05-05-lady-nicole-6297-104-pics-73-32-mb/20%Monthly2021-05-05 11:29
http://xxxset.org/teen/sexart-2021-05-05-seduction-tina-129-pics-358-79-mb/20%Monthly2021-05-05 11:28
http://xxxset.org/milf/anilos-2021-05-04-lexus-smith-better-than-ever-82-pics-162-38-mb/20%Monthly2021-05-04 15:43
http://xxxset.org/milf/auntjudys-2021-05-04-44yo-busty-milf-yulenka-returns-with-a-full-bush-180-pics-1-36-gb/20%Monthly2021-05-04 15:42
http://xxxset.org/milf/allover30-2021-05-04-gianna-chanel-exotic-ladies-125-pics-341-65-mb/20%Monthly2021-05-04 15:41
http://xxxset.org/milf/allover30-2021-05-04-beth-nudism-outdoors-150-pics-438-95-mb/20%Monthly2021-05-04 15:40
http://xxxset.org/fetish/2021-05-04-lady-svetlana-6296-95-pics-42-59-mb/20%Monthly2021-05-04 15:38
http://xxxset.org/milf/desyra-noir-ww-bikini-in-pool-47-pics-51-16-mb/20%Monthly2021-05-04 15:37
http://xxxset.org/milf/desyra-noir-wicked-weasel-lingerie-75-pics-86-73-mb/20%Monthly2021-05-04 15:36
http://xxxset.org/milf/desyra-noir-wet-cameltoe-34-pics-41-46-mb/20%Monthly2021-05-04 15:35
http://xxxset.org/milf/desyra-noir-reversed-microminimus-37-pics-42-88-mb/20%Monthly2021-05-04 15:34
http://xxxset.org/milf/desyra-noir-invisible-bikini-52-pics-58-03-mb/20%Monthly2021-05-04 15:33
http://xxxset.org/milf/desyra-noir-garden-shower-52-pics-56-79-mb/20%Monthly2021-05-04 15:32
http://xxxset.org/milf/desyra-noir-dubio-ibiza-net-extreme-bikini-40-pics-48-29-mb/20%Monthly2021-05-04 15:31
http://xxxset.org/teen/sexart-2021-05-04-good-fortune-leni-doll-83-pics-150-95-mb/20%Monthly2021-05-04 15:29
http://xxxset.org/milf/anilos-2021-05-03-selena-ravishing-in-red-97-pics-217-02-mb/20%Monthly2021-05-03 09:51
http://xxxset.org/milf/allover30-2021-05-03-nancy-acty-elegant-ladies-187-pics-452-18-mb/20%Monthly2021-05-03 09:50
http://xxxset.org/milf/allover30-2021-05-03-elisa-tiger-lacey-ladies-156-pics-329-49-mb/20%Monthly2021-05-03 09:49
http://xxxset.org/teen/sexart-2021-05-03-forever-casey-and-corey-120-pics-392-62-mb/20%Monthly2021-05-03 09:47
http://xxxset.org/fetish/2021-05-03-lady-ewa-6295-130-pics-61-75-mb/20%Monthly2021-05-03 09:46
http://xxxset.org/fetish/2021-05-02-lady-barbara-6294-41-pics-11-31-mb/20%Monthly2021-05-03 09:45
http://xxxset.org/fetish/strictlychristine-christine-000199-55-pics-134-08-mb/20%Monthly2021-05-03 09:44
http://xxxset.org/fetish/strictlychristine-christine-000198-59-pics-166-55-mb/20%Monthly2021-05-03 09:43
http://xxxset.org/fetish/strictlychristine-christine-000197-64-pics-181-43-mb/20%Monthly2021-05-03 09:42
http://xxxset.org/fetish/strictlychristine-christine-000196-55-pics-140-54-mb/20%Monthly2021-05-03 09:41
http://xxxset.org/fetish/strictlychristine-christine-000195-60-pics-116-31-mb/20%Monthly2021-05-03 09:40
http://xxxset.org/fetish/strictlychristine-christine-000194-60-pics-169-73-mb/20%Monthly2021-05-03 09:39
http://xxxset.org/fetish/strictlychristine-christine-000193-58-pics-185-88-mb/20%Monthly2021-05-03 09:38
http://xxxset.org/fetish/strictlychristine-christine-000192-62-pics-202-63-mb/20%Monthly2021-05-03 09:37
http://xxxset.org/fetish/strictlychristine-christine-000191-55-pics-116-57-mb/20%Monthly2021-05-03 09:36
http://xxxset.org/fetish/strictlychristine-christine-000190-60-pics-75-81-mb/20%Monthly2021-05-03 09:32
http://xxxset.org/fetish/strictlychristine-christine-000189-61-pics-78-48-mb/20%Monthly2021-05-03 09:31
http://xxxset.org/fetish/strictlychristine-christine-000188-55-pics-54-61-mb/20%Monthly2021-05-03 09:30
http://xxxset.org/fetish/strictlychristine-christine-000187-66-pics-60-33-mb/20%Monthly2021-05-03 09:29
http://xxxset.org/fetish/strictlychristine-christine-000186-60-pics-77-10-mb/20%Monthly2021-05-03 09:28
http://xxxset.org/fetish/strictlychristine-christine-000185-51-pics-45-92-mb/20%Monthly2021-05-03 09:27
http://xxxset.org/fetish/strictlychristine-christine-000184-55-pics-82-31-mb/20%Monthly2021-05-03 09:26
http://xxxset.org/fetish/strictlychristine-christine-000183-64-pics-96-91-mb/20%Monthly2021-05-03 09:25
http://xxxset.org/fetish/strictlychristine-christine-000182-70-pics-91-38-mb/20%Monthly2021-05-03 09:24
http://xxxset.org/fetish/strictlychristine-christine-000181-60-pics-99-76-mb/20%Monthly2021-05-03 09:23
http://xxxset.org/fetish/strictlychristine-christine-000180-55-pics-61-38-mb/20%Monthly2021-05-03 09:22
http://xxxset.org/fetish/strictlychristine-christine-000179-52-pics-54-47-mb/20%Monthly2021-05-03 09:21
http://xxxset.org/fetish/strictlychristine-christine-000178-60-pics-69-44-mb/20%Monthly2021-05-03 09:20
http://xxxset.org/fetish/strictlychristine-christine-000177-50-pics-55-15-mb/20%Monthly2021-05-03 09:18
http://xxxset.org/fetish/strictlychristine-christine-000176-68-pics-80-56-mb/20%Monthly2021-05-03 09:17
http://xxxset.org/fetish/strictlychristine-christine-000175-63-pics-71-31-mb/20%Monthly2021-05-03 09:16
http://xxxset.org/fetish/strictlychristine-christine-000174-58-pics-134-58-mb/20%Monthly2021-05-03 09:15
http://xxxset.org/fetish/strictlychristine-christine-000173-57-pics-119-22-mb/20%Monthly2021-05-03 09:14
http://xxxset.org/fetish/strictlychristine-christine-000172-56-pics-130-53-mb/20%Monthly2021-05-03 09:13
http://xxxset.org/fetish/strictlychristine-christine-000171-52-pics-132-26-mb/20%Monthly2021-05-03 09:12
http://xxxset.org/fetish/strictlychristine-christine-000170-53-pics-146-75-mb/20%Monthly2021-05-03 09:11
http://xxxset.org/milf/2021-04-20-peggy-dee-dirty-blonde-mom-126-pics-89-50-mb/20%Monthly2021-05-02 20:13
http://xxxset.org/milf/2021-04-18-veronique-show-dressing-room-dildo-83-pics-43-42-mb/20%Monthly2021-05-02 20:12
http://xxxset.org/milf/2021-04-16-dominno-drilling-dominno-114-pics-68-80-mb/20%Monthly2021-05-02 20:11
http://xxxset.org/milf/2021-04-13-allissa-west-heavy-horny-gilf-124-pics-80-63-mb/20%Monthly2021-05-02 20:09
http://xxxset.org/milf/2021-04-11-abby-wolf-lost-in-thot-119-pics-86-11-mb/20%Monthly2021-05-02 20:08
http://xxxset.org/milf/2021-04-09-brittany-bardot-doggy-domination-143-pics-105-93-mb/20%Monthly2021-05-02 20:07
http://xxxset.org/milf/2021-04-06-jolly-jay-getting-her-jollies-65-pics-36-89-mb/20%Monthly2021-05-02 20:06
http://xxxset.org/milf/2021-04-04-peggy-dee-peggys-pleasure-70-pics-54-38-mb/20%Monthly2021-05-02 20:05
http://xxxset.org/milf/2021-04-02-anette-fox-fuckable-fox-161-pics-115-13-mb/20%Monthly2021-05-02 20:04
http://xxxset.org/milf/2021-05-02-allissa-west-thinking-with-her-pink-124-pics-67-16-mb/20%Monthly2021-05-02 20:03
http://xxxset.org/milf/2021-04-30-latisha-linda-g-cock-craving-cougars-163-pics-109-11-mb/20%Monthly2021-05-02 20:02
http://xxxset.org/milf/2021-04-27-abby-wolf-toys-before-boys-145-pics-121-04-mb/20%Monthly2021-05-02 20:01
http://xxxset.org/milf/2021-04-25-julia-north-julias-juicy-bits-83-pics-52-04-mb/20%Monthly2021-05-02 20:00
http://xxxset.org/milf/2021-04-23-ally-style-slutty-massage-101-pics-66-40-mb/20%Monthly2021-05-02 19:59
http://xxxset.org/teen/sexart-2021-05-02-lost-in-love-mia-trejsi-angelo-godshack-117-pics-346-10-mb/20%Monthly2021-05-02 10:16
http://xxxset.org/teen/thelifeerotic-2021-05-02-bonded-to-pleasure-ginger-mary-98-pics-287-63-mb/20%Monthly2021-05-02 10:15
http://xxxset.org/fetish/lady-barbara-6229-76-pics-26-93-mb/20%Monthly2021-05-02 10:14
http://xxxset.org/fetish/lady-carmen-6228-80-pics-67-86-mb/20%Monthly2021-05-02 10:13
http://xxxset.org/fetish/lady-barbara-6227-97-pics-53-81-mb/20%Monthly2021-05-02 10:12
http://xxxset.org/fetish/lady-ewa-6225-92-pics-41-12-mb/20%Monthly2021-05-02 10:11
http://xxxset.org/fetish/lady-barbara-6224-78-pics-51-27-mb/20%Monthly2021-05-02 10:10
http://xxxset.org/fetish/lady-ewa-6223-106-pics-46-05-mb/20%Monthly2021-05-02 10:09
http://xxxset.org/fetish/lady-heike-6222-89-pics-36-79-mb/20%Monthly2021-05-02 10:08
http://xxxset.org/fetish/lady-barbara-6221-101-pics-60-41-mb/20%Monthly2021-05-02 10:07
http://xxxset.org/fetish/lady-ewa-6220-101-pics-63-87-mb/20%Monthly2021-05-02 10:06
http://xxxset.org/fetish/lady-barbara-6219-93-pics-34-18-mb/20%Monthly2021-05-02 10:05
http://xxxset.org/fetish/lady-ewa-6217-94-pics-45-04-mb/20%Monthly2021-05-02 10:04
http://xxxset.org/fetish/lady-barbara-6216-73-pics-40-32-mb/20%Monthly2021-05-02 10:03
http://xxxset.org/fetish/lady-ewa-6215-85-pics-57-11-mb/20%Monthly2021-05-02 10:01
http://xxxset.org/fetish/lady-barbara-6214-91-pics-32-17-mb/20%Monthly2021-05-02 10:00
http://xxxset.org/fetish/lady-barbara-6213-75-pics-33-29-mb/20%Monthly2021-05-02 09:59
http://xxxset.org/fetish/lady-ewa-6212-85-pics-45-53-mb/20%Monthly2021-05-02 09:58
http://xxxset.org/fetish/lady-barbara-6211-75-pics-40-95-mb/20%Monthly2021-05-02 09:57
http://xxxset.org/fetish/lady-heike-6210-52-pics-23-87-mb/20%Monthly2021-05-02 09:56
http://xxxset.org/fetish/lady-ewa-6208-44-pics-13-68-mb/20%Monthly2021-05-02 09:55
http://xxxset.org/fetish/lady-barbara-6207-82-pics-37-25-mb/20%Monthly2021-05-02 09:54
http://xxxset.org/fetish/lady-valerie-6206-87-pics-37-11-mb/20%Monthly2021-05-02 09:53
http://xxxset.org/fetish/lady-ewa-6205-50-pics-26-32-mb/20%Monthly2021-05-02 09:52
http://xxxset.org/fetish/lady-barbara-6204-105-pics-44-60-mb/20%Monthly2021-05-02 09:51
http://xxxset.org/fetish/lady-lena-6203-109-pics-54-11-mb/20%Monthly2021-05-02 09:50
http://xxxset.org/fetish/lady-ewa-6202-158-pics-96-63-mb/20%Monthly2021-05-02 09:49
http://xxxset.org/fetish/lady-carmen-6201-61-pics-22-88-mb/20%Monthly2021-05-02 09:48
http://xxxset.org/fetish/lady-barbara-6200-117-pics-56-38-mb/20%Monthly2021-05-02 09:47
http://xxxset.org/fetish/2021-05-01-lady-barbara-6293-75-pics-30-46-mb/20%Monthly2021-05-01 11:42
http://xxxset.org/milf/anilos-2021-05-01-selena-love-note-94-pics-220-71-mb/20%Monthly2021-05-03 09:12
http://xxxset.org/milf/allover30-2021-05-01-quinn-waters-mature-housewives-160-pics-349-67-mb/20%Monthly2021-05-01 11:40
http://xxxset.org/milf/allover30-2021-05-01-liza-shay-lacey-ladies-116-pics-300-20-mb/20%Monthly2021-05-01 11:39
http://xxxset.org/teen/sexart-2021-05-01-color-of-passion-morrigan-99-pics-137-mb/20%Monthly2021-05-01 11:38